PWSweather.com
Personal Weather Stations
Station Observations
KNJSTAFF6
Village Harbor, Beach Haven West, Manahawkin, NJ 08050

Village Harbor, Beach Haven WestManahawkin, NJ 08050

Lat: 39.67889410559905, Lon: -74.24244902883606

Elevation: 15

Station Type: Oregon Scientific WMR88A

High Low Average
Temperature 88.7°F31.5°C 66.9°F19.4°C 76.5°F24.7°C
Dew Point 70.3°F21.3°C 57.1°F13.9°C 64.6°F18.1°C
Winds 5.1 mph 8.2 kmh Calm Calm 2.0 mph ENE3.2 kmh ENE
Wind Gusts 8.7 mph14.0 kmh -- 4.0 mph6.4 kmh
Humidity 92% 40% 70%
Pressure 30.07 in1018.3 mb 29.89 in1012.2 mb -
Precipitation 0.00 in0.0 mm - -
Hour Temp Dew Point Humidity Winds Wind Gusts Pressure Precip Precip Rate Daily Precip Total
12:00 AM 71.6°F22.0°C 68.8°F20.4°C 91% 1.0 mph NE1.6 kmh NE 2.9 mph4.7 kmh 29.89 in1012.2 mb 0.00 in0.0 mm 0.00 in0.0 mm 0.00 in0.0 mm
12:01 AM 71.6°F22.0°C 68.8°F20.4°C 91% 1.3 mph NE2.1 kmh NE 4.7 mph7.6 kmh 29.89 in1012.2 mb 0.00 in0.0 mm 0.00 in0.0 mm 0.00 in0.0 mm
12:02 AM 71.8°F22.1°C 69.0°F20.6°C 91% 1.8 mph NE2.9 kmh NE 4.7 mph7.6 kmh 29.89 in1012.2 mb 0.00 in0.0 mm 0.00 in0.0 mm 0.00 in0.0 mm
12:03 AM 71.8°F22.1°C 69.0°F20.6°C 91% 1.7 mph NE2.7 kmh NE 4.7 mph7.6 kmh 29.89 in1012.2 mb 0.00 in0.0 mm 0.00 in0.0 mm 0.00 in0.0 mm
12:04 AM 71.8°F22.1°C 69.0°F20.6°C 91% 1.5 mph NNE2.4 kmh NNE 4.7 mph7.6 kmh 29.89 in1012.2 mb 0.00 in0.0 mm 0.00 in0.0 mm 0.00 in0.0 mm
12:05 AM 71.8°F22.1°C 69.0°F20.6°C 91% 1.3 mph NNE2.1 kmh NNE 4.7 mph7.6 kmh 29.89 in1012.2 mb 0.00 in0.0 mm 0.00 in0.0 mm 0.00 in0.0 mm
12:06 AM 71.8°F22.1°C 69.0°F20.6°C 91% 1.4 mph NNE2.3 kmh NNE 4.7 mph7.6 kmh 29.89 in1012.2 mb 0.00 in0.0 mm 0.00 in0.0 mm 0.00 in0.0 mm
12:07 AM 71.6°F22.0°C 68.8°F20.4°C 91% 1.5 mph NNE2.4 kmh NNE 4.7 mph7.6 kmh 29.89 in1012.2 mb 0.00 in0.0 mm 0.00 in0.0 mm 0.00 in0.0 mm
12:08 AM 71.6°F22.0°C 68.8°F20.4°C 91% 1.6 mph NNE2.6 kmh NNE 4.7 mph7.6 kmh 29.89 in1012.2 mb 0.00 in0.0 mm 0.00 in0.0 mm 0.00 in0.0 mm
12:09 AM 71.6°F22.0°C 68.8°F20.4°C 91% 1.5 mph NNE2.4 kmh NNE 4.7 mph7.6 kmh 29.89 in1012.2 mb 0.00 in0.0 mm 0.00 in0.0 mm 0.00 in0.0 mm
12:10 AM 71.6°F22.0°C 68.8°F20.4°C 91% 1.7 mph NNE2.7 kmh NNE 4.7 mph7.6 kmh 29.89 in1012.2 mb 0.00 in0.0 mm 0.00 in0.0 mm 0.00 in0.0 mm
12:11 AM 71.6°F22.0°C 68.8°F20.4°C 91% 1.5 mph NE2.4 kmh NE 4.7 mph7.6 kmh 29.89 in1012.2 mb 0.00 in0.0 mm 0.00 in0.0 mm 0.00 in0.0 mm
12:12 AM 71.6°F22.0°C 68.8°F20.4°C 91% 1.1 mph NE1.8 kmh NE 2.7 mph4.3 kmh 29.89 in1012.2 mb 0.00 in0.0 mm 0.00 in0.0 mm 0.00 in0.0 mm
12:13 AM 71.6°F22.0°C 68.8°F20.4°C 91% 1.1 mph NE1.8 kmh NE 2.7 mph4.3 kmh 29.89 in1012.2 mb 0.00 in0.0 mm 0.00 in0.0 mm 0.00 in0.0 mm
12:14 AM 71.4°F21.9°C 68.7°F20.4°C 91% 1.1 mph NE1.8 kmh NE 2.7 mph4.3 kmh 29.89 in1012.2 mb 0.00 in0.0 mm 0.00 in0.0 mm 0.00 in0.0 mm
12:15 AM 71.4°F21.9°C 68.7°F20.4°C 91% 1.1 mph NE1.8 kmh NE 2.7 mph4.3 kmh 29.89 in1012.2 mb 0.00 in0.0 mm 0.00 in0.0 mm 0.00 in0.0 mm
12:16 AM 71.4°F21.9°C 68.7°F20.4°C 91% 0.9 mph NE1.4 kmh NE 2.7 mph4.3 kmh 29.89 in1012.2 mb 0.00 in0.0 mm 0.00 in0.0 mm 0.00 in0.0 mm
12:17 AM 71.4°F21.9°C 68.7°F20.4°C 91% 0.8 mph NE1.3 kmh NE 2.7 mph4.3 kmh 29.89 in1012.2 mb 0.00 in0.0 mm 0.00 in0.0 mm 0.00 in0.0 mm
12:18 AM 71.4°F21.9°C 68.7°F20.4°C 91% 0.5 mph NE0.8 kmh NE 2.7 mph4.3 kmh 29.89 in1012.2 mb 0.00 in0.0 mm 0.00 in0.0 mm 0.00 in0.0 mm
12:19 AM 71.4°F21.9°C 68.7°F20.4°C 91% 0.5 mph NE0.8 kmh NE 2.7 mph4.3 kmh 29.89 in1012.2 mb 0.00 in0.0 mm 0.00 in0.0 mm 0.00 in0.0 mm
12:20 AM 71.4°F21.9°C 68.7°F20.4°C 91% 0.4 mph NE0.6 kmh NE 2.7 mph4.3 kmh 29.89 in1012.2 mb 0.00 in0.0 mm 0.00 in0.0 mm 0.00 in0.0 mm
12:21 AM 71.4°F21.9°C 68.7°F20.4°C 91% 0.1 mph NE0.2 kmh NE 0.9 mph1.4 kmh 29.89 in1012.2 mb 0.00 in0.0 mm 0.00 in0.0 mm 0.00 in0.0 mm
12:22 AM 71.4°F21.9°C 68.7°F20.4°C 91% 0.3 mph NE0.5 kmh NE 2.2 mph3.5 kmh 29.89 in1012.2 mb 0.00 in0.0 mm 0.00 in0.0 mm 0.00 in0.0 mm
12:23 AM 71.4°F21.9°C 68.7°F20.4°C 91% 0.3 mph NE0.5 kmh NE 2.2 mph3.5 kmh 29.89 in1012.2 mb 0.00 in0.0 mm 0.00 in0.0 mm 0.00 in0.0 mm
12:24 AM 71.4°F21.9°C 68.7°F20.4°C 91% 0.2 mph NE0.3 kmh NE 2.2 mph3.5 kmh 29.89 in1012.2 mb 0.00 in0.0 mm 0.00 in0.0 mm 0.00 in0.0 mm
12:25 AM 71.4°F21.9°C 68.7°F20.4°C 91% 0.2 mph NE0.3 kmh NE 2.2 mph3.5 kmh 29.89 in1012.2 mb 0.00 in0.0 mm 0.00 in0.0 mm 0.00 in0.0 mm
12:26 AM 71.4°F21.9°C 68.7°F20.4°C 91% 0.3 mph NE0.5 kmh NE 2.2 mph3.5 kmh 29.89 in1012.2 mb 0.00 in0.0 mm 0.00 in0.0 mm 0.00 in0.0 mm
12:27 AM 71.4°F21.9°C 68.7°F20.4°C 91% 0.3 mph NNE0.5 kmh NNE 2.2 mph3.5 kmh 29.89 in1012.2 mb 0.00 in0.0 mm 0.00 in0.0 mm 0.00 in0.0 mm
12:28 AM 71.4°F21.9°C 68.7°F20.4°C 91% 0.3 mph NNE0.5 kmh NNE 2.2 mph3.5 kmh 29.89 in1012.2 mb 0.00 in0.0 mm 0.00 in0.0 mm 0.00 in0.0 mm
12:29 AM 71.4°F21.9°C 68.7°F20.4°C 91% 0.3 mph NNE0.5 kmh NNE 2.2 mph3.5 kmh 29.89 in1012.2 mb 0.00 in0.0 mm 0.00 in0.0 mm 0.00 in0.0 mm
12:30 AM 71.4°F21.9°C 68.7°F20.4°C 91% 0.3 mph NNE0.5 kmh NNE 2.2 mph3.5 kmh 29.89 in1012.2 mb 0.00 in0.0 mm 0.00 in0.0 mm 0.00 in0.0 mm
12:31 AM 71.4°F21.9°C 68.7°F20.4°C 91% 0.3 mph NNE0.5 kmh NNE 2.2 mph3.5 kmh 29.89 in1012.2 mb 0.00 in0.0 mm 0.00 in0.0 mm 0.00 in0.0 mm
12:32 AM 71.4°F21.9°C 68.7°F20.4°C 91% 0.2 mph N0.3 kmh N 1.6 mph2.6 kmh 29.89 in1012.2 mb 0.00 in0.0 mm 0.00 in0.0 mm 0.00 in0.0 mm
12:33 AM 71.4°F21.9°C 68.7°F20.4°C 91% 0.3 mph N0.5 kmh N 2.0 mph3.2 kmh 29.89 in1012.2 mb 0.00 in0.0 mm 0.00 in0.0 mm 0.00 in0.0 mm
12:34 AM 71.4°F21.9°C 68.7°F20.4°C 91% 0.5 mph N0.8 kmh N 3.1 mph5.0 kmh 29.89 in1012.2 mb 0.00 in0.0 mm 0.00 in0.0 mm 0.00 in0.0 mm
12:35 AM 71.4°F21.9°C 68.7°F20.4°C 91% 0.6 mph N1.0 kmh N 3.1 mph5.0 kmh 29.89 in1012.2 mb 0.00 in0.0 mm 0.00 in0.0 mm 0.00 in0.0 mm
12:36 AM 71.4°F21.9°C 68.7°F20.4°C 91% 0.6 mph N1.0 kmh N 3.1 mph5.0 kmh 29.92 in1013.2 mb 0.00 in0.0 mm 0.00 in0.0 mm 0.00 in0.0 mm
12:37 AM 71.4°F21.9°C 68.7°F20.4°C 91% 0.8 mph N1.3 kmh N 3.1 mph5.0 kmh 29.92 in1013.2 mb 0.00 in0.0 mm 0.00 in0.0 mm 0.00 in0.0 mm
12:38 AM 71.4°F21.9°C 68.7°F20.4°C 91% 1.0 mph N1.6 kmh N 3.1 mph5.0 kmh 29.92 in1013.2 mb 0.00 in0.0 mm 0.00 in0.0 mm 0.00 in0.0 mm
12:39 AM 71.4°F21.9°C 68.7°F20.4°C 91% 1.2 mph NNE1.9 kmh NNE 3.1 mph5.0 kmh 29.92 in1013.2 mb 0.00 in0.0 mm 0.00 in0.0 mm 0.00 in0.0 mm
12:40 AM 71.4°F21.9°C 68.7°F20.4°C 91% 1.2 mph NNE1.9 kmh NNE 3.1 mph5.0 kmh 29.92 in1013.2 mb 0.00 in0.0 mm 0.00 in0.0 mm 0.00 in0.0 mm
12:41 AM 71.4°F21.9°C 68.7°F20.4°C 91% 1.2 mph NNE1.9 kmh NNE 3.1 mph5.0 kmh 29.92 in1013.2 mb 0.00 in0.0 mm 0.00 in0.0 mm 0.00 in0.0 mm
12:42 AM 71.2°F21.8°C 68.2°F20.1°C 90% 1.2 mph NNE1.9 kmh NNE 3.1 mph5.0 kmh 29.92 in1013.2 mb 0.00 in0.0 mm 0.00 in0.0 mm 0.00 in0.0 mm
12:43 AM 71.2°F21.8°C 68.2°F20.1°C 90% 1.0 mph NNE1.6 kmh NNE 3.1 mph5.0 kmh 29.92 in1013.2 mb 0.00 in0.0 mm 0.00 in0.0 mm 0.00 in0.0 mm
12:44 AM 71.1°F21.7°C 68.0°F20.0°C 90% 0.7 mph NNE1.1 kmh NNE 2.9 mph4.7 kmh 29.92 in1013.2 mb 0.00 in0.0 mm 0.00 in0.0 mm 0.00 in0.0 mm
12:45 AM 71.1°F21.7°C 68.0°F20.0°C 90% 0.7 mph NNE1.1 kmh NNE 2.9 mph4.7 kmh 29.92 in1013.2 mb 0.00 in0.0 mm 0.00 in0.0 mm 0.00 in0.0 mm
12:46 AM 70.9°F21.6°C 67.8°F19.9°C 90% 0.7 mph NNE1.1 kmh NNE 2.9 mph4.7 kmh 29.92 in1013.2 mb 0.00 in0.0 mm 0.00 in0.0 mm 0.00 in0.0 mm
12:47 AM 70.9°F21.6°C 67.8°F19.9°C 90% 0.6 mph NNE1.0 kmh NNE 2.9 mph4.7 kmh 29.92 in1013.2 mb 0.00 in0.0 mm 0.00 in0.0 mm 0.00 in0.0 mm
12:48 AM 70.9°F21.6°C 67.8°F19.9°C 90% 0.4 mph NNE0.6 kmh NNE 2.7 mph4.3 kmh 29.92 in1013.2 mb 0.00 in0.0 mm 0.00 in0.0 mm 0.00 in0.0 mm
12:49 AM 70.9°F21.6°C 67.8°F19.9°C 90% 0.2 mph NE0.3 kmh NE 2.7 mph4.3 kmh 29.92 in1013.2 mb 0.00 in0.0 mm 0.00 in0.0 mm 0.00 in0.0 mm
12:50 AM 70.9°F21.6°C 67.8°F19.9°C 90% Calm Calm -- 29.92 in1013.2 mb 0.00 in0.0 mm 0.00 in0.0 mm 0.00 in0.0 mm
12:51 AM 70.7°F21.5°C 67.6°F19.8°C 90% Calm Calm -- 29.92 in1013.2 mb 0.00 in0.0 mm 0.00 in0.0 mm 0.00 in0.0 mm
12:52 AM 70.7°F21.5°C 67.6°F19.8°C 90% Calm Calm -- 29.92 in1013.2 mb 0.00 in0.0 mm 0.00 in0.0 mm 0.00 in0.0 mm
12:53 AM 70.7°F21.5°C 67.6°F19.8°C 90% Calm Calm -- 29.92 in1013.2 mb 0.00 in0.0 mm 0.00 in0.0 mm 0.00 in0.0 mm
12:54 AM 70.7°F21.5°C 67.6°F19.8°C 90% Calm Calm -- 29.92 in1013.2 mb 0.00 in0.0 mm 0.00 in0.0 mm 0.00 in0.0 mm
12:55 AM 70.9°F21.6°C 67.8°F19.9°C 90% Calm Calm -- 29.92 in1013.2 mb 0.00 in0.0 mm 0.00 in0.0 mm 0.00 in0.0 mm
12:56 AM 70.9°F21.6°C 67.8°F19.9°C 90% Calm Calm -- 29.92 in1013.2 mb 0.00 in0.0 mm 0.00 in0.0 mm 0.00 in0.0 mm
12:57 AM 70.9°F21.6°C 67.8°F19.9°C 90% Calm Calm -- 29.92 in1013.2 mb 0.00 in0.0 mm 0.00 in0.0 mm 0.00 in0.0 mm
12:58 AM 70.9°F21.6°C 67.8°F19.9°C 90% Calm Calm -- 29.92 in1013.2 mb 0.00 in0.0 mm 0.00 in0.0 mm 0.00 in0.0 mm
12:59 AM 70.9°F21.6°C 67.8°F19.9°C 90% Calm Calm -- 29.92 in1013.2 mb 0.00 in0.0 mm 0.00 in0.0 mm 0.00 in0.0 mm
01:00 AM 70.9°F21.6°C 67.8°F19.9°C 90% Calm Calm -- 29.92 in1013.2 mb 0.00 in0.0 mm 0.00 in0.0 mm 0.00 in0.0 mm
01:01 AM 70.9°F21.6°C 67.8°F19.9°C 90% Calm Calm -- 29.92 in1013.2 mb 0.00 in0.0 mm 0.00 in0.0 mm 0.00 in0.0 mm
01:02 AM 71.1°F21.7°C 68.0°F20.0°C 90% Calm Calm -- 29.92 in1013.2 mb 0.00 in0.0 mm 0.00 in0.0 mm 0.00 in0.0 mm
01:03 AM 71.1°F21.7°C 68.0°F20.0°C 90% Calm Calm -- 29.92 in1013.2 mb 0.00 in0.0 mm 0.00 in0.0 mm 0.00 in0.0 mm
01:04 AM 71.1°F21.7°C 68.0°F20.0°C 90% Calm Calm -- 29.92 in1013.2 mb 0.00 in0.0 mm 0.00 in0.0 mm 0.00 in0.0 mm
01:05 AM 71.1°F21.7°C 68.0°F20.0°C 90% Calm Calm -- 29.92 in1013.2 mb 0.00 in0.0 mm 0.00 in0.0 mm 0.00 in0.0 mm
01:06 AM 71.1°F21.7°C 68.0°F20.0°C 90% Calm Calm -- 29.92 in1013.2 mb 0.00 in0.0 mm 0.00 in0.0 mm 0.00 in0.0 mm
01:07 AM 71.1°F21.7°C 68.0°F20.0°C 90% Calm Calm -- 29.92 in1013.2 mb 0.00 in0.0 mm 0.00 in0.0 mm 0.00 in0.0 mm
01:08 AM 71.1°F21.7°C 68.0°F20.0°C 90% Calm Calm -- 29.92 in1013.2 mb 0.00 in0.0 mm 0.00 in0.0 mm 0.00 in0.0 mm
01:09 AM 71.1°F21.7°C 68.0°F20.0°C 90% Calm Calm -- 29.92 in1013.2 mb 0.00 in0.0 mm 0.00 in0.0 mm 0.00 in0.0 mm
01:10 AM 71.1°F21.7°C 68.0°F20.0°C 90% Calm Calm -- 29.92 in1013.2 mb 0.00 in0.0 mm 0.00 in0.0 mm 0.00 in0.0 mm
01:11 AM 71.1°F21.7°C 68.0°F20.0°C 90% Calm Calm -- 29.92 in1013.2 mb 0.00 in0.0 mm 0.00 in0.0 mm 0.00 in0.0 mm
01:12 AM 71.1°F21.7°C 68.0°F20.0°C 90% Calm Calm -- 29.92 in1013.2 mb 0.00 in0.0 mm 0.00 in0.0 mm 0.00 in0.0 mm
01:13 AM 71.1°F21.7°C 68.0°F20.0°C 90% Calm Calm -- 29.92 in1013.2 mb 0.00 in0.0 mm 0.00 in0.0 mm 0.00 in0.0 mm
01:14 AM 71.1°F21.7°C 68.0°F20.0°C 90% Calm Calm -- 29.92 in1013.2 mb 0.00 in0.0 mm 0.00 in0.0 mm 0.00 in0.0 mm
01:15 AM 71.1°F21.7°C 68.0°F20.0°C 90% Calm Calm -- 29.92 in1013.2 mb 0.00 in0.0 mm 0.00 in0.0 mm 0.00 in0.0 mm
01:16 AM 71.2°F21.8°C 68.2°F20.1°C 90% Calm Calm -- 29.92 in1013.2 mb 0.00 in0.0 mm 0.00 in0.0 mm 0.00 in0.0 mm
01:17 AM 71.2°F21.8°C 68.2°F20.1°C 90% Calm Calm -- 29.92 in1013.2 mb 0.00 in0.0 mm 0.00 in0.0 mm 0.00 in0.0 mm
01:18 AM 71.2°F21.8°C 68.2°F20.1°C 90% Calm Calm -- 29.92 in1013.2 mb 0.00 in0.0 mm 0.00 in0.0 mm 0.00 in0.0 mm
01:19 AM 71.2°F21.8°C 68.2°F20.1°C 90% Calm Calm -- 29.92 in1013.2 mb 0.00 in0.0 mm 0.00 in0.0 mm 0.00 in0.0 mm
01:20 AM 71.2°F21.8°C 68.2°F20.1°C 90% Calm Calm -- 29.92 in1013.2 mb 0.00 in0.0 mm 0.00 in0.0 mm 0.00 in0.0 mm
01:21 AM 71.2°F21.8°C 68.2°F20.1°C 90% Calm Calm -- 29.92 in1013.2 mb 0.00 in0.0 mm 0.00 in0.0 mm 0.00 in0.0 mm
01:22 AM 71.2°F21.8°C 68.2°F20.1°C 90% Calm Calm -- 29.92 in1013.2 mb 0.00 in0.0 mm 0.00 in0.0 mm 0.00 in0.0 mm
01:23 AM 71.2°F21.8°C 68.2°F20.1°C 90% Calm Calm -- 29.92 in1013.2 mb 0.00 in0.0 mm 0.00 in0.0 mm 0.00 in0.0 mm
01:24 AM 71.2°F21.8°C 68.2°F20.1°C 90% Calm Calm -- 29.92 in1013.2 mb 0.00 in0.0 mm 0.00 in0.0 mm 0.00 in0.0 mm
01:25 AM 71.2°F21.8°C 68.2°F20.1°C 90% 0.2 mph E0.3 kmh E 3.4 mph5.5 kmh 29.92 in1013.2 mb 0.00 in0.0 mm 0.00 in0.0 mm 0.00 in0.0 mm
01:26 AM 71.2°F21.8°C 68.2°F20.1°C 90% 0.2 mph E0.3 kmh E 3.4 mph5.5 kmh 29.92 in1013.2 mb 0.00 in0.0 mm 0.00 in0.0 mm 0.00 in0.0 mm
01:27 AM 71.2°F21.8°C 68.5°F20.3°C 91% 0.3 mph E0.5 kmh E 3.4 mph5.5 kmh 29.92 in1013.2 mb 0.00 in0.0 mm 0.00 in0.0 mm 0.00 in0.0 mm
01:28 AM 71.2°F21.8°C 68.5°F20.3°C 91% 0.4 mph E0.6 kmh E 3.4 mph5.5 kmh 29.92 in1013.2 mb 0.00 in0.0 mm 0.00 in0.0 mm 0.00 in0.0 mm
01:29 AM 71.2°F21.8°C 68.5°F20.3°C 91% 0.4 mph E0.6 kmh E 3.4 mph5.5 kmh 29.92 in1013.2 mb 0.00 in0.0 mm 0.00 in0.0 mm 0.00 in0.0 mm
01:30 AM 71.2°F21.8°C 68.5°F20.3°C 91% 0.4 mph E0.6 kmh E 3.4 mph5.5 kmh 29.92 in1013.2 mb 0.00 in0.0 mm 0.00 in0.0 mm 0.00 in0.0 mm
01:31 AM 71.2°F21.8°C 68.5°F20.3°C 91% 0.4 mph E0.6 kmh E 3.4 mph5.5 kmh 29.92 in1013.2 mb 0.00 in0.0 mm 0.00 in0.0 mm 0.00 in0.0 mm
01:32 AM 71.2°F21.8°C 68.2°F20.1°C 90% 0.4 mph E0.6 kmh E 3.4 mph5.5 kmh 29.92 in1013.2 mb 0.00 in0.0 mm 0.00 in0.0 mm 0.00 in0.0 mm
01:33 AM 71.2°F21.8°C 68.2°F20.1°C 90% 0.4 mph E0.6 kmh E 3.4 mph5.5 kmh 29.92 in1013.2 mb 0.00 in0.0 mm 0.00 in0.0 mm 0.00 in0.0 mm
01:34 AM 71.2°F21.8°C 68.2°F20.1°C 90% 0.4 mph E0.6 kmh E 3.4 mph5.5 kmh 29.92 in1013.2 mb 0.00 in0.0 mm 0.00 in0.0 mm 0.00 in0.0 mm
01:35 AM 71.2°F21.8°C 68.2°F20.1°C 90% 0.3 mph ENE0.5 kmh ENE 2.0 mph3.2 kmh 29.92 in1013.2 mb 0.00 in0.0 mm 0.00 in0.0 mm 0.00 in0.0 mm
01:36 AM 71.2°F21.8°C 68.5°F20.3°C 91% 0.6 mph ENE1.0 kmh ENE 2.0 mph3.2 kmh 29.92 in1013.2 mb 0.00 in0.0 mm 0.00 in0.0 mm 0.00 in0.0 mm
01:37 AM 71.1°F21.7°C 68.3°F20.2°C 91% 0.5 mph E0.8 kmh E 2.0 mph3.2 kmh 29.92 in1013.2 mb 0.00 in0.0 mm 0.00 in0.0 mm 0.00 in0.0 mm
01:38 AM 71.1°F21.7°C 68.3°F20.2°C 91% 0.5 mph ENE0.8 kmh ENE 2.0 mph3.2 kmh 29.92 in1013.2 mb 0.00 in0.0 mm 0.00 in0.0 mm 0.00 in0.0 mm
01:39 AM 71.1°F21.7°C 68.0°F20.0°C 90% 0.4 mph ENE0.6 kmh ENE 2.0 mph3.2 kmh 29.92 in1013.2 mb 0.00 in0.0 mm 0.00 in0.0 mm 0.00 in0.0 mm
01:40 AM 71.1°F21.7°C 68.0°F20.0°C 90% 0.4 mph ENE0.6 kmh ENE 2.0 mph3.2 kmh 29.92 in1013.2 mb 0.00 in0.0 mm 0.00 in0.0 mm 0.00 in0.0 mm
01:41 AM 71.1°F21.7°C 68.3°F20.2°C 91% 0.5 mph ENE0.8 kmh ENE 2.0 mph3.2 kmh 29.92 in1013.2 mb 0.00 in0.0 mm 0.00 in0.0 mm 0.00 in0.0 mm
01:42 AM 71.1°F21.7°C 68.3°F20.2°C 91% 0.5 mph ENE0.8 kmh ENE 2.0 mph3.2 kmh 29.92 in1013.2 mb 0.00 in0.0 mm 0.00 in0.0 mm 0.00 in0.0 mm
01:43 AM 71.1°F21.7°C 68.0°F20.0°C 90% 0.6 mph ENE1.0 kmh ENE 2.0 mph3.2 kmh 29.92 in1013.2 mb 0.00 in0.0 mm 0.00 in0.0 mm 0.00 in0.0 mm
01:44 AM 70.9°F21.6°C 68.1°F20.1°C 91% 0.6 mph ENE1.0 kmh ENE 2.0 mph3.2 kmh 29.92 in1013.2 mb 0.00 in0.0 mm 0.00 in0.0 mm 0.00 in0.0 mm
01:45 AM 70.9°F21.6°C 68.1°F20.1°C 91% 0.6 mph ENE1.0 kmh ENE 2.0 mph3.2 kmh 29.92 in1013.2 mb 0.00 in0.0 mm 0.00 in0.0 mm 0.00 in0.0 mm
01:46 AM 70.9°F21.6°C 68.1°F20.1°C 91% 0.2 mph ENE0.3 kmh ENE 1.6 mph2.6 kmh 29.92 in1013.2 mb 0.00 in0.0 mm 0.00 in0.0 mm 0.00 in0.0 mm
01:47 AM 70.9°F21.6°C 68.1°F20.1°C 91% 0.3 mph E0.5 kmh E 1.6 mph2.6 kmh 29.92 in1013.2 mb 0.00 in0.0 mm 0.00 in0.0 mm 0.00 in0.0 mm
01:48 AM 71.1°F21.7°C 68.3°F20.2°C 91% 0.3 mph E0.5 kmh E 1.3 mph2.1 kmh 29.92 in1013.2 mb 0.00 in0.0 mm 0.00 in0.0 mm 0.00 in0.0 mm
01:49 AM 71.1°F21.7°C 68.3°F20.2°C 91% 0.3 mph E0.5 kmh E 1.3 mph2.1 kmh 29.92 in1013.2 mb 0.00 in0.0 mm 0.00 in0.0 mm 0.00 in0.0 mm
01:50 AM 70.9°F21.6°C 68.1°F20.1°C 91% 0.3 mph E0.5 kmh E 1.3 mph2.1 kmh 29.92 in1013.2 mb 0.00 in0.0 mm 0.00 in0.0 mm 0.00 in0.0 mm
01:51 AM 71.1°F21.7°C 68.3°F20.2°C 91% 0.3 mph E0.5 kmh E 1.3 mph2.1 kmh 29.89 in1012.2 mb 0.00 in0.0 mm 0.00 in0.0 mm 0.00 in0.0 mm
01:52 AM 71.1°F21.7°C 68.3°F20.2°C 91% 0.3 mph E0.5 kmh E 1.3 mph2.1 kmh 29.89 in1012.2 mb 0.00 in0.0 mm 0.00 in0.0 mm 0.00 in0.0 mm
01:53 AM 70.9°F21.6°C 68.1°F20.1°C 91% 0.2 mph ENE0.3 kmh ENE 1.1 mph1.8 kmh 29.89 in1012.2 mb 0.00 in0.0 mm 0.00 in0.0 mm 0.00 in0.0 mm
01:54 AM 70.9°F21.6°C 68.1°F20.1°C 91% 0.3 mph ENE0.5 kmh ENE 1.1 mph1.8 kmh 29.89 in1012.2 mb 0.00 in0.0 mm 0.00 in0.0 mm 0.00 in0.0 mm
01:55 AM 70.9°F21.6°C 67.8°F19.9°C 90% 0.3 mph ENE0.5 kmh ENE 1.1 mph1.8 kmh 29.89 in1012.2 mb 0.00 in0.0 mm 0.00 in0.0 mm 0.00 in0.0 mm
01:56 AM 70.9°F21.6°C 67.8°F19.9°C 90% 0.3 mph ENE0.5 kmh ENE 1.1 mph1.8 kmh 29.89 in1012.2 mb 0.00 in0.0 mm 0.00 in0.0 mm 0.00 in0.0 mm
01:57 AM 70.9°F21.6°C 67.8°F19.9°C 90% 0.3 mph ENE0.5 kmh ENE 1.1 mph1.8 kmh 29.89 in1012.2 mb 0.00 in0.0 mm 0.00 in0.0 mm 0.00 in0.0 mm
01:58 AM 70.9°F21.6°C 67.8°F19.9°C 90% 0.2 mph NE0.3 kmh NE 1.1 mph1.8 kmh 29.89 in1012.2 mb 0.00 in0.0 mm 0.00 in0.0 mm 0.00 in0.0 mm
01:59 AM 70.9°F21.6°C 67.8°F19.9°C 90% 0.2 mph NE0.3 kmh NE 1.1 mph1.8 kmh 29.89 in1012.2 mb 0.00 in0.0 mm 0.00 in0.0 mm 0.00 in0.0 mm
02:00 AM 70.9°F21.6°C 68.1°F20.1°C 91% 0.3 mph ENE0.5 kmh ENE 1.1 mph1.8 kmh 29.89 in1012.2 mb 0.00 in0.0 mm 0.00 in0.0 mm 0.00 in0.0 mm
02:01 AM 70.9°F21.6°C 68.1°F20.1°C 91% 0.2 mph ENE0.3 kmh ENE 1.1 mph1.8 kmh 29.89 in1012.2 mb 0.00 in0.0 mm 0.00 in0.0 mm 0.00 in0.0 mm
02:02 AM 70.9°F21.6°C 68.1°F20.1°C 91% 0.2 mph E0.3 kmh E 1.1 mph1.8 kmh 29.89 in1012.2 mb 0.00 in0.0 mm 0.00 in0.0 mm 0.00 in0.0 mm
02:03 AM 70.9°F21.6°C 68.1°F20.1°C 91% 0.2 mph E0.3 kmh E 1.1 mph1.8 kmh 29.89 in1012.2 mb 0.00 in0.0 mm 0.00 in0.0 mm 0.00 in0.0 mm
02:04 AM 70.9°F21.6°C 68.1°F20.1°C 91% 0.2 mph E0.3 kmh E 1.1 mph1.8 kmh 29.89 in1012.2 mb 0.00 in0.0 mm 0.00 in0.0 mm 0.00 in0.0 mm
02:05 AM 70.9°F21.6°C 68.1°F20.1°C 91% 0.1 mph E0.2 kmh E 0.9 mph1.4 kmh 29.89 in1012.2 mb 0.00 in0.0 mm 0.00 in0.0 mm 0.00 in0.0 mm
02:06 AM 70.9°F21.6°C 68.1°F20.1°C 91% 0.1 mph E0.2 kmh E 0.9 mph1.4 kmh 29.89 in1012.2 mb 0.00 in0.0 mm 0.00 in0.0 mm 0.00 in0.0 mm
02:07 AM 70.9°F21.6°C 68.1°F20.1°C 91% 0.2 mph ENE0.3 kmh ENE 0.9 mph1.4 kmh 29.89 in1012.2 mb 0.00 in0.0 mm 0.00 in0.0 mm 0.00 in0.0 mm
02:08 AM 70.9°F21.6°C 68.1°F20.1°C 91% 0.2 mph ENE0.3 kmh ENE 0.9 mph1.4 kmh 29.89 in1012.2 mb 0.00 in0.0 mm 0.00 in0.0 mm 0.00 in0.0 mm
02:09 AM 70.9°F21.6°C 68.1°F20.1°C 91% 0.2 mph ENE0.3 kmh ENE 0.9 mph1.4 kmh 29.89 in1012.2 mb 0.00 in0.0 mm 0.00 in0.0 mm 0.00 in0.0 mm
02:10 AM 70.9°F21.6°C 68.1°F20.1°C 91% 0.2 mph ENE0.3 kmh ENE 0.9 mph1.4 kmh 29.89 in1012.2 mb 0.00 in0.0 mm 0.00 in0.0 mm 0.00 in0.0 mm
02:11 AM 70.9°F21.6°C 67.8°F19.9°C 90% 0.1 mph NE0.2 kmh NE 0.9 mph1.4 kmh 29.89 in1012.2 mb 0.00 in0.0 mm 0.00 in0.0 mm 0.00 in0.0 mm
02:12 AM 70.9°F21.6°C 67.8°F19.9°C 90% 0.1 mph NE0.2 kmh NE 0.9 mph1.4 kmh 29.92 in1013.2 mb 0.00 in0.0 mm 0.00 in0.0 mm 0.00 in0.0 mm
02:13 AM 70.9°F21.6°C 67.8°F19.9°C 90% 0.1 mph NE0.2 kmh NE 0.9 mph1.4 kmh 29.92 in1013.2 mb 0.00 in0.0 mm 0.00 in0.0 mm 0.00 in0.0 mm
02:14 AM 70.9°F21.6°C 68.1°F20.1°C 91% 0.1 mph NE0.2 kmh NE 0.9 mph1.4 kmh 29.92 in1013.2 mb 0.00 in0.0 mm 0.00 in0.0 mm 0.00 in0.0 mm
02:15 AM 70.9°F21.6°C 68.1°F20.1°C 91% 0.2 mph NE0.3 kmh NE 1.1 mph1.8 kmh 29.92 in1013.2 mb 0.00 in0.0 mm 0.00 in0.0 mm 0.00 in0.0 mm
02:16 AM 70.9°F21.6°C 67.8°F19.9°C 90% 0.3 mph NE0.5 kmh NE 1.1 mph1.8 kmh 29.92 in1013.2 mb 0.00 in0.0 mm 0.00 in0.0 mm 0.00 in0.0 mm
02:17 AM 70.9°F21.6°C 67.8°F19.9°C 90% 0.2 mph NE0.3 kmh NE 1.1 mph1.8 kmh 29.92 in1013.2 mb 0.00 in0.0 mm 0.00 in0.0 mm 0.00 in0.0 mm
02:18 AM 70.9°F21.6°C 68.1°F20.1°C 91% 0.1 mph NE0.2 kmh NE 1.1 mph1.8 kmh 29.92 in1013.2 mb 0.00 in0.0 mm 0.00 in0.0 mm 0.00 in0.0 mm
02:19 AM 70.9°F21.6°C 68.1°F20.1°C 91% 0.2 mph NE0.3 kmh NE 1.1 mph1.8 kmh 29.92 in1013.2 mb 0.00 in0.0 mm 0.00 in0.0 mm 0.00 in0.0 mm
02:20 AM 70.7°F21.5°C 67.6°F19.8°C 90% 0.1 mph NE0.2 kmh NE 1.1 mph1.8 kmh 29.92 in1013.2 mb 0.00 in0.0 mm 0.00 in0.0 mm 0.00 in0.0 mm
02:21 AM 70.7°F21.5°C 67.6°F19.8°C 90% 0.1 mph NE0.2 kmh NE 1.1 mph1.8 kmh 29.89 in1012.2 mb 0.00 in0.0 mm 0.00 in0.0 mm 0.00 in0.0 mm
02:22 AM 70.7°F21.5°C 67.6°F19.8°C 90% 0.1 mph NE0.2 kmh NE 1.1 mph1.8 kmh 29.89 in1012.2 mb 0.00 in0.0 mm 0.00 in0.0 mm 0.00 in0.0 mm
02:23 AM 70.7°F21.5°C 67.9°F19.9°C 91% 0.1 mph NE0.2 kmh NE 1.1 mph1.8 kmh 29.89 in1012.2 mb 0.00 in0.0 mm 0.00 in0.0 mm 0.00 in0.0 mm
02:24 AM 70.7°F21.5°C 67.9°F19.9°C 91% 0.1 mph NE0.2 kmh NE 1.1 mph1.8 kmh 29.89 in1012.2 mb 0.00 in0.0 mm 0.00 in0.0 mm 0.00 in0.0 mm
02:25 AM 70.7°F21.5°C 67.6°F19.8°C 90% 0.1 mph NE0.2 kmh NE 1.1 mph1.8 kmh 29.89 in1012.2 mb 0.00 in0.0 mm 0.00 in0.0 mm 0.00 in0.0 mm
02:26 AM 70.7°F21.5°C 67.6°F19.8°C 90% 0.1 mph NE0.2 kmh NE 1.1 mph1.8 kmh 29.89 in1012.2 mb 0.00 in0.0 mm 0.00 in0.0 mm 0.00 in0.0 mm
02:27 AM 70.7°F21.5°C 67.6°F19.8°C 90% Calm Calm -- 29.89 in1012.2 mb 0.00 in0.0 mm 0.00 in0.0 mm 0.00 in0.0 mm
02:28 AM 70.7°F21.5°C 67.6°F19.8°C 90% Calm Calm -- 29.89 in1012.2 mb 0.00 in0.0 mm 0.00 in0.0 mm 0.00 in0.0 mm
02:29 AM 70.7°F21.5°C 67.6°F19.8°C 90% Calm Calm -- 29.89 in1012.2 mb 0.00 in0.0 mm 0.00 in0.0 mm 0.00 in0.0 mm
02:30 AM 70.5°F21.4°C 67.4°F19.7°C 90% Calm Calm -- 29.89 in1012.2 mb 0.00 in0.0 mm 0.00 in0.0 mm 0.00 in0.0 mm
02:31 AM 70.5°F21.4°C 67.4°F19.7°C 90% Calm Calm -- 29.89 in1012.2 mb 0.00 in0.0 mm 0.00 in0.0 mm 0.00 in0.0 mm
02:32 AM 70.5°F21.4°C 67.4°F19.7°C 90% Calm Calm -- 29.89 in1012.2 mb 0.00 in0.0 mm 0.00 in0.0 mm 0.00 in0.0 mm
02:33 AM 70.5°F21.4°C 67.4°F19.7°C 90% Calm Calm -- 29.89 in1012.2 mb 0.00 in0.0 mm 0.00 in0.0 mm 0.00 in0.0 mm
02:34 AM 70.3°F21.3°C 67.3°F19.6°C 90% Calm Calm -- 29.89 in1012.2 mb 0.00 in0.0 mm 0.00 in0.0 mm 0.00 in0.0 mm
02:35 AM 70.3°F21.3°C 67.3°F19.6°C 90% Calm Calm -- 29.89 in1012.2 mb 0.00 in0.0 mm 0.00 in0.0 mm 0.00 in0.0 mm
02:36 AM 70.3°F21.3°C 67.3°F19.6°C 90% Calm Calm -- 29.92 in1013.2 mb 0.00 in0.0 mm 0.00 in0.0 mm 0.00 in0.0 mm
02:37 AM 70.5°F21.4°C 67.4°F19.7°C 90% Calm Calm -- 29.92 in1013.2 mb 0.00 in0.0 mm 0.00 in0.0 mm 0.00 in0.0 mm
02:38 AM 70.5°F21.4°C 67.4°F19.7°C 90% Calm Calm -- 29.92 in1013.2 mb 0.00 in0.0 mm 0.00 in0.0 mm 0.00 in0.0 mm
02:39 AM 70.3°F21.3°C 67.3°F19.6°C 90% Calm Calm -- 29.92 in1013.2 mb 0.00 in0.0 mm 0.00 in0.0 mm 0.00 in0.0 mm
02:40 AM 70.3°F21.3°C 67.3°F19.6°C 90% Calm Calm -- 29.92 in1013.2 mb 0.00 in0.0 mm 0.00 in0.0 mm 0.00 in0.0 mm
02:41 AM 70.3°F21.3°C 67.3°F19.6°C 90% Calm Calm -- 29.92 in1013.2 mb 0.00 in0.0 mm 0.00 in0.0 mm 0.00 in0.0 mm
02:42 AM 70.3°F21.3°C 67.3°F19.6°C 90% Calm Calm -- 29.92 in1013.2 mb 0.00 in0.0 mm 0.00 in0.0 mm 0.00 in0.0 mm
02:43 AM 70.3°F21.3°C 67.3°F19.6°C 90% Calm Calm -- 29.92 in1013.2 mb 0.00 in0.0 mm 0.00 in0.0 mm 0.00 in0.0 mm
02:44 AM 70.3°F21.3°C 67.3°F19.6°C 90% Calm Calm -- 29.92 in1013.2 mb 0.00 in0.0 mm 0.00 in0.0 mm 0.00 in0.0 mm
02:45 AM 70.3°F21.3°C 67.3°F19.6°C 90% Calm Calm -- 29.92 in1013.2 mb 0.00 in0.0 mm 0.00 in0.0 mm 0.00 in0.0 mm
02:46 AM 70.3°F21.3°C 67.3°F19.6°C 90% Calm Calm -- 29.92 in1013.2 mb 0.00 in0.0 mm 0.00 in0.0 mm 0.00 in0.0 mm
02:47 AM 70.3°F21.3°C 67.3°F19.6°C 90% Calm Calm -- 29.92 in1013.2 mb 0.00 in0.0 mm 0.00 in0.0 mm 0.00 in0.0 mm
02:48 AM 70.3°F21.3°C 67.3°F19.6°C 90% Calm Calm -- 29.92 in1013.2 mb 0.00 in0.0 mm 0.00 in0.0 mm 0.00 in0.0 mm
02:49 AM 70.5°F21.4°C 67.4°F19.7°C 90% Calm Calm -- 29.92 in1013.2 mb 0.00 in0.0 mm 0.00 in0.0 mm 0.00 in0.0 mm
02:50 AM 70.5°F21.4°C 67.4°F19.7°C 90% Calm Calm -- 29.92 in1013.2 mb 0.00 in0.0 mm 0.00 in0.0 mm 0.00 in0.0 mm
02:51 AM 70.3°F21.3°C 67.3°F19.6°C 90% Calm Calm -- 29.92 in1013.2 mb 0.00 in0.0 mm 0.00 in0.0 mm 0.00 in0.0 mm
02:52 AM 70.3°F21.3°C 67.3°F19.6°C 90% Calm Calm -- 29.92 in1013.2 mb 0.00 in0.0 mm 0.00 in0.0 mm 0.00 in0.0 mm
02:53 AM 70.3°F21.3°C 67.3°F19.6°C 90% Calm Calm -- 29.92 in1013.2 mb 0.00 in0.0 mm 0.00 in0.0 mm 0.00 in0.0 mm
02:54 AM 70.3°F21.3°C 67.3°F19.6°C 90% Calm Calm -- 29.92 in1013.2 mb 0.00 in0.0 mm 0.00 in0.0 mm 0.00 in0.0 mm
02:55 AM 70.3°F21.3°C 67.3°F19.6°C 90% Calm Calm -- 29.92 in1013.2 mb 0.00 in0.0 mm 0.00 in0.0 mm 0.00 in0.0 mm
02:56 AM 70.3°F21.3°C 67.3°F19.6°C 90% Calm Calm -- 29.92 in1013.2 mb 0.00 in0.0 mm 0.00 in0.0 mm 0.00 in0.0 mm
02:57 AM 70.3°F21.3°C 67.3°F19.6°C 90% Calm Calm -- 29.92 in1013.2 mb 0.00 in0.0 mm 0.00 in0.0 mm 0.00 in0.0 mm
02:58 AM 70.3°F21.3°C 67.3°F19.6°C 90% Calm Calm -- 29.92 in1013.2 mb 0.00 in0.0 mm 0.00 in0.0 mm 0.00 in0.0 mm
02:59 AM 70.3°F21.3°C 67.3°F19.6°C 90% Calm Calm -- 29.92 in1013.2 mb 0.00 in0.0 mm 0.00 in0.0 mm 0.00 in0.0 mm
03:00 AM 70.3°F21.3°C 67.3°F19.6°C 90% Calm Calm -- 29.92 in1013.2 mb 0.00 in0.0 mm 0.00 in0.0 mm 0.00 in0.0 mm
03:01 AM 70.3°F21.3°C 67.3°F19.6°C 90% Calm Calm -- 29.92 in1013.2 mb 0.00 in0.0 mm 0.00 in0.0 mm 0.00 in0.0 mm
03:02 AM 70.3°F21.3°C 67.3°F19.6°C 90% Calm Calm -- 29.92 in1013.2 mb 0.00 in0.0 mm 0.00 in0.0 mm 0.00 in0.0 mm
03:03 AM 70.5°F21.4°C 67.4°F19.7°C 90% Calm Calm -- 29.92 in1013.2 mb 0.00 in0.0 mm 0.00 in0.0 mm 0.00 in0.0 mm
03:04 AM 70.5°F21.4°C 67.4°F19.7°C 90% Calm Calm -- 29.92 in1013.2 mb 0.00 in0.0 mm 0.00 in0.0 mm 0.00 in0.0 mm
03:05 AM 70.5°F21.4°C 67.4°F19.7°C 90% Calm Calm -- 29.92 in1013.2 mb 0.00 in0.0 mm 0.00 in0.0 mm 0.00 in0.0 mm
03:06 AM 70.5°F21.4°C 67.4°F19.7°C 90% Calm Calm -- 29.92 in1013.2 mb 0.00 in0.0 mm 0.00 in0.0 mm 0.00 in0.0 mm
03:07 AM 70.5°F21.4°C 67.4°F19.7°C 90% Calm Calm -- 29.92 in1013.2 mb 0.00 in0.0 mm 0.00 in0.0 mm 0.00 in0.0 mm
03:08 AM 70.3°F21.3°C 67.3°F19.6°C 90% Calm Calm -- 29.92 in1013.2 mb 0.00 in0.0 mm 0.00 in0.0 mm 0.00 in0.0 mm
03:09 AM 70.3°F21.3°C 67.3°F19.6°C 90% Calm Calm -- 29.92 in1013.2 mb 0.00 in0.0 mm 0.00 in0.0 mm 0.00 in0.0 mm
03:10 AM 70.3°F21.3°C 67.3°F19.6°C 90% Calm Calm -- 29.92 in1013.2 mb 0.00 in0.0 mm 0.00 in0.0 mm 0.00 in0.0 mm
03:11 AM 70.3°F21.3°C 67.3°F19.6°C 90% Calm Calm -- 29.92 in1013.2 mb 0.00 in0.0 mm 0.00 in0.0 mm 0.00 in0.0 mm
03:12 AM 70.3°F21.3°C 67.3°F19.6°C 90% Calm Calm -- 29.92 in1013.2 mb 0.00 in0.0 mm 0.00 in0.0 mm 0.00 in0.0 mm
03:13 AM 70.3°F21.3°C 67.3°F19.6°C 90% Calm Calm -- 29.92 in1013.2 mb 0.00 in0.0 mm 0.00 in0.0 mm 0.00 in0.0 mm
03:14 AM 70.3°F21.3°C 67.6°F19.8°C 91% Calm Calm -- 29.92 in1013.2 mb 0.00 in0.0 mm 0.00 in0.0 mm 0.00 in0.0 mm
03:15 AM 70.3°F21.3°C 67.6°F19.8°C 91% Calm Calm -- 29.92 in1013.2 mb 0.00 in0.0 mm 0.00 in0.0 mm 0.00 in0.0 mm
03:16 AM 70.5°F21.4°C 67.8°F19.9°C 91% Calm Calm -- 29.92 in1013.2 mb 0.00 in0.0 mm 0.00 in0.0 mm 0.00 in0.0 mm
03:17 AM 70.5°F21.4°C 67.8°F19.9°C 91% Calm Calm -- 29.92 in1013.2 mb 0.00 in0.0 mm 0.00 in0.0 mm 0.00 in0.0 mm
03:18 AM 70.5°F21.4°C 67.8°F19.9°C 91% 0.1 mph NE0.2 kmh NE 0.9 mph1.4 kmh 29.92 in1013.2 mb 0.00 in0.0 mm 0.00 in0.0 mm 0.00 in0.0 mm
03:19 AM 70.5°F21.4°C 67.8°F19.9°C 91% 0.1 mph NE0.2 kmh NE 0.9 mph1.4 kmh 29.92 in1013.2 mb 0.00 in0.0 mm 0.00 in0.0 mm 0.00 in0.0 mm
03:20 AM 70.5°F21.4°C 67.8°F19.9°C 91% 0.1 mph NE0.2 kmh NE 0.9 mph1.4 kmh 29.92 in1013.2 mb 0.00 in0.0 mm 0.00 in0.0 mm 0.00 in0.0 mm
03:21 AM 70.5°F21.4°C 67.8°F19.9°C 91% 0.1 mph NE0.2 kmh NE 0.9 mph1.4 kmh 29.92 in1013.2 mb 0.00 in0.0 mm 0.00 in0.0 mm 0.00 in0.0 mm
03:22 AM 70.5°F21.4°C 67.8°F19.9°C 91% 0.1 mph NE0.2 kmh NE 0.9 mph1.4 kmh 29.92 in1013.2 mb 0.00 in0.0 mm 0.00 in0.0 mm 0.00 in0.0 mm
03:23 AM 70.5°F21.4°C 67.8°F19.9°C 91% 0.1 mph NE0.2 kmh NE 0.9 mph1.4 kmh 29.92 in1013.2 mb 0.00 in0.0 mm 0.00 in0.0 mm 0.00 in0.0 mm
03:24 AM 70.5°F21.4°C 67.8°F19.9°C 91% 0.1 mph NE0.2 kmh NE 0.9 mph1.4 kmh 29.92 in1013.2 mb 0.00 in0.0 mm 0.00 in0.0 mm 0.00 in0.0 mm
03:25 AM 70.5°F21.4°C 67.8°F19.9°C 91% 0.1 mph NE0.2 kmh NE 0.9 mph1.4 kmh 29.92 in1013.2 mb 0.00 in0.0 mm 0.00 in0.0 mm 0.00 in0.0 mm
03:26 AM 70.5°F21.4°C 67.8°F19.9°C 91% 0.1 mph NE0.2 kmh NE 0.9 mph1.4 kmh 29.92 in1013.2 mb 0.00 in0.0 mm 0.00 in0.0 mm 0.00 in0.0 mm
03:27 AM 70.5°F21.4°C 67.8°F19.9°C 91% 0.1 mph NE0.2 kmh NE 0.9 mph1.4 kmh 29.92 in1013.2 mb 0.00 in0.0 mm 0.00 in0.0 mm 0.00 in0.0 mm
03:28 AM 70.5°F21.4°C 67.8°F19.9°C 91% 0.1 mph NE0.2 kmh NE 0.9 mph1.4 kmh 29.92 in1013.2 mb 0.00 in0.0 mm 0.00 in0.0 mm 0.00 in0.0 mm
03:29 AM 70.5°F21.4°C 67.8°F19.9°C 91% Calm Calm -- 29.92 in1013.2 mb 0.00 in0.0 mm 0.00 in0.0 mm 0.00 in0.0 mm
03:30 AM 70.5°F21.4°C 67.8°F19.9°C 91% Calm Calm -- 29.92 in1013.2 mb 0.00 in0.0 mm 0.00 in0.0 mm 0.00 in0.0 mm
03:31 AM 70.5°F21.4°C 67.8°F19.9°C 91% Calm Calm -- 29.92 in1013.2 mb 0.00 in0.0 mm 0.00 in0.0 mm 0.00 in0.0 mm
03:32 AM 70.3°F21.3°C 67.3°F19.6°C 90% Calm Calm -- 29.92 in1013.2 mb 0.00 in0.0 mm 0.00 in0.0 mm 0.00 in0.0 mm
03:33 AM 70.3°F21.3°C 67.3°F19.6°C 90% Calm Calm -- 29.92 in1013.2 mb 0.00 in0.0 mm 0.00 in0.0 mm 0.00 in0.0 mm
03:34 AM 70.3°F21.3°C 67.3°F19.6°C 90% Calm Calm -- 29.92 in1013.2 mb 0.00 in0.0 mm 0.00 in0.0 mm 0.00 in0.0 mm
03:35 AM 70.3°F21.3°C 67.3°F19.6°C 90% Calm Calm -- 29.92 in1013.2 mb 0.00 in0.0 mm 0.00 in0.0 mm 0.00 in0.0 mm
03:36 AM 70.3°F21.3°C 67.3°F19.6°C 90% Calm Calm -- 29.92 in1013.2 mb 0.00 in0.0 mm 0.00 in0.0 mm 0.00 in0.0 mm
03:37 AM 70.2°F21.2°C 67.1°F19.5°C 90% Calm Calm -- 29.92 in1013.2 mb 0.00 in0.0 mm 0.00 in0.0 mm 0.00 in0.0 mm
03:38 AM 70.2°F21.2°C 67.1°F19.5°C 90% Calm Calm -- 29.92 in1013.2 mb 0.00 in0.0 mm 0.00 in0.0 mm 0.00 in0.0 mm
03:39 AM 70.2°F21.2°C 67.1°F19.5°C 90% Calm Calm -- 29.92 in1013.2 mb 0.00 in0.0 mm 0.00 in0.0 mm 0.00 in0.0 mm
03:40 AM 70.2°F21.2°C 67.1°F19.5°C 90% Calm Calm -- 29.92 in1013.2 mb 0.00 in0.0 mm 0.00 in0.0 mm 0.00 in0.0 mm
03:41 AM 70.2°F21.2°C 67.1°F19.5°C 90% Calm Calm -- 29.92 in1013.2 mb 0.00 in0.0 mm 0.00 in0.0 mm 0.00 in0.0 mm
03:42 AM 70.2°F21.2°C 67.1°F19.5°C 90% Calm Calm -- 29.92 in1013.2 mb 0.00 in0.0 mm 0.00 in0.0 mm 0.00 in0.0 mm
03:43 AM 70.2°F21.2°C 67.1°F19.5°C 90% Calm Calm -- 29.92 in1013.2 mb 0.00 in0.0 mm 0.00 in0.0 mm 0.00 in0.0 mm
03:44 AM 70.2°F21.2°C 67.1°F19.5°C 90% Calm Calm -- 29.92 in1013.2 mb 0.00 in0.0 mm 0.00 in0.0 mm 0.00 in0.0 mm
03:45 AM 70.2°F21.2°C 67.1°F19.5°C 90% Calm Calm -- 29.92 in1013.2 mb 0.00 in0.0 mm 0.00 in0.0 mm 0.00 in0.0 mm
03:46 AM 70.2°F21.2°C 67.1°F19.5°C 90% Calm Calm -- 29.92 in1013.2 mb 0.00 in0.0 mm 0.00 in0.0 mm 0.00 in0.0 mm
03:47 AM 70.2°F21.2°C 67.1°F19.5°C 90% Calm Calm -- 29.92 in1013.2 mb 0.00 in0.0 mm 0.00 in0.0 mm 0.00 in0.0 mm
03:48 AM 70.2°F21.2°C 67.1°F19.5°C 90% Calm Calm -- 29.92 in1013.2 mb 0.00 in0.0 mm 0.00 in0.0 mm 0.00 in0.0 mm
03:49 AM 70.2°F21.2°C 67.1°F19.5°C 90% Calm Calm -- 29.92 in1013.2 mb 0.00 in0.0 mm 0.00 in0.0 mm 0.00 in0.0 mm
03:50 AM 70.2°F21.2°C 67.1°F19.5°C 90% Calm Calm -- 29.92 in1013.2 mb 0.00 in0.0 mm 0.00 in0.0 mm 0.00 in0.0 mm
03:51 AM 70.2°F21.2°C 67.1°F19.5°C 90% Calm Calm -- 29.92 in1013.2 mb 0.00 in0.0 mm 0.00 in0.0 mm 0.00 in0.0 mm
03:52 AM 70.2°F21.2°C 67.1°F19.5°C 90% Calm Calm -- 29.92 in1013.2 mb 0.00 in0.0 mm 0.00 in0.0 mm 0.00 in0.0 mm
03:53 AM 70.2°F21.2°C 67.1°F19.5°C 90% Calm Calm -- 29.92 in1013.2 mb 0.00 in0.0 mm 0.00 in0.0 mm 0.00 in0.0 mm
03:54 AM 70.2°F21.2°C 67.1°F19.5°C 90% Calm Calm -- 29.92 in1013.2 mb 0.00 in0.0 mm 0.00 in0.0 mm 0.00 in0.0 mm
03:55 AM 70.2°F21.2°C 67.1°F19.5°C 90% Calm Calm -- 29.92 in1013.2 mb 0.00 in0.0 mm 0.00 in0.0 mm 0.00 in0.0 mm
03:56 AM 70.2°F21.2°C 67.1°F19.5°C 90% Calm Calm -- 29.92 in1013.2 mb 0.00 in0.0 mm 0.00 in0.0 mm 0.00 in0.0 mm
03:57 AM 70.2°F21.2°C 67.1°F19.5°C 90% Calm Calm -- 29.92 in1013.2 mb 0.00 in0.0 mm 0.00 in0.0 mm 0.00 in0.0 mm
03:58 AM 70.2°F21.2°C 67.1°F19.5°C 90% Calm Calm -- 29.92 in1013.2 mb 0.00 in0.0 mm 0.00 in0.0 mm 0.00 in0.0 mm
03:59 AM 70.2°F21.2°C 67.1°F19.5°C 90% Calm Calm -- 29.92 in1013.2 mb 0.00 in0.0 mm 0.00 in0.0 mm 0.00 in0.0 mm
04:00 AM 70.0°F21.1°C 66.9°F19.4°C 90% Calm Calm -- 29.92 in1013.2 mb 0.00 in0.0 mm 0.00 in0.0 mm 0.00 in0.0 mm
04:01 AM 70.0°F21.1°C 66.9°F19.4°C 90% Calm Calm -- 29.92 in1013.2 mb 0.00 in0.0 mm 0.00 in0.0 mm 0.00 in0.0 mm
04:02 AM 70.0°F21.1°C 66.9°F19.4°C 90% Calm Calm -- 29.92 in1013.2 mb 0.00 in0.0 mm 0.00 in0.0 mm 0.00 in0.0 mm
04:03 AM 70.0°F21.1°C 66.9°F19.4°C 90% Calm Calm -- 29.92 in1013.2 mb 0.00 in0.0 mm 0.00 in0.0 mm 0.00 in0.0 mm
04:04 AM 70.0°F21.1°C 66.9°F19.4°C 90% Calm Calm -- 29.92 in1013.2 mb 0.00 in0.0 mm 0.00 in0.0 mm 0.00 in0.0 mm
04:05 AM 70.0°F21.1°C 66.9°F19.4°C 90% Calm Calm -- 29.92 in1013.2 mb 0.00 in0.0 mm 0.00 in0.0 mm 0.00 in0.0 mm
04:06 AM 70.0°F21.1°C 66.9°F19.4°C 90% Calm Calm -- 29.92 in1013.2 mb 0.00 in0.0 mm 0.00 in0.0 mm 0.00 in0.0 mm
04:07 AM 70.0°F21.1°C 66.9°F19.4°C 90% Calm Calm -- 29.92 in1013.2 mb 0.00 in0.0 mm 0.00 in0.0 mm 0.00 in0.0 mm
04:08 AM 70.0°F21.1°C 66.9°F19.4°C 90% Calm Calm -- 29.92 in1013.2 mb 0.00 in0.0 mm 0.00 in0.0 mm 0.00 in0.0 mm
04:09 AM 70.0°F21.1°C 66.9°F19.4°C 90% Calm Calm -- 29.92 in1013.2 mb 0.00 in0.0 mm 0.00 in0.0 mm 0.00 in0.0 mm
04:10 AM 69.8°F21.0°C 66.7°F19.3°C 90% Calm Calm -- 29.92 in1013.2 mb 0.00 in0.0 mm 0.00 in0.0 mm 0.00 in0.0 mm
04:11 AM 69.8°F21.0°C 66.7°F19.3°C 90% Calm Calm -- 29.92 in1013.2 mb 0.00 in0.0 mm 0.00 in0.0 mm 0.00 in0.0 mm
04:12 AM 69.8°F21.0°C 66.7°F19.3°C 90% Calm Calm -- 29.92 in1013.2 mb 0.00 in0.0 mm 0.00 in0.0 mm 0.00 in0.0 mm
04:13 AM 69.8°F21.0°C 66.7°F19.3°C 90% Calm Calm -- 29.92 in1013.2 mb 0.00 in0.0 mm 0.00 in0.0 mm 0.00 in0.0 mm
04:15 AM 70.0°F21.1°C 66.9°F19.4°C 90% Calm Calm -- 29.92 in1013.2 mb 0.00 in0.0 mm 0.00 in0.0 mm 0.00 in0.0 mm
04:16 AM 70.0°F21.1°C 66.9°F19.4°C 90% Calm Calm -- 29.92 in1013.2 mb 0.00 in0.0 mm 0.00 in0.0 mm 0.00 in0.0 mm
04:17 AM 70.0°F21.1°C 66.9°F19.4°C 90% Calm Calm -- 29.92 in1013.2 mb 0.00 in0.0 mm 0.00 in0.0 mm 0.00 in0.0 mm
04:18 AM 70.0°F21.1°C 66.9°F19.4°C 90% Calm Calm -- 29.92 in1013.2 mb 0.00 in0.0 mm 0.00 in0.0 mm 0.00 in0.0 mm
04:19 AM 70.0°F21.1°C 66.9°F19.4°C 90% Calm Calm -- 29.92 in1013.2 mb 0.00 in0.0 mm 0.00 in0.0 mm 0.00 in0.0 mm
04:20 AM 70.0°F21.1°C 66.9°F19.4°C 90% Calm Calm -- 29.92 in1013.2 mb 0.00 in0.0 mm 0.00 in0.0 mm 0.00 in0.0 mm
04:21 AM 70.0°F21.1°C 66.9°F19.4°C 90% Calm Calm -- 29.92 in1013.2 mb 0.00 in0.0 mm 0.00 in0.0 mm 0.00 in0.0 mm
04:22 AM 70.0°F21.1°C 66.9°F19.4°C 90% Calm Calm -- 29.92 in1013.2 mb 0.00 in0.0 mm 0.00 in0.0 mm 0.00 in0.0 mm
04:23 AM 69.8°F21.0°C 67.1°F19.5°C 91% Calm Calm -- 29.92 in1013.2 mb 0.00 in0.0 mm 0.00 in0.0 mm 0.00 in0.0 mm
04:24 AM 69.8°F21.0°C 67.1°F19.5°C 91% Calm Calm -- 29.92 in1013.2 mb 0.00 in0.0 mm 0.00 in0.0 mm 0.00 in0.0 mm
04:25 AM 69.8°F21.0°C 67.1°F19.5°C 91% Calm Calm -- 29.92 in1013.2 mb 0.00 in0.0 mm 0.00 in0.0 mm 0.00 in0.0 mm
04:26 AM 69.8°F21.0°C 67.1°F19.5°C 91% Calm Calm -- 29.92 in1013.2 mb 0.00 in0.0 mm 0.00 in0.0 mm 0.00 in0.0 mm
04:27 AM 69.6°F20.9°C 66.9°F19.4°C 91% Calm Calm -- 29.92 in1013.2 mb 0.00 in0.0 mm 0.00 in0.0 mm 0.00 in0.0 mm
04:28 AM 69.6°F20.9°C 66.9°F19.4°C 91% Calm Calm -- 29.92 in1013.2 mb 0.00 in0.0 mm 0.00 in0.0 mm 0.00 in0.0 mm
04:29 AM 69.6°F20.9°C 67.2°F19.6°C 92% Calm Calm -- 29.92 in1013.2 mb 0.00 in0.0 mm 0.00 in0.0 mm 0.00 in0.0 mm
04:30 AM 69.6°F20.9°C 67.2°F19.6°C 92% Calm Calm -- 29.92 in1013.2 mb 0.00 in0.0 mm 0.00 in0.0 mm 0.00 in0.0 mm
04:31 AM 69.6°F20.9°C 67.2°F19.6°C 92% Calm Calm -- 29.92 in1013.2 mb 0.00 in0.0 mm 0.00 in0.0 mm 0.00 in0.0 mm
04:32 AM 69.6°F20.9°C 67.2°F19.6°C 92% Calm Calm -- 29.92 in1013.2 mb 0.00 in0.0 mm 0.00 in0.0 mm 0.00 in0.0 mm
04:33 AM 69.6°F20.9°C 67.2°F19.6°C 92% Calm Calm -- 29.92 in1013.2 mb 0.00 in0.0 mm 0.00 in0.0 mm 0.00 in0.0 mm
04:34 AM 69.6°F20.9°C 67.2°F19.6°C 92% Calm Calm -- 29.92 in1013.2 mb 0.00 in0.0 mm 0.00 in0.0 mm 0.00 in0.0 mm
04:35 AM 69.6°F20.9°C 67.2°F19.6°C 92% Calm Calm -- 29.92 in1013.2 mb 0.00 in0.0 mm 0.00 in0.0 mm 0.00 in0.0 mm
04:36 AM 69.4°F20.8°C 67.0°F19.4°C 92% Calm Calm -- 29.92 in1013.2 mb 0.00 in0.0 mm 0.00 in0.0 mm 0.00 in0.0 mm
04:37 AM 69.4°F20.8°C 67.0°F19.4°C 92% Calm Calm -- 29.92 in1013.2 mb 0.00 in0.0 mm 0.00 in0.0 mm 0.00 in0.0 mm
04:38 AM 69.4°F20.8°C 66.7°F19.3°C 91% Calm Calm -- 29.92 in1013.2 mb 0.00 in0.0 mm 0.00 in0.0 mm 0.00 in0.0 mm
04:39 AM 69.4°F20.8°C 66.7°F19.3°C 91% Calm Calm -- 29.92 in1013.2 mb 0.00 in0.0 mm 0.00 in0.0 mm 0.00 in0.0 mm
04:40 AM 69.4°F20.8°C 66.7°F19.3°C 91% Calm Calm -- 29.92 in1013.2 mb 0.00 in0.0 mm 0.00 in0.0 mm 0.00 in0.0 mm
04:41 AM 69.3°F20.7°C 66.5°F19.2°C 91% Calm Calm -- 29.92 in1013.2 mb 0.00 in0.0 mm 0.00 in0.0 mm 0.00 in0.0 mm
04:42 AM 69.3°F20.7°C 66.5°F19.2°C 91% Calm Calm -- 29.92 in1013.2 mb 0.00 in0.0 mm 0.00 in0.0 mm 0.00 in0.0 mm
04:43 AM 69.3°F20.7°C 66.5°F19.2°C 91% Calm Calm -- 29.92 in1013.2 mb 0.00 in0.0 mm 0.00 in0.0 mm 0.00 in0.0 mm
04:44 AM 69.3°F20.7°C 66.5°F19.2°C 91% Calm Calm -- 29.92 in1013.2 mb 0.00 in0.0 mm 0.00 in0.0 mm 0.00 in0.0 mm
04:45 AM 69.3°F20.7°C 66.5°F19.2°C 91% Calm Calm -- 29.92 in1013.2 mb 0.00 in0.0 mm 0.00 in0.0 mm 0.00 in0.0 mm
04:46 AM 69.3°F20.7°C 66.5°F19.2°C 91% Calm Calm -- 29.92 in1013.2 mb 0.00 in0.0 mm 0.00 in0.0 mm 0.00 in0.0 mm
04:47 AM 69.3°F20.7°C 66.5°F19.2°C 91% Calm Calm -- 29.92 in1013.2 mb 0.00 in0.0 mm 0.00 in0.0 mm 0.00 in0.0 mm
04:48 AM 69.3°F20.7°C 66.5°F19.2°C 91% Calm Calm -- 29.92 in1013.2 mb 0.00 in0.0 mm 0.00 in0.0 mm 0.00 in0.0 mm
04:49 AM 69.3°F20.7°C 66.5°F19.2°C 91% Calm Calm -- 29.92 in1013.2 mb 0.00 in0.0 mm 0.00 in0.0 mm 0.00 in0.0 mm
04:50 AM 69.3°F20.7°C 66.8°F19.3°C 92% Calm Calm -- 29.92 in1013.2 mb 0.00 in0.0 mm 0.00 in0.0 mm 0.00 in0.0 mm
04:51 AM 69.3°F20.7°C 66.8°F19.3°C 92% Calm Calm -- 29.95 in1014.2 mb 0.00 in0.0 mm 0.00 in0.0 mm 0.00 in0.0 mm
04:52 AM 69.3°F20.7°C 66.5°F19.2°C 91% Calm Calm -- 29.95 in1014.2 mb 0.00 in0.0 mm 0.00 in0.0 mm 0.00 in0.0 mm
04:53 AM 69.3°F20.7°C 66.8°F19.3°C 92% Calm Calm -- 29.95 in1014.2 mb 0.00 in0.0 mm 0.00 in0.0 mm 0.00 in0.0 mm
04:54 AM 69.3°F20.7°C 66.8°F19.3°C 92% Calm Calm -- 29.95 in1014.2 mb 0.00 in0.0 mm 0.00 in0.0 mm 0.00 in0.0 mm
04:55 AM 69.3°F20.7°C 66.8°F19.3°C 92% Calm Calm -- 29.95 in1014.2 mb 0.00 in0.0 mm 0.00 in0.0 mm 0.00 in0.0 mm
04:56 AM 69.3°F20.7°C 66.8°F19.3°C 92% Calm Calm -- 29.95 in1014.2 mb 0.00 in0.0 mm 0.00 in0.0 mm 0.00 in0.0 mm
04:57 AM 69.3°F20.7°C 66.8°F19.3°C 92% Calm Calm -- 29.95 in1014.2 mb 0.00 in0.0 mm 0.00 in0.0 mm 0.00 in0.0 mm
04:58 AM 69.3°F20.7°C 66.8°F19.3°C 92% Calm Calm -- 29.95 in1014.2 mb 0.00 in0.0 mm 0.00 in0.0 mm 0.00 in0.0 mm
04:59 AM 69.3°F20.7°C 66.8°F19.3°C 92% Calm Calm -- 29.95 in1014.2 mb 0.00 in0.0 mm 0.00 in0.0 mm 0.00 in0.0 mm
05:00 AM 69.3°F20.7°C 66.8°F19.3°C 92% Calm Calm -- 29.95 in1014.2 mb 0.00 in0.0 mm 0.00 in0.0 mm 0.00 in0.0 mm
05:01 AM 69.3°F20.7°C 66.8°F19.3°C 92% Calm Calm -- 29.95 in1014.2 mb 0.00 in0.0 mm 0.00 in0.0 mm 0.00 in0.0 mm
05:02 AM 69.3°F20.7°C 66.8°F19.3°C 92% Calm Calm -- 29.95 in1014.2 mb 0.00 in0.0 mm 0.00 in0.0 mm 0.00 in0.0 mm
05:03 AM 69.3°F20.7°C 66.5°F19.2°C 91% Calm Calm -- 29.95 in1014.2 mb 0.00 in0.0 mm 0.00 in0.0 mm 0.00 in0.0 mm
05:04 AM 69.3°F20.7°C 66.5°F19.2°C 91% Calm Calm -- 29.95 in1014.2 mb 0.00 in0.0 mm 0.00 in0.0 mm 0.00 in0.0 mm
05:05 AM 69.3°F20.7°C 66.8°F19.3°C 92% Calm Calm -- 29.95 in1014.2 mb 0.00 in0.0 mm 0.00 in0.0 mm 0.00 in0.0 mm
05:06 AM 69.3°F20.7°C 66.8°F19.3°C 92% Calm Calm -- 29.95 in1014.2 mb 0.00 in0.0 mm 0.00 in0.0 mm 0.00 in0.0 mm
05:07 AM 69.3°F20.7°C 66.8°F19.3°C 92% Calm Calm -- 29.95 in1014.2 mb 0.00 in0.0 mm 0.00 in0.0 mm 0.00 in0.0 mm
05:08 AM 69.3°F20.7°C 66.8°F19.3°C 92% Calm Calm -- 29.95 in1014.2 mb 0.00 in0.0 mm 0.00 in0.0 mm 0.00 in0.0 mm
05:09 AM 69.3°F20.7°C 66.8°F19.3°C 92% Calm Calm -- 29.95 in1014.2 mb 0.00 in0.0 mm 0.00 in0.0 mm 0.00 in0.0 mm
05:10 AM 69.3°F20.7°C 66.8°F19.3°C 92% Calm Calm -- 29.95 in1014.2 mb 0.00 in0.0 mm 0.00 in0.0 mm 0.00 in0.0 mm
05:11 AM 69.3°F20.7°C 66.8°F19.3°C 92% Calm Calm -- 29.95 in1014.2 mb 0.00 in0.0 mm 0.00 in0.0 mm 0.00 in0.0 mm
05:12 AM 69.3°F20.7°C 66.8°F19.3°C 92% Calm Calm -- 29.95 in1014.2 mb 0.00 in0.0 mm 0.00 in0.0 mm 0.00 in0.0 mm
05:13 AM 69.3°F20.7°C 66.8°F19.3°C 92% Calm Calm -- 29.95 in1014.2 mb 0.00 in0.0 mm 0.00 in0.0 mm 0.00 in0.0 mm
05:14 AM 69.3°F20.7°C 66.8°F19.3°C 92% Calm Calm -- 29.95 in1014.2 mb 0.00 in0.0 mm 0.00 in0.0 mm 0.00 in0.0 mm
05:15 AM 69.3°F20.7°C 66.8°F19.3°C 92% Calm Calm -- 29.95 in1014.2 mb 0.00 in0.0 mm 0.00 in0.0 mm 0.00 in0.0 mm
05:16 AM 69.1°F20.6°C 66.7°F19.3°C 92% Calm Calm -- 29.95 in1014.2 mb 0.00 in0.0 mm 0.00 in0.0 mm 0.00 in0.0 mm
05:17 AM 69.1°F20.6°C 66.7°F19.3°C 92% Calm Calm -- 29.95 in1014.2 mb 0.00 in0.0 mm 0.00 in0.0 mm 0.00 in0.0 mm
05:18 AM 69.1°F20.6°C 66.7°F19.3°C 92% Calm Calm -- 29.95 in1014.2 mb 0.00 in0.0 mm 0.00 in0.0 mm 0.00 in0.0 mm
05:19 AM 69.1°F20.6°C 66.7°F19.3°C 92% Calm Calm -- 29.95 in1014.2 mb 0.00 in0.0 mm 0.00 in0.0 mm 0.00 in0.0 mm
05:20 AM 69.1°F20.6°C 66.7°F19.3°C 92% Calm Calm -- 29.95 in1014.2 mb 0.00 in0.0 mm 0.00 in0.0 mm 0.00 in0.0 mm
05:21 AM 69.1°F20.6°C 66.7°F19.3°C 92% Calm Calm -- 29.95 in1014.2 mb 0.00 in0.0 mm 0.00 in0.0 mm 0.00 in0.0 mm
05:22 AM 69.1°F20.6°C 66.7°F19.3°C 92% Calm Calm -- 29.95 in1014.2 mb 0.00 in0.0 mm 0.00 in0.0 mm 0.00 in0.0 mm
05:23 AM 69.3°F20.7°C 66.8°F19.3°C 92% Calm Calm -- 29.95 in1014.2 mb 0.00 in0.0 mm 0.00 in0.0 mm 0.00 in0.0 mm
05:24 AM 69.3°F20.7°C 66.8°F19.3°C 92% Calm Calm -- 29.95 in1014.2 mb 0.00 in0.0 mm 0.00 in0.0 mm 0.00 in0.0 mm
05:25 AM 69.3°F20.7°C 66.8°F19.3°C 92% Calm Calm -- 29.95 in1014.2 mb 0.00 in0.0 mm 0.00 in0.0 mm 0.00 in0.0 mm
05:26 AM 69.1°F20.6°C 66.7°F19.3°C 92% Calm Calm -- 29.95 in1014.2 mb 0.00 in0.0 mm 0.00 in0.0 mm 0.00 in0.0 mm
05:27 AM 69.1°F20.6°C 66.7°F19.3°C 92% Calm Calm -- 29.95 in1014.2 mb 0.00 in0.0 mm 0.00 in0.0 mm 0.00 in0.0 mm
05:28 AM 69.1°F20.6°C 66.7°F19.3°C 92% Calm Calm -- 29.95 in1014.2 mb 0.00 in0.0 mm 0.00 in0.0 mm 0.00 in0.0 mm
05:29 AM 69.1°F20.6°C 66.7°F19.3°C 92% Calm Calm -- 29.95 in1014.2 mb 0.00 in0.0 mm 0.00 in0.0 mm 0.00 in0.0 mm
05:30 AM 69.1°F20.6°C 66.7°F19.3°C 92% Calm Calm -- 29.95 in1014.2 mb 0.00 in0.0 mm 0.00 in0.0 mm 0.00 in0.0 mm
05:31 AM 69.1°F20.6°C 66.7°F19.3°C 92% Calm Calm -- 29.95 in1014.2 mb 0.00 in0.0 mm 0.00 in0.0 mm 0.00 in0.0 mm
05:32 AM 69.1°F20.6°C 66.7°F19.3°C 92% Calm Calm -- 29.95 in1014.2 mb 0.00 in0.0 mm 0.00 in0.0 mm 0.00 in0.0 mm
05:33 AM 68.9°F20.5°C 66.5°F19.2°C 92% Calm Calm -- 29.95 in1014.2 mb 0.00 in0.0 mm 0.00 in0.0 mm 0.00 in0.0 mm
05:34 AM 68.9°F20.5°C 66.5°F19.2°C 92% Calm Calm -- 29.95 in1014.2 mb 0.00 in0.0 mm 0.00 in0.0 mm 0.00 in0.0 mm
05:35 AM 68.9°F20.5°C 66.5°F19.2°C 92% Calm Calm -- 29.95 in1014.2 mb 0.00 in0.0 mm 0.00 in0.0 mm 0.00 in0.0 mm
05:36 AM 68.9°F20.5°C 66.5°F19.2°C 92% Calm Calm -- 29.95 in1014.2 mb 0.00 in0.0 mm 0.00 in0.0 mm 0.00 in0.0 mm
05:37 AM 68.9°F20.5°C 66.5°F19.2°C 92% Calm Calm -- 29.95 in1014.2 mb 0.00 in0.0 mm 0.00 in0.0 mm 0.00 in0.0 mm
05:38 AM 68.9°F20.5°C 66.5°F19.2°C 92% Calm Calm -- 29.95 in1014.2 mb 0.00 in0.0 mm 0.00 in0.0 mm 0.00 in0.0 mm
05:39 AM 69.1°F20.6°C 66.7°F19.3°C 92% Calm Calm -- 29.95 in1014.2 mb 0.00 in0.0 mm 0.00 in0.0 mm 0.00 in0.0 mm
05:40 AM 69.1°F20.6°C 66.7°F19.3°C 92% Calm Calm -- 29.95 in1014.2 mb 0.00 in0.0 mm 0.00 in0.0 mm 0.00 in0.0 mm
05:41 AM 69.1°F20.6°C 66.7°F19.3°C 92% Calm Calm -- 29.95 in1014.2 mb 0.00 in0.0 mm 0.00 in0.0 mm 0.00 in0.0 mm
05:42 AM 69.3°F20.7°C 66.8°F19.3°C 92% Calm Calm -- 29.95 in1014.2 mb 0.00 in0.0 mm 0.00 in0.0 mm 0.00 in0.0 mm
05:43 AM 69.3°F20.7°C 66.8°F19.3°C 92% Calm Calm -- 29.95 in1014.2 mb 0.00 in0.0 mm 0.00 in0.0 mm 0.00 in0.0 mm
05:44 AM 69.3°F20.7°C 66.8°F19.3°C 92% Calm Calm -- 29.95 in1014.2 mb 0.00 in0.0 mm 0.00 in0.0 mm 0.00 in0.0 mm
05:45 AM 69.3°F20.7°C 66.8°F19.3°C 92% Calm Calm -- 29.95 in1014.2 mb 0.00 in0.0 mm 0.00 in0.0 mm 0.00 in0.0 mm
05:46 AM 69.1°F20.6°C 66.7°F19.3°C 92% Calm Calm -- 29.95 in1014.2 mb 0.00 in0.0 mm 0.00 in0.0 mm 0.00 in0.0 mm
05:47 AM 69.1°F20.6°C 66.7°F19.3°C 92% Calm Calm -- 29.95 in1014.2 mb 0.00 in0.0 mm 0.00 in0.0 mm 0.00 in0.0 mm
05:48 AM 69.1°F20.6°C 66.7°F19.3°C 92% Calm Calm -- 29.95 in1014.2 mb 0.00 in0.0 mm 0.00 in0.0 mm 0.00 in0.0 mm
05:49 AM 68.9°F20.5°C 66.5°F19.2°C 92% Calm Calm -- 29.95 in1014.2 mb 0.00 in0.0 mm 0.00 in0.0 mm 0.00 in0.0 mm
05:50 AM 68.9°F20.5°C 66.5°F19.2°C 92% Calm Calm -- 29.95 in1014.2 mb 0.00 in0.0 mm 0.00 in0.0 mm 0.00 in0.0 mm
05:51 AM 68.9°F20.5°C 66.5°F19.2°C 92% Calm Calm -- 29.95 in1014.2 mb 0.00 in0.0 mm 0.00 in0.0 mm 0.00 in0.0 mm
05:52 AM 68.9°F20.5°C 66.5°F19.2°C 92% Calm Calm -- 29.95 in1014.2 mb 0.00 in0.0 mm 0.00 in0.0 mm 0.00 in0.0 mm
05:53 AM 69.1°F20.6°C 66.7°F19.3°C 92% Calm Calm -- 29.95 in1014.2 mb 0.00 in0.0 mm 0.00 in0.0 mm 0.00 in0.0 mm
05:54 AM 69.1°F20.6°C 66.7°F19.3°C 92% Calm Calm -- 29.95 in1014.2 mb 0.00 in0.0 mm 0.00 in0.0 mm 0.00 in0.0 mm
05:55 AM 69.1°F20.6°C 66.7°F19.3°C 92% Calm Calm -- 29.95 in1014.2 mb 0.00 in0.0 mm 0.00 in0.0 mm 0.00 in0.0 mm
05:56 AM 69.1°F20.6°C 66.7°F19.3°C 92% Calm Calm -- 29.95 in1014.2 mb 0.00 in0.0 mm 0.00 in0.0 mm 0.00 in0.0 mm
05:57 AM 69.1°F20.6°C 66.7°F19.3°C 92% Calm Calm -- 29.95 in1014.2 mb 0.00 in0.0 mm 0.00 in0.0 mm 0.00 in0.0 mm
05:58 AM 69.3°F20.7°C 66.8°F19.3°C 92% Calm Calm -- 29.95 in1014.2 mb 0.00 in0.0 mm 0.00 in0.0 mm 0.00 in0.0 mm
05:59 AM 69.3°F20.7°C 66.8°F19.3°C 92% Calm Calm -- 29.95 in1014.2 mb 0.00 in0.0 mm 0.00 in0.0 mm 0.00 in0.0 mm
06:00 AM 69.3°F20.7°C 66.8°F19.3°C 92% Calm Calm -- 29.95 in1014.2 mb 0.00 in0.0 mm 0.00 in0.0 mm 0.00 in0.0 mm
06:01 AM 69.3°F20.7°C 66.8°F19.3°C 92% Calm Calm -- 29.95 in1014.2 mb 0.00 in0.0 mm 0.00 in0.0 mm 0.00 in0.0 mm
06:02 AM 69.3°F20.7°C 66.8°F19.3°C 92% Calm Calm -- 29.95 in1014.2 mb 0.00 in0.0 mm 0.00 in0.0 mm 0.00 in0.0 mm
06:03 AM 69.3°F20.7°C 66.8°F19.3°C 92% Calm Calm -- 29.95 in1014.2 mb 0.00 in0.0 mm 0.00 in0.0 mm 0.00 in0.0 mm
06:04 AM 69.3°F20.7°C 66.8°F19.3°C 92% Calm Calm -- 29.95 in1014.2 mb 0.00 in0.0 mm 0.00 in0.0 mm 0.00 in0.0 mm
06:05 AM 69.1°F20.6°C 66.7°F19.3°C 92% Calm Calm -- 29.95 in1014.2 mb 0.00 in0.0 mm 0.00 in0.0 mm 0.00 in0.0 mm
06:06 AM 69.1°F20.6°C 66.7°F19.3°C 92% Calm Calm -- 29.95 in1014.2 mb 0.00 in0.0 mm 0.00 in0.0 mm 0.00 in0.0 mm
06:07 AM 69.3°F20.7°C 66.8°F19.3°C 92% Calm Calm -- 29.95 in1014.2 mb 0.00 in0.0 mm 0.00 in0.0 mm 0.00 in0.0 mm
06:08 AM 69.3°F20.7°C 66.8°F19.3°C 92% Calm Calm -- 29.95 in1014.2 mb 0.00 in0.0 mm 0.00 in0.0 mm 0.00 in0.0 mm
06:09 AM 69.3°F20.7°C 66.8°F19.3°C 92% Calm Calm -- 29.95 in1014.2 mb 0.00 in0.0 mm 0.00 in0.0 mm 0.00 in0.0 mm
06:10 AM 69.3°F20.7°C 66.8°F19.3°C 92% Calm Calm -- 29.95 in1014.2 mb 0.00 in0.0 mm 0.00 in0.0 mm 0.00 in0.0 mm
06:11 AM 69.3°F20.7°C 66.8°F19.3°C 92% Calm Calm -- 29.95 in1014.2 mb 0.00 in0.0 mm 0.00 in0.0 mm 0.00 in0.0 mm
06:12 AM 69.3°F20.7°C 66.8°F19.3°C 92% Calm Calm -- 29.95 in1014.2 mb 0.00 in0.0 mm 0.00 in0.0 mm 0.00 in0.0 mm
06:13 AM 69.3°F20.7°C 66.8°F19.3°C 92% Calm Calm -- 29.95 in1014.2 mb 0.00 in0.0 mm 0.00 in0.0 mm 0.00 in0.0 mm
06:14 AM 69.3°F20.7°C 66.8°F19.3°C 92% Calm Calm -- 29.95 in1014.2 mb 0.00 in0.0 mm 0.00 in0.0 mm 0.00 in0.0 mm
06:15 AM 69.3°F20.7°C 66.8°F19.3°C 92% Calm Calm -- 29.95 in1014.2 mb 0.00 in0.0 mm 0.00 in0.0 mm 0.00 in0.0 mm
06:16 AM 69.4°F20.8°C 67.0°F19.4°C 92% Calm Calm -- 29.95 in1014.2 mb 0.00 in0.0 mm 0.00 in0.0 mm 0.00 in0.0 mm
06:17 AM 69.4°F20.8°C 67.0°F19.4°C 92% Calm Calm -- 29.95 in1014.2 mb 0.00 in0.0 mm 0.00 in0.0 mm 0.00 in0.0 mm
06:18 AM 69.4°F20.8°C 67.0°F19.4°C 92% Calm Calm -- 29.95 in1014.2 mb 0.00 in0.0 mm 0.00 in0.0 mm 0.00 in0.0 mm
06:19 AM 69.6°F20.9°C 67.2°F19.6°C 92% 0.3 mph NE0.5 kmh NE 2.2 mph3.5 kmh 29.95 in1014.2 mb 0.00 in0.0 mm 0.00 in0.0 mm 0.00 in0.0 mm
06:20 AM 69.6°F20.9°C 67.2°F19.6°C 92% 0.3 mph NE0.5 kmh NE 2.2 mph3.5 kmh 29.95 in1014.2 mb 0.00 in0.0 mm 0.00 in0.0 mm 0.00 in0.0 mm
06:21 AM 69.6°F20.9°C 67.2°F19.6°C 92% 0.3 mph NE0.5 kmh NE 2.2 mph3.5 kmh 29.95 in1014.2 mb 0.00 in0.0 mm 0.00 in0.0 mm 0.00 in0.0 mm
06:22 AM 69.6°F20.9°C 67.2°F19.6°C 92% 0.3 mph NE0.5 kmh NE 2.2 mph3.5 kmh 29.95 in1014.2 mb 0.00 in0.0 mm 0.00 in0.0 mm 0.00 in0.0 mm
06:23 AM 69.6°F20.9°C 67.2°F19.6°C 92% 0.3 mph NE0.5 kmh NE 2.2 mph3.5 kmh 29.95 in1014.2 mb 0.00 in0.0 mm 0.00 in0.0 mm 0.00 in0.0 mm
06:24 AM 69.6°F20.9°C 67.2°F19.6°C 92% 0.3 mph NE0.5 kmh NE 2.2 mph3.5 kmh 29.95 in1014.2 mb 0.00 in0.0 mm 0.00 in0.0 mm 0.00 in0.0 mm
06:25 AM 69.6°F20.9°C 67.2°F19.6°C 92% 0.3 mph NE0.5 kmh NE 2.2 mph3.5 kmh 29.95 in1014.2 mb 0.00 in0.0 mm 0.00 in0.0 mm 0.00 in0.0 mm
06:26 AM 69.6°F20.9°C 67.2°F19.6°C 92% 0.3 mph NE0.5 kmh NE 2.2 mph3.5 kmh 29.95 in1014.2 mb 0.00 in0.0 mm 0.00 in0.0 mm 0.00 in0.0 mm
06:27 AM 69.6°F20.9°C 67.2°F19.6°C 92% 0.3 mph NE0.5 kmh NE 2.2 mph3.5 kmh 29.95 in1014.2 mb 0.00 in0.0 mm 0.00 in0.0 mm 0.00 in0.0 mm
06:28 AM 69.6°F20.9°C 67.2°F19.6°C 92% 0.3 mph NE0.5 kmh NE 2.2 mph3.5 kmh 29.95 in1014.2 mb 0.00 in0.0 mm 0.00 in0.0 mm 0.00 in0.0 mm
06:29 AM 69.6°F20.9°C 67.2°F19.6°C 92% 0.2 mph NE0.3 kmh NE 2.2 mph3.5 kmh 29.95 in1014.2 mb 0.00 in0.0 mm 0.00 in0.0 mm 0.00 in0.0 mm
06:30 AM 69.6°F20.9°C 67.2°F19.6°C 92% 0.1 mph NNE0.2 kmh NNE 1.1 mph1.8 kmh 29.95 in1014.2 mb 0.00 in0.0 mm 0.00 in0.0 mm 0.00 in0.0 mm
06:31 AM 69.6°F20.9°C 67.2°F19.6°C 92% 0.1 mph NNE0.2 kmh NNE 1.1 mph1.8 kmh 29.95 in1014.2 mb 0.00 in0.0 mm 0.00 in0.0 mm 0.00 in0.0 mm
06:32 AM 69.6°F20.9°C 67.2°F19.6°C 92% 0.1 mph NNE0.2 kmh NNE 1.1 mph1.8 kmh 29.95 in1014.2 mb 0.00 in0.0 mm 0.00 in0.0 mm 0.00 in0.0 mm
06:33 AM 69.6°F20.9°C 67.2°F19.6°C 92% 0.1 mph NNE0.2 kmh NNE 1.1 mph1.8 kmh 29.95 in1014.2 mb 0.00 in0.0 mm 0.00 in0.0 mm 0.00 in0.0 mm
06:34 AM 69.6°F20.9°C 67.2°F19.6°C 92% 0.1 mph NNE0.2 kmh NNE 1.1 mph1.8 kmh 29.95 in1014.2 mb 0.00 in0.0 mm 0.00 in0.0 mm 0.00 in0.0 mm
06:35 AM 69.6°F20.9°C 67.2°F19.6°C 92% 0.1 mph NNE0.2 kmh NNE 0.9 mph1.4 kmh 29.95 in1014.2 mb 0.00 in0.0 mm 0.00 in0.0 mm 0.00 in0.0 mm
06:36 AM 69.6°F20.9°C 67.2°F19.6°C 92% 0.1 mph NNE0.2 kmh NNE 0.9 mph1.4 kmh 29.95 in1014.2 mb 0.00 in0.0 mm 0.00 in0.0 mm 0.00 in0.0 mm
06:37 AM 69.6°F20.9°C 67.2°F19.6°C 92% 0.1 mph NNE0.2 kmh NNE 0.9 mph1.4 kmh 29.95 in1014.2 mb 0.00 in0.0 mm 0.00 in0.0 mm 0.00 in0.0 mm
06:38 AM 69.6°F20.9°C 67.2°F19.6°C 92% 0.1 mph NNE0.2 kmh NNE 0.9 mph1.4 kmh 29.95 in1014.2 mb 0.00 in0.0 mm 0.00 in0.0 mm 0.00 in0.0 mm
06:39 AM 69.8°F21.0°C 67.1°F19.5°C 91% 0.1 mph NNE0.2 kmh NNE 0.9 mph1.4 kmh 29.95 in1014.2 mb 0.00 in0.0 mm 0.00 in0.0 mm 0.00 in0.0 mm
06:40 AM 69.8°F21.0°C 67.1°F19.5°C 91% 0.1 mph NNE0.2 kmh NNE 0.9 mph1.4 kmh 29.95 in1014.2 mb 0.00 in0.0 mm 0.00 in0.0 mm 0.00 in0.0 mm
06:41 AM 69.8°F21.0°C 67.1°F19.5°C 91% 0.1 mph NNE0.2 kmh NNE 0.9 mph1.4 kmh 29.95 in1014.2 mb 0.00 in0.0 mm 0.00 in0.0 mm 0.00 in0.0 mm
06:42 AM 69.8°F21.0°C 67.4°F19.7°C 92% 0.1 mph NNE0.2 kmh NNE 0.9 mph1.4 kmh 29.95 in1014.2 mb 0.00 in0.0 mm 0.00 in0.0 mm 0.00 in0.0 mm
06:43 AM 69.8°F21.0°C 67.4°F19.7°C 92% 0.1 mph NNE0.2 kmh NNE 0.9 mph1.4 kmh 29.95 in1014.2 mb 0.00 in0.0 mm 0.00 in0.0 mm 0.00 in0.0 mm
06:44 AM 70.0°F21.1°C 67.2°F19.6°C 91% 0.1 mph NNE0.2 kmh NNE 0.9 mph1.4 kmh 29.95 in1014.2 mb 0.00 in0.0 mm 0.00 in0.0 mm 0.00 in0.0 mm
06:45 AM 70.0°F21.1°C 67.2°F19.6°C 91% 0.1 mph NE0.2 kmh NE 0.9 mph1.4 kmh 29.95 in1014.2 mb 0.00 in0.0 mm 0.00 in0.0 mm 0.00 in0.0 mm
06:46 AM 70.0°F21.1°C 67.2°F19.6°C 91% 0.1 mph NE0.2 kmh NE 0.9 mph1.4 kmh 29.95 in1014.2 mb 0.00 in0.0 mm 0.00 in0.0 mm 0.00 in0.0 mm
06:47 AM 70.0°F21.1°C 67.2°F19.6°C 91% 0.1 mph NE0.2 kmh NE 0.9 mph1.4 kmh 29.95 in1014.2 mb 0.00 in0.0 mm 0.00 in0.0 mm 0.00 in0.0 mm
06:48 AM 70.2°F21.2°C 67.4°F19.7°C 91% 0.1 mph NE0.2 kmh NE 0.9 mph1.4 kmh 29.95 in1014.2 mb 0.00 in0.0 mm 0.00 in0.0 mm 0.00 in0.0 mm
06:49 AM 70.2°F21.2°C 67.4°F19.7°C 91% 0.1 mph NE0.2 kmh NE 0.9 mph1.4 kmh 29.95 in1014.2 mb 0.00 in0.0 mm 0.00 in0.0 mm 0.00 in0.0 mm
06:50 AM 70.2°F21.2°C 67.4°F19.7°C 91% 0.1 mph NW0.2 kmh NW 1.1 mph1.8 kmh 29.95 in1014.2 mb 0.00 in0.0 mm 0.00 in0.0 mm 0.00 in0.0 mm
06:51 AM 70.2°F21.2°C 67.4°F19.7°C 91% 0.2 mph WNW0.3 kmh WNW 1.1 mph1.8 kmh 29.98 in1015.2 mb 0.00 in0.0 mm 0.00 in0.0 mm 0.00 in0.0 mm
06:52 AM 70.2°F21.2°C 67.4°F19.7°C 91% 0.2 mph WNW0.3 kmh WNW 1.1 mph1.8 kmh 29.98 in1015.2 mb 0.00 in0.0 mm 0.00 in0.0 mm 0.00 in0.0 mm
06:53 AM 70.3°F21.3°C 67.6°F19.8°C 91% 0.2 mph WNW0.3 kmh WNW 1.1 mph1.8 kmh 29.98 in1015.2 mb 0.00 in0.0 mm 0.00 in0.0 mm 0.00 in0.0 mm
06:54 AM 70.3°F21.3°C 67.6°F19.8°C 91% 0.2 mph WNW0.3 kmh WNW 1.1 mph1.8 kmh 29.98 in1015.2 mb 0.00 in0.0 mm 0.00 in0.0 mm 0.00 in0.0 mm
06:55 AM 70.3°F21.3°C 67.6°F19.8°C 91% 0.1 mph W0.2 kmh W 1.1 mph1.8 kmh 29.98 in1015.2 mb 0.00 in0.0 mm 0.00 in0.0 mm 0.00 in0.0 mm
06:56 AM 70.3°F21.3°C 67.3°F19.6°C 90% 0.1 mph W0.2 kmh W 1.1 mph1.8 kmh 29.98 in1015.2 mb 0.00 in0.0 mm 0.00 in0.0 mm 0.00 in0.0 mm
06:57 AM 70.3°F21.3°C 67.3°F19.6°C 90% 0.1 mph W0.2 kmh W 1.1 mph1.8 kmh 29.98 in1015.2 mb 0.00 in0.0 mm 0.00 in0.0 mm 0.00 in0.0 mm
06:58 AM 70.3°F21.3°C 67.6°F19.8°C 91% 0.1 mph W0.2 kmh W 1.1 mph1.8 kmh 29.98 in1015.2 mb 0.00 in0.0 mm 0.00 in0.0 mm 0.00 in0.0 mm
06:59 AM 70.3°F21.3°C 67.6°F19.8°C 91% 0.1 mph W0.2 kmh W 1.1 mph1.8 kmh 29.98 in1015.2 mb 0.00 in0.0 mm 0.00 in0.0 mm 0.00 in0.0 mm
07:00 AM 70.2°F21.2°C 67.4°F19.7°C 91% 0.3 mph NW0.5 kmh NW 1.1 mph1.8 kmh 29.98 in1015.2 mb 0.00 in0.0 mm 0.00 in0.0 mm 0.00 in0.0 mm
07:01 AM 70.2°F21.2°C 67.4°F19.7°C 91% 0.3 mph NE0.5 kmh NE 2.2 mph3.5 kmh 29.98 in1015.2 mb 0.00 in0.0 mm 0.00 in0.0 mm 0.00 in0.0 mm
07:02 AM 70.2°F21.2°C 67.4°F19.7°C 91% 0.2 mph NE0.3 kmh NE 2.2 mph3.5 kmh 29.98 in1015.2 mb 0.00 in0.0 mm 0.00 in0.0 mm 0.00 in0.0 mm
07:03 AM 70.0°F21.1°C 67.2°F19.6°C 91% 0.3 mph NE0.5 kmh NE 2.2 mph3.5 kmh 29.98 in1015.2 mb 0.00 in0.0 mm 0.00 in0.0 mm 0.00 in0.0 mm
07:04 AM 70.0°F21.1°C 67.2°F19.6°C 91% 0.3 mph NE0.5 kmh NE 2.2 mph3.5 kmh 29.98 in1015.2 mb 0.00 in0.0 mm 0.00 in0.0 mm 0.00 in0.0 mm
07:05 AM 70.2°F21.2°C 67.4°F19.7°C 91% 0.3 mph NE0.5 kmh NE 2.2 mph3.5 kmh 29.98 in1015.2 mb 0.00 in0.0 mm 0.00 in0.0 mm 0.00 in0.0 mm
07:06 AM 70.2°F21.2°C 67.4°F19.7°C 91% 0.3 mph NE0.5 kmh NE 2.2 mph3.5 kmh 29.95 in1014.2 mb 0.00 in0.0 mm 0.00 in0.0 mm 0.00 in0.0 mm
07:07 AM 70.2°F21.2°C 67.4°F19.7°C 91% 0.3 mph NE0.5 kmh NE 2.2 mph3.5 kmh 29.95 in1014.2 mb 0.00 in0.0 mm 0.00 in0.0 mm 0.00 in0.0 mm
07:08 AM 70.2°F21.2°C 67.4°F19.7°C 91% 0.4 mph NE0.6 kmh NE 2.2 mph3.5 kmh 29.95 in1014.2 mb 0.00 in0.0 mm 0.00 in0.0 mm 0.00 in0.0 mm
07:09 AM 70.3°F21.3°C 67.6°F19.8°C 91% 0.5 mph NNE0.8 kmh NNE 2.2 mph3.5 kmh 29.95 in1014.2 mb 0.00 in0.0 mm 0.00 in0.0 mm 0.00 in0.0 mm
07:10 AM 70.3°F21.3°C 67.6°F19.8°C 91% 0.4 mph NNE0.6 kmh NNE 2.2 mph3.5 kmh 29.95 in1014.2 mb 0.00 in0.0 mm 0.00 in0.0 mm 0.00 in0.0 mm
07:11 AM 70.3°F21.3°C 67.6°F19.8°C 91% 0.2 mph N0.3 kmh N 1.6 mph2.6 kmh 29.95 in1014.2 mb 0.00 in0.0 mm 0.00 in0.0 mm 0.00 in0.0 mm
07:12 AM 70.5°F21.4°C 67.4°F19.7°C 90% 0.2 mph N0.3 kmh N 1.6 mph2.6 kmh 29.95 in1014.2 mb 0.00 in0.0 mm 0.00 in0.0 mm 0.00 in0.0 mm
07:13 AM 70.5°F21.4°C 67.4°F19.7°C 90% 0.2 mph N0.3 kmh N 1.6 mph2.6 kmh 29.95 in1014.2 mb 0.00 in0.0 mm 0.00 in0.0 mm 0.00 in0.0 mm
07:14 AM 70.5°F21.4°C 67.4°F19.7°C 90% 0.2 mph N0.3 kmh N 1.6 mph2.6 kmh 29.95 in1014.2 mb 0.00 in0.0 mm 0.00 in0.0 mm 0.00 in0.0 mm
07:15 AM 70.5°F21.4°C 67.4°F19.7°C 90% 0.2 mph N0.3 kmh N 1.6 mph2.6 kmh 29.95 in1014.2 mb 0.00 in0.0 mm 0.00 in0.0 mm 0.00 in0.0 mm
07:16 AM 70.5°F21.4°C 67.4°F19.7°C 90% 0.2 mph N0.3 kmh N 1.6 mph2.6 kmh 29.95 in1014.2 mb 0.00 in0.0 mm 0.00 in0.0 mm 0.00 in0.0 mm
07:17 AM 70.5°F21.4°C 67.4°F19.7°C 90% 0.2 mph N0.3 kmh N 1.6 mph2.6 kmh 29.95 in1014.2 mb 0.00 in0.0 mm 0.00 in0.0 mm 0.00 in0.0 mm
07:18 AM 70.7°F21.5°C 67.6°F19.8°C 90% 0.1 mph N0.2 kmh N 1.6 mph2.6 kmh 29.95 in1014.2 mb 0.00 in0.0 mm 0.00 in0.0 mm 0.00 in0.0 mm
07:19 AM 70.9°F21.6°C 67.8°F19.9°C 90% Calm Calm -- 29.95 in1014.2 mb 0.00 in0.0 mm 0.00 in0.0 mm 0.00 in0.0 mm
07:20 AM 70.9°F21.6°C 67.8°F19.9°C 90% Calm Calm -- 29.95 in1014.2 mb 0.00 in0.0 mm 0.00 in0.0 mm 0.00 in0.0 mm
07:21 AM 70.9°F21.6°C 67.8°F19.9°C 90% Calm Calm -- 29.98 in1015.2 mb 0.00 in0.0 mm 0.00 in0.0 mm 0.00 in0.0 mm
07:22 AM 70.9°F21.6°C 67.8°F19.9°C 90% Calm Calm -- 29.98 in1015.2 mb 0.00 in0.0 mm 0.00 in0.0 mm 0.00 in0.0 mm
07:23 AM 71.1°F21.7°C 68.0°F20.0°C 90% Calm Calm -- 29.98 in1015.2 mb 0.00 in0.0 mm 0.00 in0.0 mm 0.00 in0.0 mm
07:24 AM 71.1°F21.7°C 68.0°F20.0°C 90% Calm Calm -- 29.98 in1015.2 mb 0.00 in0.0 mm 0.00 in0.0 mm 0.00 in0.0 mm
07:25 AM 71.1°F21.7°C 68.0°F20.0°C 90% Calm Calm -- 29.98 in1015.2 mb 0.00 in0.0 mm 0.00 in0.0 mm 0.00 in0.0 mm
07:26 AM 71.1°F21.7°C 68.0°F20.0°C 90% Calm Calm -- 29.98 in1015.2 mb 0.00 in0.0 mm 0.00 in0.0 mm 0.00 in0.0 mm
07:27 AM 71.1°F21.7°C 68.0°F20.0°C 90% Calm Calm -- 29.98 in1015.2 mb 0.00 in0.0 mm 0.00 in0.0 mm 0.00 in0.0 mm
07:28 AM 71.2°F21.8°C 68.2°F20.1°C 90% Calm Calm -- 29.98 in1015.2 mb 0.00 in0.0 mm 0.00 in0.0 mm 0.00 in0.0 mm
07:29 AM 71.2°F21.8°C 68.2°F20.1°C 90% 0.1 mph NE0.2 kmh NE 1.1 mph1.8 kmh 29.98 in1015.2 mb 0.00 in0.0 mm 0.00 in0.0 mm 0.00 in0.0 mm
07:30 AM 71.4°F21.9°C 68.3°F20.2°C 90% 0.1 mph NE0.2 kmh NE 1.1 mph1.8 kmh 29.98 in1015.2 mb 0.00 in0.0 mm 0.00 in0.0 mm 0.00 in0.0 mm
07:31 AM 71.4°F21.9°C 68.3°F20.2°C 90% 0.1 mph NE0.2 kmh NE 1.1 mph1.8 kmh 29.98 in1015.2 mb 0.00 in0.0 mm 0.00 in0.0 mm 0.00 in0.0 mm
07:32 AM 71.6°F22.0°C 68.2°F20.1°C 89% 0.1 mph NE0.2 kmh NE 1.1 mph1.8 kmh 29.98 in1015.2 mb 0.00 in0.0 mm 0.00 in0.0 mm 0.00 in0.0 mm
07:33 AM 72.0°F22.2°C 68.5°F20.3°C 89% 0.1 mph NE0.2 kmh NE 1.1 mph1.8 kmh 29.98 in1015.2 mb 0.00 in0.0 mm 0.00 in0.0 mm 0.00 in0.0 mm
07:34 AM 72.0°F22.2°C 68.5°F20.3°C 89% 0.1 mph NE0.2 kmh NE 1.1 mph1.8 kmh 29.98 in1015.2 mb 0.00 in0.0 mm 0.00 in0.0 mm 0.00 in0.0 mm
07:35 AM 72.1°F22.3°C 68.7°F20.4°C 89% 0.1 mph NE0.2 kmh NE 1.1 mph1.8 kmh 29.98 in1015.2 mb 0.00 in0.0 mm 0.00 in0.0 mm 0.00 in0.0 mm
07:36 AM 72.1°F22.3°C 68.7°F20.4°C 89% 0.1 mph NE0.2 kmh NE 1.1 mph1.8 kmh 29.98 in1015.2 mb 0.00 in0.0 mm 0.00 in0.0 mm 0.00 in0.0 mm
07:37 AM 72.5°F22.5°C 68.7°F20.4°C 88% 0.1 mph NE0.2 kmh NE 1.1 mph1.8 kmh 29.98 in1015.2 mb 0.00 in0.0 mm 0.00 in0.0 mm 0.00 in0.0 mm
07:38 AM 72.5°F22.5°C 68.7°F20.4°C 88% 0.1 mph NE0.2 kmh NE 1.1 mph1.8 kmh 29.98 in1015.2 mb 0.00 in0.0 mm 0.00 in0.0 mm 0.00 in0.0 mm
07:39 AM 72.9°F22.7°C 69.1°F20.6°C 88% 0.1 mph NE0.2 kmh NE 1.1 mph1.8 kmh 29.98 in1015.2 mb 0.00 in0.0 mm 0.00 in0.0 mm 0.00 in0.0 mm
07:40 AM 73.0°F22.8°C 69.3°F20.7°C 88% 0.2 mph E0.3 kmh E 1.1 mph1.8 kmh 29.98 in1015.2 mb 0.00 in0.0 mm 0.00 in0.0 mm 0.00 in0.0 mm
07:41 AM 73.0°F22.8°C 69.3°F20.7°C 88% 0.3 mph ENE0.5 kmh ENE 1.6 mph2.6 kmh 29.98 in1015.2 mb 0.00 in0.0 mm 0.00 in0.0 mm 0.00 in0.0 mm
07:42 AM 73.2°F22.9°C 69.1°F20.6°C 87% 0.3 mph ENE0.5 kmh ENE 1.6 mph2.6 kmh 29.98 in1015.2 mb 0.00 in0.0 mm 0.00 in0.0 mm 0.00 in0.0 mm
07:43 AM 73.2°F22.9°C 69.1°F20.6°C 87% 0.3 mph ENE0.5 kmh ENE 1.6 mph2.6 kmh 29.98 in1015.2 mb 0.00 in0.0 mm 0.00 in0.0 mm 0.00 in0.0 mm
07:44 AM 73.6°F23.1°C 69.5°F20.8°C 87% 0.3 mph ENE0.5 kmh ENE 1.6 mph2.6 kmh 29.98 in1015.2 mb 0.00 in0.0 mm 0.00 in0.0 mm 0.00 in0.0 mm
07:45 AM 73.6°F23.1°C 69.5°F20.8°C 87% 0.3 mph ENE0.5 kmh ENE 1.6 mph2.6 kmh 29.98 in1015.2 mb 0.00 in0.0 mm 0.00 in0.0 mm 0.00 in0.0 mm
07:46 AM 73.6°F23.1°C 69.5°F20.8°C 87% 0.5 mph NE0.8 kmh NE 4.0 mph6.4 kmh 29.98 in1015.2 mb 0.00 in0.0 mm 0.00 in0.0 mm 0.00 in0.0 mm
07:47 AM 73.6°F23.1°C 69.1°F20.6°C 86% 0.7 mph NE1.1 kmh NE 4.0 mph6.4 kmh 29.98 in1015.2 mb 0.00 in0.0 mm 0.00 in0.0 mm 0.00 in0.0 mm
07:48 AM 73.6°F23.1°C 69.1°F20.6°C 86% 0.9 mph NE1.4 kmh NE 4.0 mph6.4 kmh 29.98 in1015.2 mb 0.00 in0.0 mm 0.00 in0.0 mm 0.00 in0.0 mm
07:49 AM 73.6°F23.1°C 69.1°F20.6°C 86% 0.9 mph NNE1.4 kmh NNE 4.0 mph6.4 kmh 29.98 in1015.2 mb 0.00 in0.0 mm 0.00 in0.0 mm 0.00 in0.0 mm
07:50 AM 73.8°F23.2°C 68.6°F20.3°C 84% 1.2 mph NNE1.9 kmh NNE 4.0 mph6.4 kmh 29.98 in1015.2 mb 0.00 in0.0 mm 0.00 in0.0 mm 0.00 in0.0 mm
07:51 AM 73.8°F23.2°C 68.6°F20.3°C 84% 1.1 mph NNE1.8 kmh NNE 4.0 mph6.4 kmh 29.98 in1015.2 mb 0.00 in0.0 mm 0.00 in0.0 mm 0.00 in0.0 mm
07:52 AM 73.9°F23.3°C 68.8°F20.4°C 84% 1.2 mph NNE1.9 kmh NNE 4.0 mph6.4 kmh 29.98 in1015.2 mb 0.00 in0.0 mm 0.00 in0.0 mm 0.00 in0.0 mm
07:53 AM 73.9°F23.3°C 68.8°F20.4°C 84% 1.2 mph NNE1.9 kmh NNE 4.0 mph6.4 kmh 29.98 in1015.2 mb 0.00 in0.0 mm 0.00 in0.0 mm 0.00 in0.0 mm
07:54 AM 74.8°F23.8°C 69.7°F20.9°C 84% 1.4 mph NE2.3 kmh NE 4.0 mph6.4 kmh 29.98 in1015.2 mb 0.00 in0.0 mm 0.00 in0.0 mm 0.00 in0.0 mm
07:55 AM 77.0°F25.0°C 69.6°F20.9°C 78% 1.3 mph NE2.1 kmh NE 4.0 mph6.4 kmh 29.98 in1015.2 mb 0.00 in0.0 mm 0.00 in0.0 mm 0.00 in0.0 mm
07:56 AM 77.0°F25.0°C 69.6°F20.9°C 78% 1.3 mph NNE2.1 kmh NNE 4.9 mph7.9 kmh 29.98 in1015.2 mb 0.00 in0.0 mm 0.00 in0.0 mm 0.00 in0.0 mm
07:57 AM 77.5°F25.3°C 68.6°F20.3°C 74% 1.6 mph NNE2.6 kmh NNE 4.9 mph7.9 kmh 29.98 in1015.2 mb 0.00 in0.0 mm 0.00 in0.0 mm 0.00 in0.0 mm
07:58 AM 77.5°F25.3°C 68.6°F20.3°C 74% 1.6 mph NE2.6 kmh NE 4.9 mph7.9 kmh 29.98 in1015.2 mb 0.00 in0.0 mm 0.00 in0.0 mm 0.00 in0.0 mm
07:59 AM 78.3°F25.7°C 68.9°F20.5°C 73% 1.6 mph NE2.6 kmh NE 4.9 mph7.9 kmh 29.98 in1015.2 mb 0.00 in0.0 mm 0.00 in0.0 mm 0.00 in0.0 mm
08:00 AM 78.3°F25.7°C 68.9°F20.5°C 73% 1.5 mph NE2.4 kmh NE 4.9 mph7.9 kmh 29.98 in1015.2 mb 0.00 in0.0 mm 0.00 in0.0 mm 0.00 in0.0 mm
08:01 AM 78.8°F26.0°C 68.6°F20.3°C 71% 1.6 mph NNE2.6 kmh NNE 4.9 mph7.9 kmh 29.98 in1015.2 mb 0.00 in0.0 mm 0.00 in0.0 mm 0.00 in0.0 mm
08:02 AM 78.8°F26.0°C 68.6°F20.3°C 71% 1.6 mph NNE2.6 kmh NNE 4.9 mph7.9 kmh 29.98 in1015.2 mb 0.00 in0.0 mm 0.00 in0.0 mm 0.00 in0.0 mm
08:03 AM 79.0°F26.1°C 67.9°F19.9°C 69% 1.9 mph NNE3.1 kmh NNE 4.9 mph7.9 kmh 29.98 in1015.2 mb 0.00 in0.0 mm 0.00 in0.0 mm 0.00 in0.0 mm
08:04 AM 79.7°F26.5°C 69.0°F20.6°C 70% 2.1 mph N3.4 kmh N 4.9 mph7.9 kmh 29.98 in1015.2 mb 0.00 in0.0 mm 0.00 in0.0 mm 0.00 in0.0 mm
08:05 AM 79.7°F26.5°C 69.0°F20.6°C 70% 2.3 mph N3.7 kmh N 4.9 mph7.9 kmh 29.98 in1015.2 mb 0.00 in0.0 mm 0.00 in0.0 mm 0.00 in0.0 mm
08:06 AM 79.2°F26.2°C 67.7°F19.8°C 68% 2.3 mph NNE3.7 kmh NNE 3.8 mph6.1 kmh 29.98 in1015.2 mb 0.00 in0.0 mm 0.00 in0.0 mm 0.00 in0.0 mm
08:07 AM 79.2°F26.2°C 67.7°F19.8°C 68% 2.2 mph N3.5 kmh N 4.3 mph6.9 kmh 29.98 in1015.2 mb 0.00 in0.0 mm 0.00 in0.0 mm 0.00 in0.0 mm
08:08 AM 79.3°F26.3°C 68.3°F20.2°C 69% 2.5 mph N4.0 kmh N 4.3 mph6.9 kmh 29.98 in1015.2 mb 0.00 in0.0 mm 0.00 in0.0 mm 0.00 in0.0 mm
08:09 AM 79.3°F26.3°C 68.3°F20.2°C 69% 2.6 mph N4.2 kmh N 4.3 mph6.9 kmh 29.98 in1015.2 mb 0.00 in0.0 mm 0.00 in0.0 mm 0.00 in0.0 mm
08:10 AM 79.5°F26.4°C 68.0°F20.0°C 68% 2.6 mph N4.2 kmh N 4.3 mph6.9 kmh 29.98 in1015.2 mb 0.00 in0.0 mm 0.00 in0.0 mm 0.00 in0.0 mm
08:11 AM 80.4°F26.9°C 69.3°F20.7°C 69% 2.6 mph N4.2 kmh N 4.3 mph6.9 kmh 29.98 in1015.2 mb 0.00 in0.0 mm 0.00 in0.0 mm 0.00 in0.0 mm
08:12 AM 80.4°F26.9°C 69.3°F20.7°C 69% 2.4 mph N3.9 kmh N 4.3 mph6.9 kmh 29.98 in1015.2 mb 0.00 in0.0 mm 0.00 in0.0 mm 0.00 in0.0 mm
08:13 AM 81.9°F27.7°C 70.3°F21.3°C 68% 2.1 mph N3.4 kmh N 4.3 mph6.9 kmh 29.98 in1015.2 mb 0.00 in0.0 mm 0.00 in0.0 mm 0.00 in0.0 mm
08:14 AM 81.9°F27.7°C 70.3°F21.3°C 68% 2.0 mph N3.2 kmh N 4.3 mph6.9 kmh 29.98 in1015.2 mb 0.00 in0.0 mm 0.00 in0.0 mm 0.00 in0.0 mm
08:15 AM 82.8°F28.2°C 70.2°F21.2°C 66% 1.7 mph N2.7 kmh N 4.3 mph6.9 kmh 29.98 in1015.2 mb 0.00 in0.0 mm 0.00 in0.0 mm 0.00 in0.0 mm
08:16 AM 82.8°F28.2°C 70.2°F21.2°C 66% 1.7 mph N2.7 kmh N 4.3 mph6.9 kmh 29.98 in1015.2 mb 0.00 in0.0 mm 0.00 in0.0 mm 0.00 in0.0 mm
08:17 AM 82.9°F28.3°C 69.5°F20.8°C 64% 1.6 mph N2.6 kmh N 4.3 mph6.9 kmh 29.98 in1015.2 mb 0.00 in0.0 mm 0.00 in0.0 mm 0.00 in0.0 mm
08:18 AM 81.7°F27.6°C 68.3°F20.2°C 64% 1.0 mph SE1.6 kmh SE 4.0 mph6.4 kmh 29.98 in1015.2 mb 0.00 in0.0 mm 0.00 in0.0 mm 0.00 in0.0 mm
08:19 AM 81.7°F27.6°C 68.3°F20.2°C 64% 1.1 mph E1.8 kmh E 4.0 mph6.4 kmh 29.98 in1015.2 mb 0.00 in0.0 mm 0.00 in0.0 mm 0.00 in0.0 mm
08:20 AM 80.4°F26.9°C 68.0°F20.0°C 66% 1.3 mph SE2.1 kmh SE 4.0 mph6.4 kmh 29.98 in1015.2 mb 0.00 in0.0 mm 0.00 in0.0 mm 0.00 in0.0 mm
08:21 AM 80.4°F26.9°C 68.0°F20.0°C 66% 1.1 mph SE1.8 kmh SE 4.0 mph6.4 kmh 29.98 in1015.2 mb 0.00 in0.0 mm 0.00 in0.0 mm 0.00 in0.0 mm
08:22 AM 82.4°F28.0°C 69.9°F21.1°C 66% 1.0 mph ESE1.6 kmh ESE 4.0 mph6.4 kmh 29.98 in1015.2 mb 0.00 in0.0 mm 0.00 in0.0 mm 0.00 in0.0 mm
08:23 AM 82.4°F28.0°C 69.9°F21.1°C 66% 1.0 mph ESE1.6 kmh ESE 4.0 mph6.4 kmh 29.98 in1015.2 mb 0.00 in0.0 mm 0.00 in0.0 mm 0.00 in0.0 mm
08:24 AM 83.1°F28.4°C 68.3°F20.2°C 61% 1.3 mph E2.1 kmh E 4.0 mph6.4 kmh 29.98 in1015.2 mb 0.00 in0.0 mm 0.00 in0.0 mm 0.00 in0.0 mm
08:25 AM 83.1°F28.4°C 68.3°F20.2°C 61% 1.7 mph E2.7 kmh E 4.0 mph6.4 kmh 29.98 in1015.2 mb 0.00 in0.0 mm 0.00 in0.0 mm 0.00 in0.0 mm
08:26 AM 81.9°F27.7°C 67.6°F19.8°C 62% 1.8 mph ENE2.9 kmh ENE 4.0 mph6.4 kmh 29.98 in1015.2 mb 0.00 in0.0 mm 0.00 in0.0 mm 0.00 in0.0 mm
08:27 AM 81.9°F27.7°C 67.6°F19.8°C 62% 1.7 mph NE2.7 kmh NE 3.6 mph5.8 kmh 29.98 in1015.2 mb 0.00 in0.0 mm 0.00 in0.0 mm 0.00 in0.0 mm
08:28 AM 80.4°F26.9°C 68.0°F20.0°C 66% 1.8 mph ENE2.9 kmh ENE 3.6 mph5.8 kmh 29.98 in1015.2 mb 0.00 in0.0 mm 0.00 in0.0 mm 0.00 in0.0 mm
08:29 AM 80.4°F26.9°C 68.0°F20.0°C 66% 1.8 mph ENE2.9 kmh ENE 3.6 mph5.8 kmh 29.98 in1015.2 mb 0.00 in0.0 mm 0.00 in0.0 mm 0.00 in0.0 mm
08:30 AM 79.3°F26.3°C 66.5°F19.2°C 65% 1.8 mph NE2.9 kmh NE 4.7 mph7.6 kmh 29.98 in1015.2 mb 0.00 in0.0 mm 0.00 in0.0 mm 0.00 in0.0 mm
08:31 AM 79.3°F26.3°C 66.5°F19.2°C 65% 1.8 mph NE2.9 kmh NE 4.7 mph7.6 kmh 29.98 in1015.2 mb 0.00 in0.0 mm 0.00 in0.0 mm 0.00 in0.0 mm
08:32 AM 78.4°F25.8°C 67.0°F19.4°C 68% 2.1 mph NNE3.4 kmh NNE 4.7 mph7.6 kmh 29.98 in1015.2 mb 0.00 in0.0 mm 0.00 in0.0 mm 0.00 in0.0 mm
08:33 AM 77.7°F25.4°C 66.3°F19.1°C 68% 2.0 mph NNE3.2 kmh NNE 4.7 mph7.6 kmh 29.98 in1015.2 mb 0.00 in0.0 mm 0.00 in0.0 mm 0.00 in0.0 mm
08:34 AM 77.7°F25.4°C 66.3°F19.1°C 68% 2.0 mph NNE3.2 kmh NNE 4.7 mph7.6 kmh 29.98 in1015.2 mb 0.00 in0.0 mm 0.00 in0.0 mm 0.00 in0.0 mm
08:35 AM 77.4°F25.2°C 66.0°F18.9°C 68% 2.2 mph NE3.5 kmh NE 4.7 mph7.6 kmh 29.98 in1015.2 mb 0.00 in0.0 mm 0.00 in0.0 mm 0.00 in0.0 mm
08:36 AM 77.4°F25.2°C 66.0°F18.9°C 68% 1.9 mph NNE3.1 kmh NNE 4.7 mph7.6 kmh 29.98 in1015.2 mb 0.00 in0.0 mm 0.00 in0.0 mm 0.00 in0.0 mm
08:37 AM 76.8°F24.9°C 65.9°F18.8°C 69% 2.2 mph NE3.5 kmh NE 4.7 mph7.6 kmh 29.98 in1015.2 mb 0.00 in0.0 mm 0.00 in0.0 mm 0.00 in0.0 mm
08:38 AM 76.8°F24.9°C 65.9°F18.8°C 69% 2.1 mph NE3.4 kmh NE 4.7 mph7.6 kmh 29.98 in1015.2 mb 0.00 in0.0 mm 0.00 in0.0 mm 0.00 in0.0 mm
08:39 AM 76.5°F24.7°C 65.5°F18.6°C 69% 2.3 mph NE3.7 kmh NE 4.7 mph7.6 kmh 29.98 in1015.2 mb 0.00 in0.0 mm 0.00 in0.0 mm 0.00 in0.0 mm
08:40 AM 76.5°F24.7°C 65.5°F18.6°C 69% 2.0 mph NE3.2 kmh NE 3.8 mph6.1 kmh 29.98 in1015.2 mb 0.00 in0.0 mm 0.00 in0.0 mm 0.00 in0.0 mm
08:41 AM 76.6°F24.8°C 66.1°F18.9°C 70% 1.9 mph NE3.1 kmh NE 3.8 mph6.1 kmh 29.98 in1015.2 mb 0.00 in0.0 mm 0.00 in0.0 mm 0.00 in0.0 mm
08:42 AM 77.2°F25.1°C 66.6°F19.2°C 70% 1.9 mph NE3.1 kmh NE 3.8 mph6.1 kmh 29.98 in1015.2 mb 0.00 in0.0 mm 0.00 in0.0 mm 0.00 in0.0 mm
08:43 AM 77.2°F25.1°C 66.6°F19.2°C 70% 2.0 mph NE3.2 kmh NE 3.8 mph6.1 kmh 29.98 in1015.2 mb 0.00 in0.0 mm 0.00 in0.0 mm 0.00 in0.0 mm
08:44 AM 77.4°F25.2°C 66.8°F19.3°C 70% 2.1 mph NE3.4 kmh NE 3.8 mph6.1 kmh 29.98 in1015.2 mb 0.00 in0.0 mm 0.00 in0.0 mm 0.00 in0.0 mm
08:45 AM 77.4°F25.2°C 66.8°F19.3°C 70% 2.1 mph NE3.4 kmh NE 3.8 mph6.1 kmh 29.98 in1015.2 mb 0.00 in0.0 mm 0.00 in0.0 mm 0.00 in0.0 mm
08:46 AM 77.2°F25.1°C 66.2°F19.0°C 69% 2.1 mph NE3.4 kmh NE 3.8 mph6.1 kmh 29.98 in1015.2 mb 0.00 in0.0 mm 0.00 in0.0 mm 0.00 in0.0 mm
08:47 AM 77.2°F25.1°C 66.2°F19.0°C 69% 2.1 mph NE3.4 kmh NE 3.8 mph6.1 kmh 29.98 in1015.2 mb 0.00 in0.0 mm 0.00 in0.0 mm 0.00 in0.0 mm
08:48 AM 77.2°F25.1°C 65.8°F18.8°C 68% 2.1 mph NNE3.4 kmh NNE 3.1 mph5.0 kmh 29.98 in1015.2 mb 0.00 in0.0 mm 0.00 in0.0 mm 0.00 in0.0 mm
08:49 AM 77.2°F25.1°C 65.8°F18.8°C 68% 1.9 mph NNE3.1 kmh NNE 2.9 mph4.7 kmh 29.98 in1015.2 mb 0.00 in0.0 mm 0.00 in0.0 mm 0.00 in0.0 mm
08:50 AM 77.2°F25.1°C 65.8°F18.8°C 68% 1.8 mph NE2.9 kmh NE 2.9 mph4.7 kmh 29.98 in1015.2 mb 0.00 in0.0 mm 0.00 in0.0 mm 0.00 in0.0 mm
08:51 AM 77.2°F25.1°C 65.8°F18.8°C 68% 2.1 mph NNE3.4 kmh NNE 4.3 mph6.9 kmh 29.98 in1015.2 mb 0.00 in0.0 mm 0.00 in0.0 mm 0.00 in0.0 mm
08:52 AM 77.2°F25.1°C 65.8°F18.8°C 68% 2.2 mph NNE3.5 kmh NNE 4.3 mph6.9 kmh 29.98 in1015.2 mb 0.00 in0.0 mm 0.00 in0.0 mm 0.00 in0.0 mm
08:53 AM 77.9°F25.5°C 66.1°F18.9°C 67% 2.2 mph N3.5 kmh N 4.3 mph6.9 kmh 29.98 in1015.2 mb 0.00 in0.0 mm 0.00 in0.0 mm 0.00 in0.0 mm
08:54 AM 77.9°F25.5°C 66.1°F18.9°C 67% 2.2 mph N3.5 kmh N 4.3 mph6.9 kmh 29.98 in1015.2 mb 0.00 in0.0 mm 0.00 in0.0 mm 0.00 in0.0 mm
08:55 AM 77.5°F25.3°C 65.7°F18.7°C 67% 2.3 mph NNE3.7 kmh NNE 4.3 mph6.9 kmh 29.98 in1015.2 mb 0.00 in0.0 mm 0.00 in0.0 mm 0.00 in0.0 mm
08:56 AM 77.5°F25.3°C 65.7°F18.7°C 67% 2.2 mph N3.5 kmh N 4.3 mph6.9 kmh 29.98 in1015.2 mb 0.00 in0.0 mm 0.00 in0.0 mm 0.00 in0.0 mm
08:57 AM 77.2°F25.1°C 65.8°F18.8°C 68% 2.1 mph N3.4 kmh N 4.3 mph6.9 kmh 29.98 in1015.2 mb 0.00 in0.0 mm 0.00 in0.0 mm 0.00 in0.0 mm
08:58 AM 77.0°F25.0°C 65.6°F18.7°C 68% 2.4 mph NNE3.9 kmh NNE 4.3 mph6.9 kmh 29.98 in1015.2 mb 0.00 in0.0 mm 0.00 in0.0 mm 0.00 in0.0 mm
08:59 AM 77.0°F25.0°C 65.6°F18.7°C 68% 2.3 mph NNE3.7 kmh NNE 4.3 mph6.9 kmh 29.98 in1015.2 mb 0.00 in0.0 mm 0.00 in0.0 mm 0.00 in0.0 mm
09:00 AM 77.4°F25.2°C 66.0°F18.9°C 68% 2.6 mph NNE4.2 kmh NNE 6.7 mph10.8 kmh 29.98 in1015.2 mb 0.00 in0.0 mm 0.00 in0.0 mm 0.00 in0.0 mm
09:01 AM 77.4°F25.2°C 66.0°F18.9°C 68% 2.5 mph NNE4.0 kmh NNE 6.7 mph10.8 kmh 29.98 in1015.2 mb 0.00 in0.0 mm 0.00 in0.0 mm 0.00 in0.0 mm
09:02 AM 77.9°F25.5°C 65.6°F18.7°C 66% 2.3 mph NNE3.7 kmh NNE 6.7 mph10.8 kmh 29.98 in1015.2 mb 0.00 in0.0 mm 0.00 in0.0 mm 0.00 in0.0 mm
09:03 AM 77.9°F25.5°C 65.6°F18.7°C 66% 2.2 mph NNE3.5 kmh NNE 6.7 mph10.8 kmh 29.98 in1015.2 mb 0.00 in0.0 mm 0.00 in0.0 mm 0.00 in0.0 mm
09:04 AM 78.6°F25.9°C 66.7°F19.3°C 67% 1.9 mph NNE3.1 kmh NNE 6.7 mph10.8 kmh 29.98 in1015.2 mb 0.00 in0.0 mm 0.00 in0.0 mm 0.00 in0.0 mm
09:05 AM 79.7°F26.5°C 66.9°F19.4°C 65% 2.0 mph NNE3.2 kmh NNE 6.7 mph10.8 kmh 29.98 in1015.2 mb 0.00 in0.0 mm 0.00 in0.0 mm 0.00 in0.0 mm
09:06 AM 79.7°F26.5°C 66.9°F19.4°C 65% 2.0 mph NNE3.2 kmh NNE 6.7 mph10.8 kmh 29.98 in1015.2 mb 0.00 in0.0 mm 0.00 in0.0 mm 0.00 in0.0 mm
09:07 AM 79.9°F26.6°C 67.1°F19.5°C 65% 1.8 mph NNE2.9 kmh NNE 6.7 mph10.8 kmh 29.98 in1015.2 mb 0.00 in0.0 mm 0.00 in0.0 mm 0.00 in0.0 mm
09:08 AM 79.9°F26.6°C 67.1°F19.5°C 65% 1.7 mph NNE2.7 kmh NNE 6.7 mph10.8 kmh 29.98 in1015.2 mb 0.00 in0.0 mm 0.00 in0.0 mm 0.00 in0.0 mm
09:09 AM 79.7°F26.5°C 65.1°F18.4°C 61% 1.7 mph NNE2.7 kmh NNE 6.7 mph10.8 kmh 29.98 in1015.2 mb 0.00 in0.0 mm 0.00 in0.0 mm 0.00 in0.0 mm
09:10 AM 79.7°F26.5°C 65.1°F18.4°C 61% 1.7 mph NNE2.7 kmh NNE 6.7 mph10.8 kmh 29.98 in1015.2 mb 0.00 in0.0 mm 0.00 in0.0 mm 0.00 in0.0 mm
09:11 AM 81.1°F27.3°C 65.9°F18.8°C 60% 1.3 mph N2.1 kmh N 4.7 mph7.6 kmh 29.98 in1015.2 mb 0.00 in0.0 mm 0.00 in0.0 mm 0.00 in0.0 mm
09:12 AM 82.2°F27.9°C 66.9°F19.4°C 60% 1.3 mph NNE2.1 kmh NNE 4.7 mph7.6 kmh 29.98 in1015.2 mb 0.00 in0.0 mm 0.00 in0.0 mm 0.00 in0.0 mm
09:13 AM 82.6°F28.1°C 67.3°F19.6°C 60% 1.5 mph NE2.4 kmh NE 4.7 mph7.6 kmh 29.98 in1015.2 mb 0.00 in0.0 mm 0.00 in0.0 mm 0.00 in0.0 mm
09:14 AM 82.6°F28.1°C 67.3°F19.6°C 60% 1.7 mph NE2.7 kmh NE 4.7 mph7.6 kmh 29.98 in1015.2 mb 0.00 in0.0 mm 0.00 in0.0 mm 0.00 in0.0 mm
09:15 AM 83.3°F28.5°C 68.0°F20.0°C 60% 1.6 mph NE2.6 kmh NE 4.7 mph7.6 kmh 29.98 in1015.2 mb 0.00 in0.0 mm 0.00 in0.0 mm 0.00 in0.0 mm
09:16 AM 83.3°F28.5°C 68.0°F20.0°C 60% 1.6 mph NE2.6 kmh NE 4.7 mph7.6 kmh 29.98 in1015.2 mb 0.00 in0.0 mm 0.00 in0.0 mm 0.00 in0.0 mm
09:17 AM 82.8°F28.2°C 65.5°F18.6°C 56% 1.9 mph NE3.1 kmh NE 4.7 mph7.6 kmh 29.98 in1015.2 mb 0.00 in0.0 mm 0.00 in0.0 mm 0.00 in0.0 mm
09:18 AM 82.8°F28.2°C 65.5°F18.6°C 56% 2.0 mph NE3.2 kmh NE 4.7 mph7.6 kmh 29.98 in1015.2 mb 0.00 in0.0 mm 0.00 in0.0 mm 0.00 in0.0 mm
09:19 AM 82.4°F28.0°C 65.6°F18.7°C 57% 2.2 mph NE3.5 kmh NE 4.7 mph7.6 kmh 29.98 in1015.2 mb 0.00 in0.0 mm 0.00 in0.0 mm 0.00 in0.0 mm
09:20 AM 82.8°F28.2°C 66.5°F19.2°C 58% 2.3 mph NNE3.7 kmh NNE 4.7 mph7.6 kmh 29.98 in1015.2 mb 0.00 in0.0 mm 0.00 in0.0 mm 0.00 in0.0 mm
09:21 AM 82.8°F28.2°C 66.5°F19.2°C 58% 2.6 mph NNE4.2 kmh NNE 4.7 mph7.6 kmh 29.98 in1015.2 mb 0.00 in0.0 mm 0.00 in0.0 mm 0.00 in0.0 mm
09:22 AM 81.1°F27.3°C 65.0°F18.3°C 58% 2.8 mph N4.5 kmh N 4.7 mph7.6 kmh 29.98 in1015.2 mb 0.00 in0.0 mm 0.00 in0.0 mm 0.00 in0.0 mm
09:23 AM 81.1°F27.3°C 65.0°F18.3°C 58% 3.1 mph N5.0 kmh N 7.2 mph11.6 kmh 29.98 in1015.2 mb 0.00 in0.0 mm 0.00 in0.0 mm 0.00 in0.0 mm
09:24 AM 79.5°F26.4°C 63.9°F17.7°C 59% 3.7 mph NNE6.0 kmh NNE 7.2 mph11.6 kmh 29.98 in1015.2 mb 0.00 in0.0 mm 0.00 in0.0 mm 0.00 in0.0 mm
09:25 AM 79.5°F26.4°C 63.9°F17.7°C 59% 3.8 mph N6.1 kmh N 7.2 mph11.6 kmh 29.98 in1015.2 mb 0.00 in0.0 mm 0.00 in0.0 mm 0.00 in0.0 mm
09:26 AM 78.4°F25.8°C 62.9°F17.2°C 59% 4.0 mph N6.4 kmh N 7.2 mph11.6 kmh 29.98 in1015.2 mb 0.00 in0.0 mm 0.00 in0.0 mm 0.00 in0.0 mm
09:27 AM 77.9°F25.5°C 63.8°F17.7°C 62% 4.4 mph N7.1 kmh N 7.2 mph11.6 kmh 29.98 in1015.2 mb 0.00 in0.0 mm 0.00 in0.0 mm 0.00 in0.0 mm
09:28 AM 77.9°F25.5°C 63.8°F17.7°C 62% 4.1 mph N6.6 kmh N 7.2 mph11.6 kmh 29.98 in1015.2 mb 0.00 in0.0 mm 0.00 in0.0 mm 0.00 in0.0 mm
09:29 AM 78.4°F25.8°C 64.3°F17.9°C 62% 4.0 mph NNE6.4 kmh NNE 7.2 mph11.6 kmh 29.98 in1015.2 mb 0.00 in0.0 mm 0.00 in0.0 mm 0.00 in0.0 mm
09:30 AM 78.4°F25.8°C 64.3°F17.9°C 62% 3.9 mph NNE6.3 kmh NNE 7.2 mph11.6 kmh 29.98 in1015.2 mb 0.00 in0.0 mm 0.00 in0.0 mm 0.00 in0.0 mm
09:31 AM 78.8°F26.0°C 64.7°F18.2°C 62% 3.7 mph NNE6.0 kmh NNE 7.2 mph11.6 kmh 29.98 in1015.2 mb 0.00 in0.0 mm 0.00 in0.0 mm 0.00 in0.0 mm
09:32 AM 78.8°F26.0°C 64.7°F18.2°C 62% 3.6 mph NE5.8 kmh NE 7.2 mph11.6 kmh 29.98 in1015.2 mb 0.00 in0.0 mm 0.00 in0.0 mm 0.00 in0.0 mm
09:33 AM 79.3°F26.3°C 65.6°F18.7°C 63% 3.4 mph NE5.5 kmh NE 7.2 mph11.6 kmh 29.98 in1015.2 mb 0.00 in0.0 mm 0.00 in0.0 mm 0.00 in0.0 mm
09:34 AM 78.1°F25.6°C 63.1°F17.3°C 60% 2.8 mph NNE4.5 kmh NNE 5.4 mph8.7 kmh 29.98 in1015.2 mb 0.00 in0.0 mm 0.00 in0.0 mm 0.00 in0.0 mm
09:35 AM 78.1°F25.6°C 63.1°F17.3°C 60% 2.6 mph NE4.2 kmh NE 5.4 mph8.7 kmh 29.98 in1015.2 mb 0.00 in0.0 mm 0.00 in0.0 mm 0.00 in0.0 mm
09:36 AM 78.4°F25.8°C 64.8°F18.2°C 63% 2.3 mph NE3.7 kmh NE 5.4 mph8.7 kmh 29.98 in1015.2 mb 0.00 in0.0 mm 0.00 in0.0 mm 0.00 in0.0 mm
09:37 AM 78.4°F25.8°C 64.8°F18.2°C 63% 2.1 mph NE3.4 kmh NE 5.4 mph8.7 kmh 29.98 in1015.2 mb 0.00 in0.0 mm 0.00 in0.0 mm 0.00 in0.0 mm
09:38 AM 78.3°F25.7°C 64.6°F18.1°C 63% 1.9 mph NE3.1 kmh NE 4.0 mph6.4 kmh 29.98 in1015.2 mb 0.00 in0.0 mm 0.00 in0.0 mm 0.00 in0.0 mm
09:39 AM 78.3°F25.7°C 64.6°F18.1°C 63% 1.8 mph NE2.9 kmh NE 4.0 mph6.4 kmh 29.98 in1015.2 mb 0.00 in0.0 mm 0.00 in0.0 mm 0.00 in0.0 mm
09:40 AM 77.9°F25.5°C 64.3°F17.9°C 63% 1.8 mph NE2.9 kmh NE 4.0 mph6.4 kmh 29.98 in1015.2 mb 0.00 in0.0 mm 0.00 in0.0 mm 0.00 in0.0 mm
09:41 AM 77.9°F25.5°C 64.3°F17.9°C 63% 2.0 mph NE3.2 kmh NE 4.0 mph6.4 kmh 29.98 in1015.2 mb 0.00 in0.0 mm 0.00 in0.0 mm 0.00 in0.0 mm
09:42 AM 78.1°F25.6°C 64.5°F18.1°C 63% 2.1 mph NE3.4 kmh NE 4.0 mph6.4 kmh 29.98 in1015.2 mb 0.00 in0.0 mm 0.00 in0.0 mm 0.00 in0.0 mm
09:43 AM 77.2°F25.1°C 63.2°F17.3°C 62% 2.2 mph NE3.5 kmh NE 4.0 mph6.4 kmh 29.98 in1015.2 mb 0.00 in0.0 mm 0.00 in0.0 mm 0.00 in0.0 mm
09:44 AM 77.2°F25.1°C 63.2°F17.3°C 62% 2.0 mph NE3.2 kmh NE 4.0 mph6.4 kmh 29.98 in1015.2 mb 0.00 in0.0 mm 0.00 in0.0 mm 0.00 in0.0 mm
09:45 AM 77.7°F25.4°C 64.6°F18.1°C 64% 2.0 mph NE3.2 kmh NE 4.0 mph6.4 kmh 29.98 in1015.2 mb 0.00 in0.0 mm 0.00 in0.0 mm 0.00 in0.0 mm
09:46 AM 77.7°F25.4°C 64.6°F18.1°C 64% 2.1 mph NE3.4 kmh NE 4.0 mph6.4 kmh 29.98 in1015.2 mb 0.00 in0.0 mm 0.00 in0.0 mm 0.00 in0.0 mm
09:47 AM 77.7°F25.4°C 64.6°F18.1°C 64% 2.1 mph NNE3.4 kmh NNE 4.0 mph6.4 kmh 29.98 in1015.2 mb 0.00 in0.0 mm 0.00 in0.0 mm 0.00 in0.0 mm
09:48 AM 77.9°F25.5°C 64.7°F18.2°C 64% 2.2 mph NE3.5 kmh NE 4.0 mph6.4 kmh 29.98 in1015.2 mb 0.00 in0.0 mm 0.00 in0.0 mm 0.00 in0.0 mm
09:49 AM 77.7°F25.4°C 64.6°F18.1°C 64% 2.4 mph NNE3.9 kmh NNE 4.0 mph6.4 kmh 29.98 in1015.2 mb 0.00 in0.0 mm 0.00 in0.0 mm 0.00 in0.0 mm
09:50 AM 77.7°F25.4°C 64.6°F18.1°C 64% 2.6 mph NNE4.2 kmh NNE 4.0 mph6.4 kmh 29.98 in1015.2 mb 0.00 in0.0 mm 0.00 in0.0 mm 0.00 in0.0 mm
09:51 AM 77.5°F25.3°C 64.8°F18.2°C 65% 2.5 mph N4.0 kmh N 4.0 mph6.4 kmh 30.01 in1016.3 mb 0.00 in0.0 mm 0.00 in0.0 mm 0.00 in0.0 mm
09:52 AM 77.5°F25.3°C 64.8°F18.2°C 65% 2.4 mph N3.9 kmh N 3.8 mph6.1 kmh 30.01 in1016.3 mb 0.00 in0.0 mm 0.00 in0.0 mm 0.00 in0.0 mm
09:53 AM 77.4°F25.2°C 64.7°F18.2°C 65% 2.5 mph N4.0 kmh N 3.8 mph6.1 kmh 30.01 in1016.3 mb 0.00 in0.0 mm 0.00 in0.0 mm 0.00 in0.0 mm
09:54 AM 77.4°F25.2°C 64.7°F18.2°C 65% 2.5 mph N4.0 kmh N 3.8 mph6.1 kmh 30.01 in1016.3 mb 0.00 in0.0 mm 0.00 in0.0 mm 0.00 in0.0 mm
09:55 AM 77.2°F25.1°C 64.5°F18.1°C 65% 2.4 mph N3.9 kmh N 3.8 mph6.1 kmh 30.01 in1016.3 mb 0.00 in0.0 mm 0.00 in0.0 mm 0.00 in0.0 mm
09:56 AM 77.2°F25.1°C 64.5°F18.1°C 65% 2.4 mph N3.9 kmh N 3.8 mph6.1 kmh 30.01 in1016.3 mb 0.00 in0.0 mm 0.00 in0.0 mm 0.00 in0.0 mm
09:57 AM 76.5°F24.7°C 64.3°F17.9°C 66% 2.5 mph NNE4.0 kmh NNE 3.8 mph6.1 kmh 30.01 in1016.3 mb 0.00 in0.0 mm 0.00 in0.0 mm 0.00 in0.0 mm
09:58 AM 76.6°F24.8°C 64.9°F18.3°C 67% 2.5 mph N4.0 kmh N 3.8 mph6.1 kmh 30.01 in1016.3 mb 0.00 in0.0 mm 0.00 in0.0 mm 0.00 in0.0 mm
09:59 AM 76.6°F24.8°C 64.9°F18.3°C 67% 2.4 mph NNE3.9 kmh NNE 3.8 mph6.1 kmh 30.01 in1016.3 mb 0.00 in0.0 mm 0.00 in0.0 mm 0.00 in0.0 mm
10:00 AM 77.7°F25.4°C 65.9°F18.8°C 67% 2.1 mph NNE3.4 kmh NNE 2.9 mph4.7 kmh 30.01 in1016.3 mb 0.00 in0.0 mm 0.00 in0.0 mm 0.00 in0.0 mm
10:01 AM 77.7°F25.4°C 65.9°F18.8°C 67% 2.0 mph NNE3.2 kmh NNE 2.9 mph4.7 kmh 30.01 in1016.3 mb 0.00 in0.0 mm 0.00 in0.0 mm 0.00 in0.0 mm
10:02 AM 78.3°F25.7°C 66.0°F18.9°C 66% 1.7 mph NNE2.7 kmh NNE 2.9 mph4.7 kmh 30.01 in1016.3 mb 0.00 in0.0 mm 0.00 in0.0 mm 0.00 in0.0 mm
10:03 AM 78.3°F25.7°C 66.0°F18.9°C 66% 1.9 mph NE3.1 kmh NE 5.6 mph9.0 kmh 30.01 in1016.3 mb 0.00 in0.0 mm 0.00 in0.0 mm 0.00 in0.0 mm
10:04 AM 77.2°F25.1°C 65.4°F18.6°C 67% 2.2 mph NE3.5 kmh NE 5.6 mph9.0 kmh 30.01 in1016.3 mb 0.00 in0.0 mm 0.00 in0.0 mm 0.00 in0.0 mm
10:05 AM 77.7°F25.4°C 66.3°F19.1°C 68% 2.1 mph NE3.4 kmh NE 5.6 mph9.0 kmh 30.01 in1016.3 mb 0.00 in0.0 mm 0.00 in0.0 mm 0.00 in0.0 mm
10:06 AM 77.7°F25.4°C 66.3°F19.1°C 68% 2.2 mph NE3.5 kmh NE 5.6 mph9.0 kmh 30.01 in1016.3 mb 0.00 in0.0 mm 0.00 in0.0 mm 0.00 in0.0 mm
10:07 AM 77.9°F25.5°C 66.5°F19.2°C 68% 2.3 mph NE3.7 kmh NE 5.6 mph9.0 kmh 30.01 in1016.3 mb 0.00 in0.0 mm 0.00 in0.0 mm 0.00 in0.0 mm
10:08 AM 77.9°F25.5°C 66.5°F19.2°C 68% 2.3 mph NE3.7 kmh NE 5.6 mph9.0 kmh 30.01 in1016.3 mb 0.00 in0.0 mm 0.00 in0.0 mm 0.00 in0.0 mm
10:09 AM 78.1°F25.6°C 66.7°F19.3°C 68% 2.2 mph NE3.5 kmh NE 5.6 mph9.0 kmh 30.01 in1016.3 mb 0.00 in0.0 mm 0.00 in0.0 mm 0.00 in0.0 mm
10:10 AM 78.1°F25.6°C 66.7°F19.3°C 68% 2.2 mph NE3.5 kmh NE 5.6 mph9.0 kmh 30.01 in1016.3 mb 0.00 in0.0 mm 0.00 in0.0 mm 0.00 in0.0 mm
10:11 AM 78.8°F26.0°C 67.3°F19.6°C 68% 2.1 mph NE3.4 kmh NE 5.6 mph9.0 kmh 30.01 in1016.3 mb 0.00 in0.0 mm 0.00 in0.0 mm 0.00 in0.0 mm
10:12 AM 78.1°F25.6°C 66.7°F19.3°C 68% 2.5 mph NE4.0 kmh NE 5.6 mph9.0 kmh 30.01 in1016.3 mb 0.00 in0.0 mm 0.00 in0.0 mm 0.00 in0.0 mm
10:13 AM 78.1°F25.6°C 66.7°F19.3°C 68% 2.4 mph NE3.9 kmh NE 4.3 mph6.9 kmh 30.01 in1016.3 mb 0.00 in0.0 mm 0.00 in0.0 mm 0.00 in0.0 mm
10:14 AM 78.3°F25.7°C 66.4°F19.1°C 67% 2.1 mph NE3.4 kmh NE 4.3 mph6.9 kmh 30.01 in1016.3 mb 0.00 in0.0 mm 0.00 in0.0 mm 0.00 in0.0 mm
10:15 AM 78.3°F25.7°C 66.4°F19.1°C 67% 2.0 mph NE3.2 kmh NE 3.8 mph6.1 kmh 30.01 in1016.3 mb 0.00 in0.0 mm 0.00 in0.0 mm 0.00 in0.0 mm
10:16 AM 77.7°F25.4°C 66.3°F19.1°C 68% 2.2 mph NE3.5 kmh NE 3.8 mph6.1 kmh 30.01 in1016.3 mb 0.00 in0.0 mm 0.00 in0.0 mm 0.00 in0.0 mm
10:17 AM 77.7°F25.4°C 66.3°F19.1°C 68% 2.2 mph NE3.5 kmh NE 4.0 mph6.4 kmh 30.01 in1016.3 mb 0.00 in0.0 mm 0.00 in0.0 mm 0.00 in0.0 mm
10:18 AM 77.9°F25.5°C 66.9°F19.4°C 69% 2.3 mph NE3.7 kmh NE 4.3 mph6.9 kmh 30.01 in1016.3 mb 0.00 in0.0 mm 0.00 in0.0 mm 0.00 in0.0 mm
10:19 AM 77.9°F25.5°C 66.9°F19.4°C 69% 2.4 mph NE3.9 kmh NE 4.5 mph7.2 kmh 30.01 in1016.3 mb 0.00 in0.0 mm 0.00 in0.0 mm 0.00 in0.0 mm
10:20 AM 77.7°F25.4°C 66.7°F19.3°C 69% 2.5 mph NE4.0 kmh NE 4.5 mph7.2 kmh 30.01 in1016.3 mb 0.00 in0.0 mm 0.00 in0.0 mm 0.00 in0.0 mm
10:21 AM 79.0°F26.1°C 67.5°F19.7°C 68% 2.6 mph NE4.2 kmh NE 4.5 mph7.2 kmh 30.01 in1016.3 mb 0.00 in0.0 mm 0.00 in0.0 mm 0.00 in0.0 mm
10:22 AM 79.5°F26.4°C 68.0°F20.0°C 68% 2.4 mph NE3.9 kmh NE 4.5 mph7.2 kmh 30.01 in1016.3 mb 0.00 in0.0 mm 0.00 in0.0 mm 0.00 in0.0 mm
10:23 AM 79.5°F26.4°C 68.0°F20.0°C 68% 2.3 mph NE3.7 kmh NE 4.5 mph7.2 kmh 30.01 in1016.3 mb 0.00 in0.0 mm 0.00 in0.0 mm 0.00 in0.0 mm
10:24 AM 79.9°F26.6°C 67.9°F19.9°C 67% 2.4 mph NE3.9 kmh NE 4.5 mph7.2 kmh 30.01 in1016.3 mb 0.00 in0.0 mm 0.00 in0.0 mm 0.00 in0.0 mm
10:25 AM 79.9°F26.6°C 67.9°F19.9°C 67% 2.3 mph NE3.7 kmh NE 4.5 mph7.2 kmh 30.01 in1016.3 mb 0.00 in0.0 mm 0.00 in0.0 mm 0.00 in0.0 mm
10:26 AM 80.4°F26.9°C 68.5°F20.3°C 67% 2.5 mph ENE4.0 kmh ENE 7.6 mph12.2 kmh 30.01 in1016.3 mb 0.00 in0.0 mm 0.00 in0.0 mm 0.00 in0.0 mm
10:27 AM 79.5°F26.4°C 67.2°F19.6°C 66% 2.3 mph ENE3.7 kmh ENE 7.6 mph12.2 kmh 30.01 in1016.3 mb 0.00 in0.0 mm 0.00 in0.0 mm 0.00 in0.0 mm
10:28 AM 79.5°F26.4°C 67.2°F19.6°C 66% 2.4 mph ENE3.9 kmh ENE 7.6 mph12.2 kmh 30.01 in1016.3 mb 0.00 in0.0 mm 0.00 in0.0 mm 0.00 in0.0 mm
10:29 AM 78.8°F26.0°C 67.3°F19.6°C 68% 2.4 mph ENE3.9 kmh ENE 7.6 mph12.2 kmh 30.01 in1016.3 mb 0.00 in0.0 mm 0.00 in0.0 mm 0.00 in0.0 mm
10:30 AM 78.8°F26.0°C 67.3°F19.6°C 68% 2.4 mph ENE3.9 kmh ENE 7.6 mph12.2 kmh 30.01 in1016.3 mb 0.00 in0.0 mm 0.00 in0.0 mm 0.00 in0.0 mm
10:31 AM 78.6°F25.9°C 67.2°F19.6°C 68% 2.7 mph ENE4.3 kmh ENE 7.6 mph12.2 kmh 30.01 in1016.3 mb 0.00 in0.0 mm 0.00 in0.0 mm 0.00 in0.0 mm
10:32 AM 78.6°F25.9°C 67.2°F19.6°C 68% 3.2 mph ENE5.1 kmh ENE 7.6 mph12.2 kmh 30.01 in1016.3 mb 0.00 in0.0 mm 0.00 in0.0 mm 0.00 in0.0 mm
10:33 AM 78.3°F25.7°C 66.4°F19.1°C 67% 3.3 mph ENE5.3 kmh ENE 7.6 mph12.2 kmh 30.01 in1016.3 mb 0.00 in0.0 mm 0.00 in0.0 mm 0.00 in0.0 mm
10:34 AM 78.3°F25.7°C 66.4°F19.1°C 67% 3.2 mph NE5.1 kmh NE 7.6 mph12.2 kmh 30.01 in1016.3 mb 0.00 in0.0 mm 0.00 in0.0 mm 0.00 in0.0 mm
10:35 AM 78.4°F25.8°C 66.6°F19.2°C 67% 3.2 mph NE5.1 kmh NE 7.6 mph12.2 kmh 30.01 in1016.3 mb 0.00 in0.0 mm 0.00 in0.0 mm 0.00 in0.0 mm
10:36 AM 79.2°F26.2°C 66.4°F19.1°C 65% 3.5 mph NE5.6 kmh NE 7.6 mph12.2 kmh 30.01 in1016.3 mb 0.00 in0.0 mm 0.00 in0.0 mm 0.00 in0.0 mm
10:37 AM 79.2°F26.2°C 66.4°F19.1°C 65% 3.3 mph NE5.3 kmh NE 6.5 mph10.5 kmh 30.01 in1016.3 mb 0.00 in0.0 mm 0.00 in0.0 mm 0.00 in0.0 mm
10:38 AM 80.1°F26.7°C 66.8°F19.3°C 64% 3.3 mph NE5.3 kmh NE 6.5 mph10.5 kmh 30.01 in1016.3 mb 0.00 in0.0 mm 0.00 in0.0 mm 0.00 in0.0 mm
10:39 AM 80.1°F26.7°C 66.8°F19.3°C 64% 3.3 mph NE5.3 kmh NE 7.6 mph12.2 kmh 30.01 in1016.3 mb 0.00 in0.0 mm 0.00 in0.0 mm 0.00 in0.0 mm
10:40 AM 80.2°F26.8°C 66.5°F19.2°C 63% 3.6 mph NE5.8 kmh NE 7.6 mph12.2 kmh 30.01 in1016.3 mb 0.00 in0.0 mm 0.00 in0.0 mm 0.00 in0.0 mm
10:41 AM 80.2°F26.8°C 66.5°F19.2°C 63% 3.6 mph NE5.8 kmh NE 7.6 mph12.2 kmh 30.01 in1016.3 mb 0.00 in0.0 mm 0.00 in0.0 mm 0.00 in0.0 mm
10:42 AM 80.4°F26.9°C 67.1°F19.5°C 64% 3.4 mph NE5.5 kmh NE 7.6 mph12.2 kmh 30.01 in1016.3 mb 0.00 in0.0 mm 0.00 in0.0 mm 0.00 in0.0 mm
10:43 AM 81.7°F27.6°C 67.9°F19.9°C 63% 3.1 mph NE5.0 kmh NE 7.6 mph12.2 kmh 30.01 in1016.3 mb 0.00 in0.0 mm 0.00 in0.0 mm 0.00 in0.0 mm
10:44 AM 81.7°F27.6°C 67.9°F19.9°C 63% 3.0 mph NE4.8 kmh NE 7.6 mph12.2 kmh 30.01 in1016.3 mb 0.00 in0.0 mm 0.00 in0.0 mm 0.00 in0.0 mm
10:45 AM 81.5°F27.5°C 66.3°F19.1°C 60% 3.1 mph NE5.0 kmh NE 7.6 mph12.2 kmh 30.01 in1016.3 mb 0.00 in0.0 mm 0.00 in0.0 mm 0.00 in0.0 mm
10:46 AM 81.5°F27.5°C 66.3°F19.1°C 60% 3.1 mph NE5.0 kmh NE 7.6 mph12.2 kmh 30.01 in1016.3 mb 0.00 in0.0 mm 0.00 in0.0 mm 0.00 in0.0 mm
10:47 AM 81.1°F27.3°C 65.5°F18.6°C 59% 3.1 mph NE5.0 kmh NE 7.6 mph12.2 kmh 30.01 in1016.3 mb 0.00 in0.0 mm 0.00 in0.0 mm 0.00 in0.0 mm
10:48 AM 81.1°F27.3°C 65.5°F18.6°C 59% 3.2 mph NE5.1 kmh NE 7.6 mph12.2 kmh 30.01 in1016.3 mb 0.00 in0.0 mm 0.00 in0.0 mm 0.00 in0.0 mm
10:49 AM 80.8°F27.1°C 64.6°F18.1°C 58% 3.4 mph NE5.5 kmh NE 7.6 mph12.2 kmh 30.01 in1016.3 mb 0.00 in0.0 mm 0.00 in0.0 mm 0.00 in0.0 mm
10:50 AM 80.8°F27.1°C 64.6°F18.1°C 58% 2.9 mph NE4.7 kmh NE 5.8 mph9.3 kmh 30.01 in1016.3 mb 0.00 in0.0 mm 0.00 in0.0 mm 0.00 in0.0 mm
10:51 AM 80.8°F27.1°C 64.6°F18.1°C 58% 3.0 mph NE4.8 kmh NE 5.8 mph9.3 kmh 30.01 in1016.3 mb 0.00 in0.0 mm 0.00 in0.0 mm 0.00 in0.0 mm
10:52 AM 81.3°F27.4°C 65.1°F18.4°C 58% 3.1 mph NE5.0 kmh NE 5.8 mph9.3 kmh 30.01 in1016.3 mb 0.00 in0.0 mm 0.00 in0.0 mm 0.00 in0.0 mm
10:53 AM 81.3°F27.4°C 65.1°F18.4°C 58% 3.2 mph NE5.1 kmh NE 5.8 mph9.3 kmh 30.01 in1016.3 mb 0.00 in0.0 mm 0.00 in0.0 mm 0.00 in0.0 mm
10:54 AM 83.1°F28.4°C 66.8°F19.3°C 58% 3.4 mph NE5.5 kmh NE 5.8 mph9.3 kmh 30.01 in1016.3 mb 0.00 in0.0 mm 0.00 in0.0 mm 0.00 in0.0 mm
10:55 AM 83.1°F28.4°C 66.8°F19.3°C 58% 3.3 mph NE5.3 kmh NE 5.8 mph9.3 kmh 30.01 in1016.3 mb 0.00 in0.0 mm 0.00 in0.0 mm 0.00 in0.0 mm
10:56 AM 82.9°F28.3°C 64.0°F17.8°C 53% 3.3 mph NE5.3 kmh NE 5.8 mph9.3 kmh 30.01 in1016.3 mb 0.00 in0.0 mm 0.00 in0.0 mm 0.00 in0.0 mm
10:57 AM 83.3°F28.5°C 66.5°F19.2°C 57% 3.3 mph NE5.3 kmh NE 5.8 mph9.3 kmh 30.01 in1016.3 mb 0.00 in0.0 mm 0.00 in0.0 mm 0.00 in0.0 mm
10:58 AM 82.8°F28.2°C 64.9°F18.3°C 55% 3.2 mph NE5.1 kmh NE 5.8 mph9.3 kmh 30.01 in1016.3 mb 0.00 in0.0 mm 0.00 in0.0 mm 0.00 in0.0 mm
10:59 AM 82.8°F28.2°C 64.9°F18.3°C 55% 3.0 mph NE4.8 kmh NE 4.9 mph7.9 kmh 30.01 in1016.3 mb 0.00 in0.0 mm 0.00 in0.0 mm 0.00 in0.0 mm
11:00 AM 82.8°F28.2°C 65.5°F18.6°C 56% 3.0 mph NE4.8 kmh NE 5.8 mph9.3 kmh 30.01 in1016.3 mb 0.00 in0.0 mm 0.00 in0.0 mm 0.00 in0.0 mm
11:01 AM 82.8°F28.2°C 65.5°F18.6°C 56% 3.2 mph NE5.1 kmh NE 7.6 mph12.2 kmh 30.01 in1016.3 mb 0.00 in0.0 mm 0.00 in0.0 mm 0.00 in0.0 mm
11:02 AM 80.6°F27.0°C 63.5°F17.5°C 56% 3.4 mph NE5.5 kmh NE 7.6 mph12.2 kmh 30.01 in1016.3 mb 0.00 in0.0 mm 0.00 in0.0 mm 0.00 in0.0 mm
11:03 AM 80.6°F27.0°C 63.5°F17.5°C 56% 3.4 mph NNE5.5 kmh NNE 7.6 mph12.2 kmh 30.01 in1016.3 mb 0.00 in0.0 mm 0.00 in0.0 mm 0.00 in0.0 mm
11:04 AM 81.0°F27.2°C 63.8°F17.7°C 56% 3.5 mph NNE5.6 kmh NNE 7.6 mph12.2 kmh 30.01 in1016.3 mb 0.00 in0.0 mm 0.00 in0.0 mm 0.00 in0.0 mm
11:05 AM 81.1°F27.3°C 64.0°F17.8°C 56% 3.7 mph NNE6.0 kmh NNE 7.6 mph12.2 kmh 30.01 in1016.3 mb 0.00 in0.0 mm 0.00 in0.0 mm 0.00 in0.0 mm
11:06 AM 81.1°F27.3°C 64.0°F17.8°C 56% 3.7 mph NNE6.0 kmh NNE 7.6 mph12.2 kmh 30.01 in1016.3 mb 0.00 in0.0 mm 0.00 in0.0 mm 0.00 in0.0 mm
11:07 AM 81.5°F27.5°C 64.3°F17.9°C 56% 3.6 mph NNE5.8 kmh NNE 7.6 mph12.2 kmh 30.01 in1016.3 mb 0.00 in0.0 mm 0.00 in0.0 mm 0.00 in0.0 mm
11:08 AM 81.5°F27.5°C 64.3°F17.9°C 56% 3.6 mph NNE5.8 kmh NNE 7.6 mph12.2 kmh 30.01 in1016.3 mb 0.00 in0.0 mm 0.00 in0.0 mm 0.00 in0.0 mm
11:09 AM 80.1°F26.7°C 63.5°F17.5°C 57% 3.6 mph NNE5.8 kmh NNE 7.6 mph12.2 kmh 30.01 in1016.3 mb 0.00 in0.0 mm 0.00 in0.0 mm 0.00 in0.0 mm
11:10 AM 80.1°F26.7°C 63.5°F17.5°C 57% 3.5 mph NNE5.6 kmh NNE 7.6 mph12.2 kmh 30.01 in1016.3 mb 0.00 in0.0 mm 0.00 in0.0 mm 0.00 in0.0 mm
11:11 AM 81.5°F27.5°C 64.8°F18.2°C 57% 3.3 mph NNE5.3 kmh NNE 7.6 mph12.2 kmh 30.01 in1016.3 mb 0.00 in0.0 mm 0.00 in0.0 mm 0.00 in0.0 mm
11:12 AM 81.5°F27.5°C 64.8°F18.2°C 57% 2.7 mph NE4.3 kmh NE 4.3 mph6.9 kmh 30.01 in1016.3 mb 0.00 in0.0 mm 0.00 in0.0 mm 0.00 in0.0 mm
11:13 AM 82.6°F28.1°C 64.8°F18.2°C 55% 2.7 mph NE4.3 kmh NE 4.3 mph6.9 kmh 30.01 in1016.3 mb 0.00 in0.0 mm 0.00 in0.0 mm 0.00 in0.0 mm
11:14 AM 82.6°F28.1°C 64.3°F17.9°C 54% 3.0 mph NNE4.8 kmh NNE 5.8 mph9.3 kmh 30.01 in1016.3 mb 0.00 in0.0 mm 0.00 in0.0 mm 0.00 in0.0 mm
11:15 AM 82.6°F28.1°C 64.3°F17.9°C 54% 2.9 mph NNE4.7 kmh NNE 5.8 mph9.3 kmh 30.01 in1016.3 mb 0.00 in0.0 mm 0.00 in0.0 mm 0.00 in0.0 mm
11:16 AM 82.9°F28.3°C 64.6°F18.1°C 54% 2.7 mph N4.3 kmh N 5.8 mph9.3 kmh 30.01 in1016.3 mb 0.00 in0.0 mm 0.00 in0.0 mm 0.00 in0.0 mm
11:17 AM 82.9°F28.3°C 64.6°F18.1°C 54% 2.7 mph N4.3 kmh N 5.8 mph9.3 kmh 30.01 in1016.3 mb 0.00 in0.0 mm 0.00 in0.0 mm 0.00 in0.0 mm
11:18 AM 83.1°F28.4°C 64.2°F17.9°C 53% 2.6 mph NNW4.2 kmh NNW 5.8 mph9.3 kmh 30.01 in1016.3 mb 0.00 in0.0 mm 0.00 in0.0 mm 0.00 in0.0 mm
11:19 AM 83.1°F28.4°C 64.2°F17.9°C 53% 2.7 mph NNW4.3 kmh NNW 5.8 mph9.3 kmh 30.01 in1016.3 mb 0.00 in0.0 mm 0.00 in0.0 mm 0.00 in0.0 mm
11:20 AM 83.8°F28.8°C 64.3°F17.9°C 52% 2.7 mph NNW4.3 kmh NNW 5.8 mph9.3 kmh 30.01 in1016.3 mb 0.00 in0.0 mm 0.00 in0.0 mm 0.00 in0.0 mm
11:21 AM 84.4°F29.1°C 64.8°F18.2°C 52% 2.5 mph NNW4.0 kmh NNW 5.8 mph9.3 kmh 30.04 in1017.3 mb 0.00 in0.0 mm 0.00 in0.0 mm 0.00 in0.0 mm
11:22 AM 84.4°F29.1°C 64.8°F18.2°C 52% 2.5 mph N4.0 kmh N 5.8 mph9.3 kmh 30.04 in1017.3 mb 0.00 in0.0 mm 0.00 in0.0 mm 0.00 in0.0 mm
11:23 AM 83.1°F28.4°C 63.1°F17.3°C 51% 3.0 mph NNE4.8 kmh NNE 6.3 mph10.1 kmh 30.04 in1017.3 mb 0.00 in0.0 mm 0.00 in0.0 mm 0.00 in0.0 mm
11:24 AM 83.1°F28.4°C 63.1°F17.3°C 51% 2.8 mph NE4.5 kmh NE 6.3 mph10.1 kmh 30.04 in1017.3 mb 0.00 in0.0 mm 0.00 in0.0 mm 0.00 in0.0 mm
11:25 AM 83.1°F28.4°C 62.0°F16.7°C 49% 2.6 mph NE4.2 kmh NE 6.3 mph10.1 kmh 30.04 in1017.3 mb 0.00 in0.0 mm 0.00 in0.0 mm 0.00 in0.0 mm
11:26 AM 83.1°F28.4°C 62.0°F16.7°C 49% 2.7 mph NE4.3 kmh NE 6.3 mph10.1 kmh 30.04 in1017.3 mb 0.00 in0.0 mm 0.00 in0.0 mm 0.00 in0.0 mm
11:27 AM 82.0°F27.8°C 57.3°F14.1°C 43% 3.1 mph NE5.0 kmh NE 6.5 mph10.5 kmh 30.04 in1017.3 mb 0.00 in0.0 mm 0.00 in0.0 mm 0.00 in0.0 mm
11:28 AM 81.1°F27.3°C 58.4°F14.7°C 46% 3.4 mph NE5.5 kmh NE 6.5 mph10.5 kmh 30.04 in1017.3 mb 0.00 in0.0 mm 0.00 in0.0 mm 0.00 in0.0 mm
11:29 AM 81.1°F27.3°C 58.4°F14.7°C 46% 3.3 mph NE5.3 kmh NE 6.5 mph10.5 kmh 30.04 in1017.3 mb 0.00 in0.0 mm 0.00 in0.0 mm 0.00 in0.0 mm
11:30 AM 81.0°F27.2°C 57.6°F14.2°C 45% 3.6 mph NE5.8 kmh NE 6.5 mph10.5 kmh 30.04 in1017.3 mb 0.00 in0.0 mm 0.00 in0.0 mm 0.00 in0.0 mm
11:31 AM 80.8°F27.1°C 58.7°F14.8°C 47% 3.8 mph NE6.1 kmh NE 6.5 mph10.5 kmh 30.04 in1017.3 mb 0.00 in0.0 mm 0.00 in0.0 mm 0.00 in0.0 mm
11:32 AM 80.8°F27.1°C 58.7°F14.8°C 47% 4.1 mph NE6.6 kmh NE 6.5 mph10.5 kmh 30.04 in1017.3 mb 0.00 in0.0 mm 0.00 in0.0 mm 0.00 in0.0 mm
11:33 AM 80.1°F26.7°C 57.4°F14.1°C 46% 4.5 mph NE7.2 kmh NE 8.1 mph13.0 kmh 30.04 in1017.3 mb 0.00 in0.0 mm 0.00 in0.0 mm 0.00 in0.0 mm
11:34 AM 80.1°F26.7°C 57.4°F14.1°C 46% 4.7 mph NE7.6 kmh NE 8.1 mph13.0 kmh 30.04 in1017.3 mb 0.00 in0.0 mm 0.00 in0.0 mm 0.00 in0.0 mm
11:35 AM 79.7°F26.5°C 57.1°F13.9°C 46% 5.1 mph NE8.2 kmh NE 8.1 mph13.0 kmh 30.04 in1017.3 mb 0.00 in0.0 mm 0.00 in0.0 mm 0.00 in0.0 mm
11:36 AM 80.4°F26.9°C 58.9°F14.9°C 48% 4.9 mph NE7.9 kmh NE 8.1 mph13.0 kmh 30.04 in1017.3 mb 0.00 in0.0 mm 0.00 in0.0 mm 0.00 in0.0 mm
11:37 AM 80.4°F26.9°C 58.9°F14.9°C 48% 4.6 mph NE7.4 kmh NE 8.1 mph13.0 kmh 30.04 in1017.3 mb 0.00 in0.0 mm 0.00 in0.0 mm 0.00 in0.0 mm
11:38 AM 82.4°F28.0°C 60.7°F15.9°C 48% 4.4 mph NE7.1 kmh NE 8.1 mph13.0 kmh 30.04 in1017.3 mb 0.00 in0.0 mm 0.00 in0.0 mm 0.00 in0.0 mm
11:39 AM 82.4°F28.0°C 60.7°F15.9°C 48% 4.4 mph NE7.1 kmh NE 8.1 mph13.0 kmh 30.04 in1017.3 mb 0.00 in0.0 mm 0.00 in0.0 mm 0.00 in0.0 mm
11:40 AM 81.7°F27.6°C 58.3°F14.6°C 45% 4.3 mph NE6.9 kmh NE 8.1 mph13.0 kmh 30.04 in1017.3 mb 0.00 in0.0 mm 0.00 in0.0 mm 0.00 in0.0 mm
11:41 AM 81.7°F27.6°C 58.3°F14.6°C 45% 4.3 mph NE6.9 kmh NE 8.1 mph13.0 kmh 30.04 in1017.3 mb 0.00 in0.0 mm 0.00 in0.0 mm 0.00 in0.0 mm
11:42 AM 81.1°F27.3°C 59.0°F15.0°C 47% 4.5 mph NE7.2 kmh NE 8.1 mph13.0 kmh 30.04 in1017.3 mb 0.00 in0.0 mm 0.00 in0.0 mm 0.00 in0.0 mm
11:43 AM 81.7°F27.6°C 60.7°F15.9°C 49% 4.3 mph NE6.9 kmh NE 6.7 mph10.8 kmh 30.04 in1017.3 mb 0.00 in0.0 mm 0.00 in0.0 mm 0.00 in0.0 mm
11:44 AM 81.7°F27.6°C 60.7°F15.9°C 49% 4.0 mph NE6.4 kmh NE 6.7 mph10.8 kmh 30.04 in1017.3 mb 0.00 in0.0 mm 0.00 in0.0 mm 0.00 in0.0 mm
11:45 AM 81.1°F27.3°C 60.2°F15.7°C 49% 3.4 mph NE5.5 kmh NE 5.8 mph9.3 kmh 30.04 in1017.3 mb 0.00 in0.0 mm 0.00 in0.0 mm 0.00 in0.0 mm
11:46 AM 81.1°F27.3°C 60.2°F15.7°C 49% 3.3 mph NE5.3 kmh NE 5.8 mph9.3 kmh 30.04 in1017.3 mb 0.00 in0.0 mm 0.00 in0.0 mm 0.00 in0.0 mm
11:47 AM 82.4°F28.0°C 61.3°F16.3°C 49% 3.5 mph ENE5.6 kmh ENE 5.8 mph9.3 kmh 30.04 in1017.3 mb 0.00 in0.0 mm 0.00 in0.0 mm 0.00 in0.0 mm
11:48 AM 82.4°F28.0°C 61.3°F16.3°C 49% 3.3 mph NE5.3 kmh NE 5.8 mph9.3 kmh 30.04 in1017.3 mb 0.00 in0.0 mm 0.00 in0.0 mm 0.00 in0.0 mm
11:49 AM 82.0°F27.8°C 60.4°F15.8°C 48% 3.3 mph NE5.3 kmh NE 5.8 mph9.3 kmh 30.04 in1017.3 mb 0.00 in0.0 mm 0.00 in0.0 mm 0.00 in0.0 mm
11:50 AM 82.0°F27.8°C 60.4°F15.8°C 48% 3.3 mph NE5.3 kmh NE 5.8 mph9.3 kmh 30.04 in1017.3 mb 0.00 in0.0 mm 0.00 in0.0 mm 0.00 in0.0 mm
11:51 AM 82.8°F28.2°C 61.6°F16.4°C 49% 3.1 mph NE5.0 kmh NE 5.8 mph9.3 kmh 30.04 in1017.3 mb 0.00 in0.0 mm 0.00 in0.0 mm 0.00 in0.0 mm
11:52 AM 82.8°F28.2°C 60.5°F15.8°C 47% 2.7 mph NE4.3 kmh NE 5.8 mph9.3 kmh 30.04 in1017.3 mb 0.00 in0.0 mm 0.00 in0.0 mm 0.00 in0.0 mm
11:53 AM 82.8°F28.2°C 60.5°F15.8°C 47% 2.4 mph ENE3.9 kmh ENE 5.8 mph9.3 kmh 30.04 in1017.3 mb 0.00 in0.0 mm 0.00 in0.0 mm 0.00 in0.0 mm
11:54 AM 83.3°F28.5°C 60.4°F15.8°C 46% 2.4 mph NE3.9 kmh NE 4.3 mph6.9 kmh 30.04 in1017.3 mb 0.00 in0.0 mm 0.00 in0.0 mm 0.00 in0.0 mm
11:55 AM 83.3°F28.5°C 60.4°F15.8°C 46% 2.5 mph NE4.0 kmh NE 4.3 mph6.9 kmh 30.04 in1017.3 mb 0.00 in0.0 mm 0.00 in0.0 mm 0.00 in0.0 mm
11:56 AM 82.8°F28.2°C 61.6°F16.4°C 49% 2.6 mph NE4.2 kmh NE 4.3 mph6.9 kmh 30.04 in1017.3 mb 0.00 in0.0 mm 0.00 in0.0 mm 0.00 in0.0 mm
11:57 AM 82.8°F28.2°C 61.6°F16.4°C 49% 2.7 mph N4.3 kmh N 4.0 mph6.4 kmh 30.04 in1017.3 mb 0.00 in0.0 mm 0.00 in0.0 mm 0.00 in0.0 mm
11:58 AM 84.0°F28.9°C 62.8°F17.1°C 49% 2.8 mph N4.5 kmh N 4.0 mph6.4 kmh 30.04 in1017.3 mb 0.00 in0.0 mm 0.00 in0.0 mm 0.00 in0.0 mm
11:59 AM 84.2°F29.0°C 63.0°F17.2°C 49% 2.8 mph N4.5 kmh N 4.0 mph6.4 kmh 30.04 in1017.3 mb 0.00 in0.0 mm 0.00 in0.0 mm 0.00 in0.0 mm
12:00 PM 84.2°F29.0°C 63.0°F17.2°C 49% 2.5 mph N4.0 kmh N 4.0 mph6.4 kmh 30.04 in1017.3 mb 0.00 in0.0 mm 0.00 in0.0 mm 0.00 in0.0 mm
12:01 PM 84.4°F29.1°C 63.1°F17.3°C 49% 2.4 mph N3.9 kmh N 4.0 mph6.4 kmh 30.04 in1017.3 mb 0.00 in0.0 mm 0.00 in0.0 mm 0.00 in0.0 mm
12:02 PM 84.4°F29.1°C 63.1°F17.3°C 49% 2.5 mph NNE4.0 kmh NNE 4.0 mph6.4 kmh 30.04 in1017.3 mb 0.00 in0.0 mm 0.00 in0.0 mm 0.00 in0.0 mm
12:03 PM 83.7°F28.7°C 63.0°F17.2°C 50% 2.6 mph NNE4.2 kmh NNE 4.0 mph6.4 kmh 30.04 in1017.3 mb 0.00 in0.0 mm 0.00 in0.0 mm 0.00 in0.0 mm
12:04 PM 83.7°F28.7°C 63.0°F17.2°C 50% 2.4 mph NNE3.9 kmh NNE 4.0 mph6.4 kmh 30.04 in1017.3 mb 0.00 in0.0 mm 0.00 in0.0 mm 0.00 in0.0 mm
12:05 PM 84.6°F29.2°C 63.9°F17.7°C 50% 2.4 mph NNE3.9 kmh NNE 6.5 mph10.5 kmh 30.04 in1017.3 mb 0.00 in0.0 mm 0.00 in0.0 mm 0.00 in0.0 mm
12:06 PM 84.6°F29.2°C 63.9°F17.7°C 50% 2.8 mph N4.5 kmh N 6.5 mph10.5 kmh 30.04 in1017.3 mb 0.00 in0.0 mm 0.00 in0.0 mm 0.00 in0.0 mm
12:07 PM 83.7°F28.7°C 63.0°F17.2°C 50% 2.8 mph N4.5 kmh N 6.5 mph10.5 kmh 30.04 in1017.3 mb 0.00 in0.0 mm 0.00 in0.0 mm 0.00 in0.0 mm
12:08 PM 83.7°F28.7°C 62.5°F16.9°C 49% 2.6 mph NNE4.2 kmh NNE 6.5 mph10.5 kmh 30.04 in1017.3 mb 0.00 in0.0 mm 0.00 in0.0 mm 0.00 in0.0 mm
12:09 PM 83.7°F28.7°C 62.5°F16.9°C 49% 2.6 mph N4.2 kmh N 6.5 mph10.5 kmh 30.04 in1017.3 mb 0.00 in0.0 mm 0.00 in0.0 mm 0.00 in0.0 mm
12:10 PM 84.0°F28.9°C 62.8°F17.1°C 49% 2.7 mph N4.3 kmh N 6.5 mph10.5 kmh 30.04 in1017.3 mb 0.00 in0.0 mm 0.00 in0.0 mm 0.00 in0.0 mm
12:11 PM 84.0°F28.9°C 62.8°F17.1°C 49% 2.9 mph N4.7 kmh N 6.5 mph10.5 kmh 30.04 in1017.3 mb 0.00 in0.0 mm 0.00 in0.0 mm 0.00 in0.0 mm
12:12 PM 84.6°F29.2°C 64.4°F18.0°C 51% 3.1 mph N5.0 kmh N 6.5 mph10.5 kmh 30.04 in1017.3 mb 0.00 in0.0 mm 0.00 in0.0 mm 0.00 in0.0 mm
12:13 PM 84.6°F29.2°C 64.4°F18.0°C 51% 3.1 mph N5.0 kmh N 6.5 mph10.5 kmh 30.04 in1017.3 mb 0.00 in0.0 mm 0.00 in0.0 mm 0.00 in0.0 mm
12:14 PM 85.5°F29.7°C 64.7°F18.2°C 50% 3.0 mph N4.8 kmh N 6.5 mph10.5 kmh 30.04 in1017.3 mb 0.00 in0.0 mm 0.00 in0.0 mm 0.00 in0.0 mm
12:15 PM 85.8°F29.9°C 64.5°F18.1°C 49% 3.3 mph NNW5.3 kmh NNW 6.5 mph10.5 kmh 30.04 in1017.3 mb 0.00 in0.0 mm 0.00 in0.0 mm 0.00 in0.0 mm
12:16 PM 85.8°F29.9°C 64.5°F18.1°C 49% 2.8 mph N4.5 kmh N 5.4 mph8.7 kmh 30.04 in1017.3 mb 0.00 in0.0 mm 0.00 in0.0 mm 0.00 in0.0 mm
12:17 PM 86.2°F30.1°C 63.0°F17.2°C 46% 2.6 mph N4.2 kmh N 4.9 mph7.9 kmh 30.04 in1017.3 mb 0.00 in0.0 mm 0.00 in0.0 mm 0.00 in0.0 mm
12:18 PM 86.2°F30.1°C 63.0°F17.2°C 46% 3.0 mph NE4.8 kmh NE 8.7 mph14.0 kmh 30.04 in1017.3 mb 0.00 in0.0 mm 0.00 in0.0 mm 0.00 in0.0 mm
12:19 PM 86.0°F30.0°C 63.4°F17.4°C 47% 3.4 mph ENE5.5 kmh ENE 8.7 mph14.0 kmh 30.04 in1017.3 mb 0.00 in0.0 mm 0.00 in0.0 mm 0.00 in0.0 mm
12:20 PM 86.0°F30.0°C 63.4°F17.4°C 47% 3.4 mph E5.5 kmh E 8.7 mph14.0 kmh 30.04 in1017.3 mb 0.00 in0.0 mm 0.00 in0.0 mm 0.00 in0.0 mm
12:21 PM 86.0°F30.0°C 62.8°F17.1°C 46% 3.1 mph E5.0 kmh E 8.7 mph14.0 kmh 30.04 in1017.3 mb 0.00 in0.0 mm 0.00 in0.0 mm 0.00 in0.0 mm
12:22 PM 84.6°F29.2°C 62.1°F16.7°C 47% 3.4 mph E5.5 kmh E 8.7 mph14.0 kmh 30.04 in1017.3 mb 0.00 in0.0 mm 0.00 in0.0 mm 0.00 in0.0 mm
12:23 PM 84.6°F29.2°C 62.1°F16.7°C 47% 3.4 mph ENE5.5 kmh ENE 8.7 mph14.0 kmh 30.04 in1017.3 mb 0.00 in0.0 mm 0.00 in0.0 mm 0.00 in0.0 mm
12:24 PM 85.8°F29.9°C 63.9°F17.7°C 48% 3.6 mph E5.8 kmh E 8.7 mph14.0 kmh 30.04 in1017.3 mb 0.00 in0.0 mm 0.00 in0.0 mm 0.00 in0.0 mm
12:25 PM 85.8°F29.9°C 63.9°F17.7°C 48% 3.5 mph E5.6 kmh E 8.7 mph14.0 kmh 30.04 in1017.3 mb 0.00 in0.0 mm 0.00 in0.0 mm 0.00 in0.0 mm
12:26 PM 86.4°F30.2°C 63.8°F17.7°C 47% 3.4 mph E5.5 kmh E 8.7 mph14.0 kmh 30.04 in1017.3 mb 0.00 in0.0 mm 0.00 in0.0 mm 0.00 in0.0 mm
12:27 PM 86.4°F30.2°C 63.8°F17.7°C 47% 3.6 mph E5.8 kmh E 8.7 mph14.0 kmh 30.04 in1017.3 mb 0.00 in0.0 mm 0.00 in0.0 mm 0.00 in0.0 mm
12:28 PM 86.0°F30.0°C 61.5°F16.4°C 44% 3.1 mph ENE5.0 kmh ENE 8.7 mph14.0 kmh 30.04 in1017.3 mb 0.00 in0.0 mm 0.00 in0.0 mm 0.00 in0.0 mm
12:29 PM 86.9°F30.5°C 63.6°F17.6°C 46% 2.7 mph ENE4.3 kmh ENE 4.9 mph7.9 kmh 30.04 in1017.3 mb 0.00 in0.0 mm 0.00 in0.0 mm 0.00 in0.0 mm
12:30 PM 86.9°F30.5°C 63.6°F17.6°C 46% 2.7 mph ENE4.3 kmh ENE 4.9 mph7.9 kmh 30.04 in1017.3 mb 0.00 in0.0 mm 0.00 in0.0 mm 0.00 in0.0 mm
12:31 PM 87.1°F30.6°C 63.2°F17.3°C 45% 2.9 mph E4.7 kmh E 4.9 mph7.9 kmh 30.04 in1017.3 mb 0.00 in0.0 mm 0.00 in0.0 mm 0.00 in0.0 mm
12:32 PM 87.1°F30.6°C 63.2°F17.3°C 45% 2.9 mph E4.7 kmh E 4.9 mph7.9 kmh 30.04 in1017.3 mb 0.00 in0.0 mm 0.00 in0.0 mm 0.00 in0.0 mm
12:33 PM 86.2°F30.1°C 62.3°F16.8°C 45% 2.9 mph E4.7 kmh E 4.9 mph7.9 kmh 30.04 in1017.3 mb 0.00 in0.0 mm 0.00 in0.0 mm 0.00 in0.0 mm
12:34 PM 86.2°F30.1°C 62.3°F16.8°C 45% 2.8 mph E4.5 kmh E 4.9 mph7.9 kmh 30.04 in1017.3 mb 0.00 in0.0 mm 0.00 in0.0 mm 0.00 in0.0 mm
12:35 PM 85.8°F29.9°C 61.4°F16.3°C 44% 2.7 mph E4.3 kmh E 4.9 mph7.9 kmh 30.04 in1017.3 mb 0.00 in0.0 mm 0.00 in0.0 mm 0.00 in0.0 mm
12:36 PM 85.8°F29.9°C 61.4°F16.3°C 44% 2.8 mph E4.5 kmh E 4.9 mph7.9 kmh 30.04 in1017.3 mb 0.00 in0.0 mm 0.00 in0.0 mm 0.00 in0.0 mm
12:37 PM 84.9°F29.4°C 61.2°F16.2°C 45% 2.7 mph ENE4.3 kmh ENE 4.9 mph7.9 kmh 30.04 in1017.3 mb 0.00 in0.0 mm 0.00 in0.0 mm 0.00 in0.0 mm
12:38 PM 85.3°F29.6°C 61.5°F16.4°C 45% 3.0 mph E4.8 kmh E 4.9 mph7.9 kmh 30.04 in1017.3 mb 0.00 in0.0 mm 0.00 in0.0 mm 0.00 in0.0 mm
12:39 PM 85.3°F29.6°C 61.5°F16.4°C 45% 2.9 mph E4.7 kmh E 4.9 mph7.9 kmh 30.04 in1017.3 mb 0.00 in0.0 mm 0.00 in0.0 mm 0.00 in0.0 mm
12:40 PM 85.6°F29.8°C 60.6°F15.9°C 43% 3.1 mph ENE5.0 kmh ENE 4.9 mph7.9 kmh 30.04 in1017.3 mb 0.00 in0.0 mm 0.00 in0.0 mm 0.00 in0.0 mm
12:41 PM 85.6°F29.8°C 60.6°F15.9°C 43% 3.0 mph ENE4.8 kmh ENE 4.9 mph7.9 kmh 30.04 in1017.3 mb 0.00 in0.0 mm 0.00 in0.0 mm 0.00 in0.0 mm
12:42 PM 85.6°F29.8°C 60.6°F15.9°C 43% 3.0 mph ENE4.8 kmh ENE 4.9 mph7.9 kmh 30.04 in1017.3 mb 0.00 in0.0 mm 0.00 in0.0 mm 0.00 in0.0 mm
12:43 PM 85.6°F29.8°C 60.6°F15.9°C 43% 2.8 mph ENE4.5 kmh ENE 4.9 mph7.9 kmh 30.04 in1017.3 mb 0.00 in0.0 mm 0.00 in0.0 mm 0.00 in0.0 mm
12:44 PM 86.2°F30.1°C 62.3°F16.8°C 45% 2.6 mph E4.2 kmh E 4.3 mph6.9 kmh 30.04 in1017.3 mb 0.00 in0.0 mm 0.00 in0.0 mm 0.00 in0.0 mm
12:45 PM 86.4°F30.2°C 61.9°F16.6°C 44% 2.7 mph E4.3 kmh E 4.0 mph6.4 kmh 30.04 in1017.3 mb 0.00 in0.0 mm 0.00 in0.0 mm 0.00 in0.0 mm
12:46 PM 86.4°F30.2°C 61.9°F16.6°C 44% 2.7 mph E4.3 kmh E 4.0 mph6.4 kmh 30.04 in1017.3 mb 0.00 in0.0 mm 0.00 in0.0 mm 0.00 in0.0 mm
12:47 PM 86.2°F30.1°C 62.3°F16.8°C 45% 2.4 mph SE3.9 kmh SE 4.0 mph6.4 kmh 30.04 in1017.3 mb 0.00 in0.0 mm 0.00 in0.0 mm 0.00 in0.0 mm
12:48 PM 86.2°F30.1°C 62.3°F16.8°C 45% 2.5 mph E4.0 kmh E 6.5 mph10.5 kmh 30.04 in1017.3 mb 0.00 in0.0 mm 0.00 in0.0 mm 0.00 in0.0 mm
12:49 PM 86.0°F30.0°C 61.5°F16.4°C 44% 2.6 mph ESE4.2 kmh ESE 6.5 mph10.5 kmh 30.04 in1017.3 mb 0.00 in0.0 mm 0.00 in0.0 mm 0.00 in0.0 mm
12:50 PM 86.0°F30.0°C 61.5°F16.4°C 44% 2.5 mph SE4.0 kmh SE 6.5 mph10.5 kmh 30.04 in1017.3 mb 0.00 in0.0 mm 0.00 in0.0 mm 0.00 in0.0 mm
12:51 PM 86.7°F30.4°C 62.8°F17.1°C 45% 2.7 mph SE4.3 kmh SE 6.5 mph10.5 kmh 30.04 in1017.3 mb 0.00 in0.0 mm 0.00 in0.0 mm 0.00 in0.0 mm
12:52 PM 86.7°F30.4°C 62.2°F16.8°C 44% 2.5 mph ESE4.0 kmh ESE 6.5 mph10.5 kmh 30.04 in1017.3 mb 0.00 in0.0 mm 0.00 in0.0 mm 0.00 in0.0 mm
12:53 PM 86.7°F30.4°C 62.2°F16.8°C 44% 2.6 mph ESE4.2 kmh ESE 6.5 mph10.5 kmh 30.04 in1017.3 mb 0.00 in0.0 mm 0.00 in0.0 mm 0.00 in0.0 mm
12:54 PM 86.9°F30.5°C 61.7°F16.5°C 43% 2.7 mph ESE4.3 kmh ESE 6.5 mph10.5 kmh 30.04 in1017.3 mb 0.00 in0.0 mm 0.00 in0.0 mm 0.00 in0.0 mm
12:55 PM 86.9°F30.5°C 61.7°F16.5°C 43% 2.7 mph ESE4.3 kmh ESE 6.5 mph10.5 kmh 30.04 in1017.3 mb 0.00 in0.0 mm 0.00 in0.0 mm 0.00 in0.0 mm
12:56 PM 86.0°F30.0°C 60.9°F16.1°C 43% 2.5 mph E4.0 kmh E 6.5 mph10.5 kmh 30.04 in1017.3 mb 0.00 in0.0 mm 0.00 in0.0 mm 0.00 in0.0 mm
12:57 PM 86.0°F30.0°C 60.9°F16.1°C 43% 2.7 mph E4.3 kmh E 6.5 mph10.5 kmh 30.04 in1017.3 mb 0.00 in0.0 mm 0.00 in0.0 mm 0.00 in0.0 mm
12:58 PM 86.0°F30.0°C 62.2°F16.8°C 45% 2.6 mph E4.2 kmh E 3.8 mph6.1 kmh 30.04 in1017.3 mb 0.00 in0.0 mm 0.00 in0.0 mm 0.00 in0.0 mm
12:59 PM 86.0°F30.0°C 62.2°F16.8°C 45% 2.8 mph E4.5 kmh E 4.0 mph6.4 kmh 30.04 in1017.3 mb 0.00 in0.0 mm 0.00 in0.0 mm 0.00 in0.0 mm
01:00 PM 85.6°F29.8°C 63.1°F17.3°C 47% 2.8 mph E4.5 kmh E 4.0 mph6.4 kmh 30.04 in1017.3 mb 0.00 in0.0 mm 0.00 in0.0 mm 0.00 in0.0 mm
01:01 PM 86.0°F30.0°C 63.4°F17.4°C 47% 2.8 mph E4.5 kmh E 4.0 mph6.4 kmh 30.04 in1017.3 mb 0.00 in0.0 mm 0.00 in0.0 mm 0.00 in0.0 mm
01:02 PM 86.0°F30.0°C 63.4°F17.4°C 47% 2.9 mph E4.7 kmh E 4.0 mph6.4 kmh 30.04 in1017.3 mb 0.00 in0.0 mm 0.00 in0.0 mm 0.00 in0.0 mm
01:03 PM 85.3°F29.6°C 63.4°F17.4°C 48% 3.5 mph E5.6 kmh E 5.6 mph9.0 kmh 30.04 in1017.3 mb 0.00 in0.0 mm 0.00 in0.0 mm 0.00 in0.0 mm
01:04 PM 85.3°F29.6°C 63.4°F17.4°C 48% 3.6 mph E5.8 kmh E 5.6 mph9.0 kmh 30.04 in1017.3 mb 0.00 in0.0 mm 0.00 in0.0 mm 0.00 in0.0 mm
01:05 PM 84.9°F29.4°C 63.0°F17.2°C 48% 3.7 mph E6.0 kmh E 5.6 mph9.0 kmh 30.04 in1017.3 mb 0.00 in0.0 mm 0.00 in0.0 mm 0.00 in0.0 mm
01:06 PM 84.9°F29.4°C 63.0°F17.2°C 48% 3.7 mph E6.0 kmh E 5.6 mph9.0 kmh 30.04 in1017.3 mb 0.00 in0.0 mm 0.00 in0.0 mm 0.00 in0.0 mm
01:07 PM 85.8°F29.9°C 64.5°F18.1°C 49% 3.8 mph E6.1 kmh E 5.6 mph9.0 kmh 30.04 in1017.3 mb 0.00 in0.0 mm 0.00 in0.0 mm 0.00 in0.0 mm
01:08 PM 85.5°F29.7°C 63.5°F17.5°C 48% 4.3 mph E6.9 kmh E 7.6 mph12.2 kmh 30.04 in1017.3 mb 0.00 in0.0 mm 0.00 in0.0 mm 0.00 in0.0 mm
01:09 PM 85.5°F29.7°C 63.5°F17.5°C 48% 4.1 mph E6.6 kmh E 7.6 mph12.2 kmh 30.04 in1017.3 mb 0.00 in0.0 mm 0.00 in0.0 mm 0.00 in0.0 mm
01:10 PM 86.5°F30.3°C 63.9°F17.7°C 47% 4.0 mph E6.4 kmh E 7.6 mph12.2 kmh 30.04 in1017.3 mb 0.00 in0.0 mm 0.00 in0.0 mm 0.00 in0.0 mm
01:11 PM 86.5°F30.3°C 63.9°F17.7°C 47% 4.1 mph E6.6 kmh E 7.6 mph12.2 kmh 30.04 in1017.3 mb 0.00 in0.0 mm 0.00 in0.0 mm 0.00 in0.0 mm
01:12 PM 84.9°F29.4°C 62.4°F16.9°C 47% 4.2 mph E6.8 kmh E 7.6 mph12.2 kmh 30.04 in1017.3 mb 0.00 in0.0 mm 0.00 in0.0 mm 0.00 in0.0 mm
01:13 PM 84.9°F29.4°C 62.4°F16.9°C 47% 3.9 mph E6.3 kmh E 7.6 mph12.2 kmh 30.04 in1017.3 mb 0.00 in0.0 mm 0.00 in0.0 mm 0.00 in0.0 mm
01:14 PM 85.8°F29.9°C 63.9°F17.7°C 48% 3.5 mph E5.6 kmh E 7.6 mph12.2 kmh 30.04 in1017.3 mb 0.00 in0.0 mm 0.00 in0.0 mm 0.00 in0.0 mm
01:15 PM 86.4°F30.2°C 64.4°F18.0°C 48% 3.4 mph E5.5 kmh E 7.6 mph12.2 kmh 30.04 in1017.3 mb 0.00 in0.0 mm 0.00 in0.0 mm 0.00 in0.0 mm
01:16 PM 86.4°F30.2°C 64.4°F18.0°C 48% 3.4 mph E5.5 kmh E 7.6 mph12.2 kmh 30.04 in1017.3 mb 0.00 in0.0 mm 0.00 in0.0 mm 0.00 in0.0 mm
01:17 PM 87.6°F30.9°C 65.5°F18.6°C 48% 3.3 mph E5.3 kmh E 7.6 mph12.2 kmh 30.04 in1017.3 mb 0.00 in0.0 mm 0.00 in0.0 mm 0.00 in0.0 mm
01:18 PM 87.6°F30.9°C 65.5°F18.6°C 48% 2.9 mph E4.7 kmh E 7.6 mph12.2 kmh 30.04 in1017.3 mb 0.00 in0.0 mm 0.00 in0.0 mm 0.00 in0.0 mm
01:19 PM 86.4°F30.2°C 62.5°F16.9°C 45% 2.8 mph E4.5 kmh E 6.0 mph9.7 kmh 30.04 in1017.3 mb 0.00 in0.0 mm 0.00 in0.0 mm 0.00 in0.0 mm
01:20 PM 86.4°F30.2°C 62.5°F16.9°C 45% 2.8 mph ENE4.5 kmh ENE 6.0 mph9.7 kmh 30.04 in1017.3 mb 0.00 in0.0 mm 0.00 in0.0 mm 0.00 in0.0 mm
01:21 PM 86.9°F30.5°C 63.6°F17.6°C 46% 2.6 mph ENE4.2 kmh ENE 6.0 mph9.7 kmh 30.04 in1017.3 mb 0.00 in0.0 mm 0.00 in0.0 mm 0.00 in0.0 mm
01:22 PM 87.3°F30.7°C 63.3°F17.4°C 45% 2.4 mph ENE3.9 kmh ENE 3.8 mph6.1 kmh 30.04 in1017.3 mb 0.00 in0.0 mm 0.00 in0.0 mm 0.00 in0.0 mm
01:23 PM 87.3°F30.7°C 63.3°F17.4°C 45% 2.6 mph ENE4.2 kmh ENE 4.0 mph6.4 kmh 30.04 in1017.3 mb 0.00 in0.0 mm 0.00 in0.0 mm 0.00 in0.0 mm
01:24 PM 88.2°F31.2°C 65.4°F18.6°C 47% 2.4 mph ENE3.9 kmh ENE 4.0 mph6.4 kmh 30.04 in1017.3 mb 0.00 in0.0 mm 0.00 in0.0 mm 0.00 in0.0 mm
01:25 PM 88.2°F31.2°C 65.4°F18.6°C 47% 2.4 mph ENE3.9 kmh ENE 4.0 mph6.4 kmh 30.04 in1017.3 mb 0.00 in0.0 mm 0.00 in0.0 mm 0.00 in0.0 mm
01:26 PM 88.3°F31.3°C 63.7°F17.6°C 44% 2.7 mph NE4.3 kmh NE 4.9 mph7.9 kmh 30.04 in1017.3 mb 0.00 in0.0 mm 0.00 in0.0 mm 0.00 in0.0 mm
01:27 PM 88.3°F31.3°C 63.7°F17.6°C 44% 2.7 mph NE4.3 kmh NE 4.9 mph7.9 kmh 30.04 in1017.3 mb 0.00 in0.0 mm 0.00 in0.0 mm 0.00 in0.0 mm
01:28 PM 86.4°F30.2°C 61.9°F16.6°C 44% 2.9 mph NE4.7 kmh NE 4.9 mph7.9 kmh 30.04 in1017.3 mb 0.00 in0.0 mm 0.00 in0.0 mm 0.00 in0.0 mm
01:29 PM 86.4°F30.2°C 61.9°F16.6°C 44% 2.7 mph NE4.3 kmh NE 4.9 mph7.9 kmh 30.04 in1017.3 mb 0.00 in0.0 mm 0.00 in0.0 mm 0.00 in0.0 mm
01:30 PM 88.0°F31.1°C 63.3°F17.4°C 44% 2.7 mph NE4.3 kmh NE 4.9 mph7.9 kmh 30.04 in1017.3 mb 0.00 in0.0 mm 0.00 in0.0 mm 0.00 in0.0 mm
01:31 PM 87.8°F31.0°C 63.8°F17.7°C 45% 2.8 mph NE4.5 kmh NE 4.9 mph7.9 kmh 30.04 in1017.3 mb 0.00 in0.0 mm 0.00 in0.0 mm 0.00 in0.0 mm
01:32 PM 87.8°F31.0°C 63.8°F17.7°C 45% 2.8 mph NE4.5 kmh NE 4.9 mph7.9 kmh 30.04 in1017.3 mb 0.00 in0.0 mm 0.00 in0.0 mm 0.00 in0.0 mm
01:33 PM 88.0°F31.1°C 64.6°F18.1°C 46% 2.6 mph NE4.2 kmh NE 4.9 mph7.9 kmh 30.04 in1017.3 mb 0.00 in0.0 mm 0.00 in0.0 mm 0.00 in0.0 mm
01:34 PM 88.0°F31.1°C 64.6°F18.1°C 46% 2.7 mph NE4.3 kmh NE 4.9 mph7.9 kmh 30.04 in1017.3 mb 0.00 in0.0 mm 0.00 in0.0 mm 0.00 in0.0 mm
01:35 PM 86.4°F30.2°C 63.1°F17.3°C 46% 3.1 mph NE5.0 kmh NE 5.8 mph9.3 kmh 30.04 in1017.3 mb 0.00 in0.0 mm 0.00 in0.0 mm 0.00 in0.0 mm
01:36 PM 86.4°F30.2°C 63.1°F17.3°C 46% 3.1 mph NE5.0 kmh NE 6.3 mph10.1 kmh 30.04 in1017.3 mb 0.00 in0.0 mm 0.00 in0.0 mm 0.00 in0.0 mm
01:37 PM 85.8°F29.9°C 64.5°F18.1°C 49% 3.1 mph NE5.0 kmh NE 6.3 mph10.1 kmh 30.04 in1017.3 mb 0.00 in0.0 mm 0.00 in0.0 mm 0.00 in0.0 mm
01:38 PM 86.2°F30.1°C 64.2°F17.9°C 48% 3.5 mph NE5.6 kmh NE 6.3 mph10.1 kmh 30.04 in1017.3 mb 0.00 in0.0 mm 0.00 in0.0 mm 0.00 in0.0 mm
01:39 PM 86.2°F30.1°C 64.2°F17.9°C 48% 3.9 mph NE6.3 kmh NE 6.5 mph10.5 kmh 30.04 in1017.3 mb 0.00 in0.0 mm 0.00 in0.0 mm 0.00 in0.0 mm
01:40 PM 86.4°F30.2°C 64.4°F18.0°C 48% 3.8 mph ENE6.1 kmh ENE 6.5 mph10.5 kmh 30.04 in1017.3 mb 0.00 in0.0 mm 0.00 in0.0 mm 0.00 in0.0 mm
01:41 PM 86.4°F30.2°C 64.4°F18.0°C 48% 3.6 mph NE5.8 kmh NE 6.5 mph10.5 kmh 30.04 in1017.3 mb 0.00 in0.0 mm 0.00 in0.0 mm 0.00 in0.0 mm
01:42 PM 86.5°F30.3°C 64.5°F18.1°C 48% 3.4 mph ENE5.5 kmh ENE 6.5 mph10.5 kmh 30.04 in1017.3 mb 0.00 in0.0 mm 0.00 in0.0 mm 0.00 in0.0 mm
01:43 PM 86.5°F30.3°C 64.5°F18.1°C 48% 3.5 mph ENE5.6 kmh ENE 6.5 mph10.5 kmh 30.04 in1017.3 mb 0.00 in0.0 mm 0.00 in0.0 mm 0.00 in0.0 mm
01:44 PM 87.3°F30.7°C 65.2°F18.4°C 48% 3.3 mph ENE5.3 kmh ENE 6.5 mph10.5 kmh 30.04 in1017.3 mb 0.00 in0.0 mm 0.00 in0.0 mm 0.00 in0.0 mm
01:45 PM 86.0°F30.0°C 63.4°F17.4°C 47% 3.2 mph ENE5.1 kmh ENE 6.5 mph10.5 kmh 30.04 in1017.3 mb 0.00 in0.0 mm 0.00 in0.0 mm 0.00 in0.0 mm
01:46 PM 86.0°F30.0°C 63.4°F17.4°C 47% 3.0 mph ENE4.8 kmh ENE 6.5 mph10.5 kmh 30.04 in1017.3 mb 0.00 in0.0 mm 0.00 in0.0 mm 0.00 in0.0 mm
01:47 PM 86.0°F30.0°C 64.0°F17.8°C 48% 2.6 mph E4.2 kmh E 6.5 mph10.5 kmh 30.04 in1017.3 mb 0.00 in0.0 mm 0.00 in0.0 mm 0.00 in0.0 mm
01:48 PM 86.0°F30.0°C 64.0°F17.8°C 48% 2.3 mph E3.7 kmh E 6.5 mph10.5 kmh 30.04 in1017.3 mb 0.00 in0.0 mm 0.00 in0.0 mm 0.00 in0.0 mm
01:49 PM 86.7°F30.4°C 64.1°F17.8°C 47% 2.3 mph ESE3.7 kmh ESE 5.8 mph9.3 kmh 30.04 in1017.3 mb 0.00 in0.0 mm 0.00 in0.0 mm 0.00 in0.0 mm
01:50 PM 86.7°F30.4°C 64.1°F17.8°C 47% 2.4 mph E3.9 kmh E 6.0 mph9.7 kmh 30.04 in1017.3 mb 0.00 in0.0 mm 0.00 in0.0 mm 0.00 in0.0 mm
01:51 PM 86.5°F30.3°C 63.9°F17.7°C 47% 2.7 mph E4.3 kmh E 6.0 mph9.7 kmh 30.04 in1017.3 mb 0.00 in0.0 mm 0.00 in0.0 mm 0.00 in0.0 mm
01:52 PM 87.1°F30.6°C 64.4°F18.0°C 47% 3.0 mph E4.8 kmh E 6.0 mph9.7 kmh 30.04 in1017.3 mb 0.00 in0.0 mm 0.00 in0.0 mm 0.00 in0.0 mm
01:53 PM 87.1°F30.6°C 64.4°F18.0°C 47% 3.0 mph ENE4.8 kmh ENE 6.0 mph9.7 kmh 30.04 in1017.3 mb 0.00 in0.0 mm 0.00 in0.0 mm 0.00 in0.0 mm
01:54 PM 87.6°F30.9°C 64.9°F18.3°C 47% 2.9 mph NE4.7 kmh NE 6.0 mph9.7 kmh 30.04 in1017.3 mb 0.00 in0.0 mm 0.00 in0.0 mm 0.00 in0.0 mm
01:55 PM 87.6°F30.9°C 64.9°F18.3°C 47% 2.7 mph ENE4.3 kmh ENE 6.0 mph9.7 kmh 30.04 in1017.3 mb 0.00 in0.0 mm 0.00 in0.0 mm 0.00 in0.0 mm
01:56 PM 86.9°F30.5°C 63.0°F17.2°C 45% 2.5 mph E4.0 kmh E 6.0 mph9.7 kmh 30.04 in1017.3 mb 0.00 in0.0 mm 0.00 in0.0 mm 0.00 in0.0 mm
01:57 PM 86.9°F30.5°C 63.0°F17.2°C 45% 2.6 mph ENE4.2 kmh ENE 6.0 mph9.7 kmh 30.04 in1017.3 mb 0.00 in0.0 mm 0.00 in0.0 mm 0.00 in0.0 mm
01:58 PM 86.9°F30.5°C 64.2°F17.9°C 47% 2.7 mph ENE4.3 kmh ENE 6.0 mph9.7 kmh 30.04 in1017.3 mb 0.00 in0.0 mm 0.00 in0.0 mm 0.00 in0.0 mm
01:59 PM 86.9°F30.5°C 64.2°F17.9°C 47% 2.9 mph NE4.7 kmh NE 6.0 mph9.7 kmh 30.04 in1017.3 mb 0.00 in0.0 mm 0.00 in0.0 mm 0.00 in0.0 mm
02:00 PM 86.0°F30.0°C 62.8°F17.1°C 46% 2.6 mph NE4.2 kmh NE 6.0 mph9.7 kmh 30.04 in1017.3 mb 0.00 in0.0 mm 0.00 in0.0 mm 0.00 in0.0 mm
02:01 PM 87.1°F30.6°C 64.4°F18.0°C 47% 2.3 mph NNE3.7 kmh NNE 4.3 mph6.9 kmh 30.04 in1017.3 mb 0.00 in0.0 mm 0.00 in0.0 mm 0.00 in0.0 mm
02:02 PM 87.1°F30.6°C 64.4°F18.0°C 47% 2.3 mph NNE3.7 kmh NNE 4.3 mph6.9 kmh 30.04 in1017.3 mb 0.00 in0.0 mm 0.00 in0.0 mm 0.00 in0.0 mm
02:03 PM 87.3°F30.7°C 64.0°F17.8°C 46% 2.3 mph NNE3.7 kmh NNE 4.3 mph6.9 kmh 30.04 in1017.3 mb 0.00 in0.0 mm 0.00 in0.0 mm 0.00 in0.0 mm
02:04 PM 87.3°F30.7°C 64.0°F17.8°C 46% 2.6 mph NE4.2 kmh NE 4.3 mph6.9 kmh 30.04 in1017.3 mb 0.00 in0.0 mm 0.00 in0.0 mm 0.00 in0.0 mm
02:05 PM 87.6°F30.9°C 64.3°F17.9°C 46% 2.9 mph NNE4.7 kmh NNE 5.6 mph9.0 kmh 30.04 in1017.3 mb 0.00 in0.0 mm 0.00 in0.0 mm 0.00 in0.0 mm
02:06 PM 87.6°F30.9°C 64.3°F17.9°C 46% 3.0 mph NNE4.8 kmh NNE 5.6 mph9.0 kmh 30.04 in1017.3 mb 0.00 in0.0 mm 0.00 in0.0 mm 0.00 in0.0 mm
02:07 PM 85.8°F29.9°C 61.4°F16.3°C 44% 3.0 mph NE4.8 kmh NE 5.6 mph9.0 kmh 30.04 in1017.3 mb 0.00 in0.0 mm 0.00 in0.0 mm 0.00 in0.0 mm
02:08 PM 87.1°F30.6°C 63.2°F17.3°C 45% 2.9 mph NE4.7 kmh NE 5.6 mph9.0 kmh 30.04 in1017.3 mb 0.00 in0.0 mm 0.00 in0.0 mm 0.00 in0.0 mm
02:09 PM 87.1°F30.6°C 63.2°F17.3°C 45% 3.0 mph NE4.8 kmh NE 5.8 mph9.3 kmh 30.04 in1017.3 mb 0.00 in0.0 mm 0.00 in0.0 mm 0.00 in0.0 mm
02:10 PM 86.9°F30.5°C 62.4°F16.9°C 44% 2.9 mph NE4.7 kmh NE 5.8 mph9.3 kmh 30.04 in1017.3 mb 0.00 in0.0 mm 0.00 in0.0 mm 0.00 in0.0 mm
02:11 PM 86.9°F30.5°C 62.4°F16.9°C 44% 2.9 mph NE4.7 kmh NE 5.8 mph9.3 kmh 30.04 in1017.3 mb 0.00 in0.0 mm 0.00 in0.0 mm 0.00 in0.0 mm
02:12 PM 88.2°F31.2°C 63.5°F17.5°C 44% 2.7 mph ENE4.3 kmh ENE 5.8 mph9.3 kmh 30.04 in1017.3 mb 0.00 in0.0 mm 0.00 in0.0 mm 0.00 in0.0 mm
02:13 PM 88.2°F31.2°C 63.5°F17.5°C 44% 2.7 mph E4.3 kmh E 5.8 mph9.3 kmh 30.04 in1017.3 mb 0.00 in0.0 mm 0.00 in0.0 mm 0.00 in0.0 mm
02:14 PM 88.0°F31.1°C 62.7°F17.1°C 43% 2.6 mph E4.2 kmh E 5.8 mph9.3 kmh 30.04 in1017.3 mb 0.00 in0.0 mm 0.00 in0.0 mm 0.00 in0.0 mm
02:15 PM 87.8°F31.0°C 62.5°F16.9°C 43% 2.3 mph E3.7 kmh E 5.8 mph9.3 kmh 30.04 in1017.3 mb 0.00 in0.0 mm 0.00 in0.0 mm 0.00 in0.0 mm
02:16 PM 87.8°F31.0°C 62.5°F16.9°C 43% 2.3 mph E3.7 kmh E 5.8 mph9.3 kmh 30.04 in1017.3 mb 0.00 in0.0 mm 0.00 in0.0 mm 0.00 in0.0 mm
02:17 PM 88.0°F31.1°C 62.7°F17.1°C 43% 2.2 mph E3.5 kmh E 5.8 mph9.3 kmh 30.04 in1017.3 mb 0.00 in0.0 mm 0.00 in0.0 mm 0.00 in0.0 mm
02:18 PM 88.0°F31.1°C 62.7°F17.1°C 43% 2.2 mph E3.5 kmh E 5.8 mph9.3 kmh 30.04 in1017.3 mb 0.00 in0.0 mm 0.00 in0.0 mm 0.00 in0.0 mm
02:19 PM 88.5°F31.4°C 61.8°F16.6°C 41% 2.0 mph E3.2 kmh E 2.9 mph4.7 kmh 30.04 in1017.3 mb 0.00 in0.0 mm 0.00 in0.0 mm 0.00 in0.0 mm
02:20 PM 88.5°F31.4°C 61.8°F16.6°C 41% 1.9 mph E3.1 kmh E 2.9 mph4.7 kmh 30.04 in1017.3 mb 0.00 in0.0 mm 0.00 in0.0 mm 0.00 in0.0 mm
02:21 PM 87.6°F30.9°C 61.7°F16.5°C 42% 2.0 mph E3.2 kmh E 2.9 mph4.7 kmh 30.04 in1017.3 mb 0.00 in0.0 mm 0.00 in0.0 mm 0.00 in0.0 mm
02:22 PM 87.6°F30.9°C 61.7°F16.5°C 42% 2.3 mph E3.7 kmh E 5.6 mph9.0 kmh 30.04 in1017.3 mb 0.00 in0.0 mm 0.00 in0.0 mm 0.00 in0.0 mm
02:23 PM 87.6°F30.9°C 61.0°F16.1°C 41% 2.5 mph E4.0 kmh E 5.6 mph9.0 kmh 30.04 in1017.3 mb 0.00 in0.0 mm 0.00 in0.0 mm 0.00 in0.0 mm
02:24 PM 88.2°F31.2°C 62.2°F16.8°C 42% 2.6 mph E4.2 kmh E 5.6 mph9.0 kmh 30.04 in1017.3 mb 0.00 in0.0 mm 0.00 in0.0 mm 0.00 in0.0 mm
02:25 PM 88.2°F31.2°C 62.2°F16.8°C 42% 2.7 mph E4.3 kmh E 5.6 mph9.0 kmh 30.04 in1017.3 mb 0.00 in0.0 mm 0.00 in0.0 mm 0.00 in0.0 mm
02:26 PM 88.0°F31.1°C 61.3°F16.3°C 41% 2.6 mph E4.2 kmh E 5.6 mph9.0 kmh 30.04 in1017.3 mb 0.00 in0.0 mm 0.00 in0.0 mm 0.00 in0.0 mm
02:27 PM 88.0°F31.1°C 61.3°F16.3°C 41% 2.7 mph E4.3 kmh E 5.6 mph9.0 kmh 30.04 in1017.3 mb 0.00 in0.0 mm 0.00 in0.0 mm 0.00 in0.0 mm
02:28 PM 88.0°F31.1°C 62.0°F16.7°C 42% 2.8 mph E4.5 kmh E 5.6 mph9.0 kmh 30.04 in1017.3 mb 0.00 in0.0 mm 0.00 in0.0 mm 0.00 in0.0 mm
02:29 PM 88.0°F31.1°C 62.0°F16.7°C 42% 2.8 mph E4.5 kmh E 5.6 mph9.0 kmh 30.04 in1017.3 mb 0.00 in0.0 mm 0.00 in0.0 mm 0.00 in0.0 mm
02:30 PM 88.7°F31.5°C 62.7°F17.1°C 42% 2.8 mph E4.5 kmh E 5.6 mph9.0 kmh 30.04 in1017.3 mb 0.00 in0.0 mm 0.00 in0.0 mm 0.00 in0.0 mm
02:31 PM 88.2°F31.2°C 62.2°F16.8°C 42% 2.6 mph ESE4.2 kmh ESE 5.6 mph9.0 kmh 30.04 in1017.3 mb 0.00 in0.0 mm 0.00 in0.0 mm 0.00 in0.0 mm
02:32 PM 88.2°F31.2°C 62.2°F16.8°C 42% 2.6 mph ESE4.2 kmh ESE 5.6 mph9.0 kmh 30.04 in1017.3 mb 0.00 in0.0 mm 0.00 in0.0 mm 0.00 in0.0 mm
02:33 PM 88.0°F31.1°C 62.0°F16.7°C 42% 2.4 mph E3.9 kmh E 5.6 mph9.0 kmh 30.04 in1017.3 mb 0.00 in0.0 mm 0.00 in0.0 mm 0.00 in0.0 mm
02:34 PM 88.0°F31.1°C 62.0°F16.7°C 42% 2.2 mph E3.5 kmh E 4.0 mph6.4 kmh 30.04 in1017.3 mb 0.00 in0.0 mm 0.00 in0.0 mm 0.00 in0.0 mm
02:35 PM 88.2°F31.2°C 62.2°F16.8°C 42% 2.2 mph E3.5 kmh E 4.0 mph6.4 kmh 30.04 in1017.3 mb 0.00 in0.0 mm 0.00 in0.0 mm 0.00 in0.0 mm
02:36 PM 88.2°F31.2°C 62.2°F16.8°C 42% 2.3 mph E3.7 kmh E 4.0 mph6.4 kmh 30.04 in1017.3 mb 0.00 in0.0 mm 0.00 in0.0 mm 0.00 in0.0 mm
02:37 PM 87.4°F30.8°C 60.8°F16.0°C 41% 2.5 mph E4.0 kmh E 6.0 mph9.7 kmh 30.04 in1017.3 mb 0.00 in0.0 mm 0.00 in0.0 mm 0.00 in0.0 mm
02:38 PM 85.8°F29.9°C 59.4°F15.2°C 41% 2.7 mph E4.3 kmh E 6.0 mph9.7 kmh 30.04 in1017.3 mb 0.00 in0.0 mm 0.00 in0.0 mm 0.00 in0.0 mm
02:39 PM 85.8°F29.9°C 59.4°F15.2°C 41% 2.8 mph E4.5 kmh E 6.0 mph9.7 kmh 30.04 in1017.3 mb 0.00 in0.0 mm 0.00 in0.0 mm 0.00 in0.0 mm
02:40 PM 85.5°F29.7°C 59.8°F15.4°C 42% 3.0 mph ENE4.8 kmh ENE 6.0 mph9.7 kmh 30.04 in1017.3 mb 0.00 in0.0 mm 0.00 in0.0 mm 0.00 in0.0 mm
02:41 PM 85.5°F29.7°C 59.8°F15.4°C 42% 3.3 mph NE5.3 kmh NE 7.2 mph11.6 kmh 30.04 in1017.3 mb 0.00 in0.0 mm 0.00 in0.0 mm 0.00 in0.0 mm
02:42 PM 83.5°F28.6°C 59.9°F15.5°C 45% 3.6 mph NE5.8 kmh NE 7.2 mph11.6 kmh 30.04 in1017.3 mb 0.00 in0.0 mm 0.00 in0.0 mm 0.00 in0.0 mm
02:43 PM 83.5°F28.6°C 59.9°F15.5°C 45% 3.6 mph NE5.8 kmh NE 7.2 mph11.6 kmh 30.04 in1017.3 mb 0.00 in0.0 mm 0.00 in0.0 mm 0.00 in0.0 mm
02:44 PM 85.1°F29.5°C 62.6°F17.0°C 47% 3.3 mph NE5.3 kmh NE 7.2 mph11.6 kmh 30.04 in1017.3 mb 0.00 in0.0 mm 0.00 in0.0 mm 0.00 in0.0 mm
02:45 PM 85.1°F29.5°C 62.6°F17.0°C 47% 3.3 mph NE5.3 kmh NE 7.2 mph11.6 kmh 30.04 in1017.3 mb 0.00 in0.0 mm 0.00 in0.0 mm 0.00 in0.0 mm
02:46 PM 86.5°F30.3°C 62.0°F16.7°C 44% 3.4 mph NE5.5 kmh NE 7.2 mph11.6 kmh 30.04 in1017.3 mb 0.00 in0.0 mm 0.00 in0.0 mm 0.00 in0.0 mm
02:47 PM 86.5°F30.3°C 61.4°F16.3°C 43% 3.3 mph NE5.3 kmh NE 7.2 mph11.6 kmh 30.04 in1017.3 mb 0.00 in0.0 mm 0.00 in0.0 mm 0.00 in0.0 mm
02:48 PM 86.5°F30.3°C 61.4°F16.3°C 43% 3.3 mph NE5.3 kmh NE 7.2 mph11.6 kmh 30.04 in1017.3 mb 0.00 in0.0 mm 0.00 in0.0 mm 0.00 in0.0 mm
02:49 PM 86.4°F30.2°C 62.5°F16.9°C 45% 3.2 mph NE5.1 kmh NE 7.2 mph11.6 kmh 30.04 in1017.3 mb 0.00 in0.0 mm 0.00 in0.0 mm 0.00 in0.0 mm
02:50 PM 86.4°F30.2°C 62.5°F16.9°C 45% 3.1 mph NE5.0 kmh NE 7.2 mph11.6 kmh 30.04 in1017.3 mb 0.00 in0.0 mm 0.00 in0.0 mm 0.00 in0.0 mm
02:51 PM 86.0°F30.0°C 62.2°F16.8°C 45% 2.7 mph ENE4.3 kmh ENE 3.8 mph6.1 kmh 30.04 in1017.3 mb 0.00 in0.0 mm 0.00 in0.0 mm 0.00 in0.0 mm
02:52 PM 86.0°F30.0°C 62.2°F16.8°C 45% 2.9 mph ENE4.7 kmh ENE 4.7 mph7.6 kmh 30.04 in1017.3 mb 0.00 in0.0 mm 0.00 in0.0 mm 0.00 in0.0 mm
02:53 PM 86.7°F30.4°C 62.2°F16.8°C 44% 2.6 mph E4.2 kmh E 4.7 mph7.6 kmh 30.04 in1017.3 mb 0.00 in0.0 mm 0.00 in0.0 mm 0.00 in0.0 mm
02:54 PM 86.7°F30.4°C 62.2°F16.8°C 44% 2.8 mph E4.5 kmh E 4.7 mph7.6 kmh 30.04 in1017.3 mb 0.00 in0.0 mm 0.00 in0.0 mm 0.00 in0.0 mm
02:55 PM 86.7°F30.4°C 62.2°F16.8°C 44% 2.7 mph ENE4.3 kmh ENE 4.7 mph7.6 kmh 30.04 in1017.3 mb 0.00 in0.0 mm 0.00 in0.0 mm 0.00 in0.0 mm
02:56 PM 86.0°F30.0°C 60.9°F16.1°C 43% 2.6 mph NE4.2 kmh NE 4.7 mph7.6 kmh 30.04 in1017.3 mb 0.00 in0.0 mm 0.00 in0.0 mm 0.00 in0.0 mm
02:57 PM 86.0°F30.0°C 60.9°F16.1°C 43% 2.7 mph NE4.3 kmh NE 4.7 mph7.6 kmh 30.04 in1017.3 mb 0.00 in0.0 mm 0.00 in0.0 mm 0.00 in0.0 mm
02:58 PM 85.5°F29.7°C 61.7°F16.5°C 45% 2.8 mph ENE4.5 kmh ENE 4.7 mph7.6 kmh 30.04 in1017.3 mb 0.00 in0.0 mm 0.00 in0.0 mm 0.00 in0.0 mm
02:59 PM 85.5°F29.7°C 61.7°F16.5°C 45% 2.7 mph E4.3 kmh E 4.7 mph7.6 kmh 30.04 in1017.3 mb 0.00 in0.0 mm 0.00 in0.0 mm 0.00 in0.0 mm
03:00 PM 85.8°F29.9°C 60.7°F15.9°C 43% 2.7 mph E4.3 kmh E 4.7 mph7.6 kmh 30.04 in1017.3 mb 0.00 in0.0 mm 0.00 in0.0 mm 0.00 in0.0 mm
03:01 PM 85.5°F29.7°C 60.4°F15.8°C 43% 2.8 mph NE4.5 kmh NE 4.7 mph7.6 kmh 30.04 in1017.3 mb 0.00 in0.0 mm 0.00 in0.0 mm 0.00 in0.0 mm
03:02 PM 85.5°F29.7°C 60.4°F15.8°C 43% 2.7 mph ENE4.3 kmh ENE 4.0 mph6.4 kmh 30.04 in1017.3 mb 0.00 in0.0 mm 0.00 in0.0 mm 0.00 in0.0 mm
03:03 PM 85.1°F29.5°C 59.4°F15.2°C 42% 3.0 mph ENE4.8 kmh ENE 4.3 mph6.9 kmh 30.04 in1017.3 mb 0.00 in0.0 mm 0.00 in0.0 mm 0.00 in0.0 mm
03:04 PM 85.1°F29.5°C 59.4°F15.2°C 42% 3.0 mph ENE4.8 kmh ENE 4.3 mph6.9 kmh 30.04 in1017.3 mb 0.00 in0.0 mm 0.00 in0.0 mm 0.00 in0.0 mm
03:05 PM 85.1°F29.5°C 59.4°F15.2°C 42% 3.0 mph ENE4.8 kmh ENE 4.3 mph6.9 kmh 30.04 in1017.3 mb 0.00 in0.0 mm 0.00 in0.0 mm 0.00 in0.0 mm
03:06 PM 85.1°F29.5°C 59.4°F15.2°C 42% 3.3 mph E5.3 kmh E 4.9 mph7.9 kmh 30.04 in1017.3 mb 0.00 in0.0 mm 0.00 in0.0 mm 0.00 in0.0 mm
03:07 PM 86.0°F30.0°C 60.2°F15.7°C 42% 3.5 mph E5.6 kmh E 6.3 mph10.1 kmh 30.04 in1017.3 mb 0.00 in0.0 mm 0.00 in0.0 mm 0.00 in0.0 mm
03:08 PM 85.8°F29.9°C 60.1°F15.6°C 42% 3.4 mph E5.5 kmh E 6.3 mph10.1 kmh 30.04 in1017.3 mb 0.00 in0.0 mm 0.00 in0.0 mm 0.00 in0.0 mm
03:09 PM 85.8°F29.9°C 60.1°F15.6°C 42% 3.7 mph E6.0 kmh E 6.3 mph10.1 kmh 30.04 in1017.3 mb 0.00 in0.0 mm 0.00 in0.0 mm 0.00 in0.0 mm
03:10 PM 85.6°F29.8°C 59.9°F15.5°C 42% 3.8 mph E6.1 kmh E 6.3 mph10.1 kmh 30.04 in1017.3 mb 0.00 in0.0 mm 0.00 in0.0 mm 0.00 in0.0 mm
03:11 PM 85.6°F29.8°C 59.9°F15.5°C 42% 3.7 mph E6.0 kmh E 6.3 mph10.1 kmh 30.04 in1017.3 mb 0.00 in0.0 mm 0.00 in0.0 mm 0.00 in0.0 mm
03:12 PM 85.8°F29.9°C 60.1°F15.6°C 42% 3.5 mph ESE5.6 kmh ESE 6.3 mph10.1 kmh 30.04 in1017.3 mb 0.00 in0.0 mm 0.00 in0.0 mm 0.00 in0.0 mm
03:13 PM 85.8°F29.9°C 60.1°F15.6°C 42% 3.5 mph ESE5.6 kmh ESE 6.3 mph10.1 kmh 30.04 in1017.3 mb 0.00 in0.0 mm 0.00 in0.0 mm 0.00 in0.0 mm
03:14 PM 85.5°F29.7°C 60.4°F15.8°C 43% 3.2 mph ESE5.1 kmh ESE 6.3 mph10.1 kmh 30.04 in1017.3 mb 0.00 in0.0 mm 0.00 in0.0 mm 0.00 in0.0 mm
03:15 PM 85.5°F29.7°C 60.4°F15.8°C 43% 3.2 mph ESE5.1 kmh ESE 6.3 mph10.1 kmh 30.04 in1017.3 mb 0.00 in0.0 mm 0.00 in0.0 mm 0.00 in0.0 mm
03:16 PM 84.9°F29.4°C 59.9°F15.5°C 43% 2.9 mph ESE4.7 kmh ESE 6.3 mph10.1 kmh 30.04 in1017.3 mb 0.00 in0.0 mm 0.00 in0.0 mm 0.00 in0.0 mm
03:17 PM 86.5°F30.3°C 61.4°F16.3°C 43% 2.4 mph E3.9 kmh E 6.3 mph10.1 kmh 30.04 in1017.3 mb 0.00 in0.0 mm 0.00 in0.0 mm 0.00 in0.0 mm
03:18 PM 86.5°F30.3°C 61.4°F16.3°C 43% 2.5 mph E4.0 kmh E 6.3 mph10.1 kmh 30.04 in1017.3 mb 0.00 in0.0 mm 0.00 in0.0 mm 0.00 in0.0 mm
03:19 PM 86.7°F30.4°C 60.9°F16.1°C 42% 2.2 mph ESE3.5 kmh ESE 3.6 mph5.8 kmh 30.04 in1017.3 mb 0.00 in0.0 mm 0.00 in0.0 mm 0.00 in0.0 mm
03:20 PM 86.7°F30.4°C 60.9°F16.1°C 42% 2.2 mph E3.5 kmh E 4.0 mph6.4 kmh 30.04 in1017.3 mb 0.00 in0.0 mm 0.00 in0.0 mm 0.00 in0.0 mm
03:21 PM 86.4°F30.2°C 59.2°F15.1°C 40% 2.3 mph ENE3.7 kmh ENE 4.0 mph6.4 kmh 30.04 in1017.3 mb 0.00 in0.0 mm 0.00 in0.0 mm 0.00 in0.0 mm
03:22 PM 86.4°F30.2°C 59.2°F15.1°C 40% 2.4 mph ENE3.9 kmh ENE 4.0 mph6.4 kmh 30.04 in1017.3 mb 0.00 in0.0 mm 0.00 in0.0 mm 0.00 in0.0 mm
03:23 PM 85.8°F29.9°C 59.4°F15.2°C 41% 2.5 mph NE4.0 kmh NE 4.0 mph6.4 kmh 30.04 in1017.3 mb 0.00 in0.0 mm 0.00 in0.0 mm 0.00 in0.0 mm
03:24 PM 85.3°F29.6°C 58.9°F14.9°C 41% 2.7 mph NE4.3 kmh NE 4.0 mph6.4 kmh 30.04 in1017.3 mb 0.00 in0.0 mm 0.00 in0.0 mm 0.00 in0.0 mm
03:25 PM 85.3°F29.6°C 58.9°F14.9°C 41% 2.7 mph NE4.3 kmh NE 4.0 mph6.4 kmh 30.04 in1017.3 mb 0.00 in0.0 mm 0.00 in0.0 mm 0.00 in0.0 mm
03:26 PM 85.3°F29.6°C 58.9°F14.9°C 41% 2.9 mph NE4.7 kmh NE 4.0 mph6.4 kmh 30.04 in1017.3 mb 0.00 in0.0 mm 0.00 in0.0 mm 0.00 in0.0 mm
03:27 PM 85.3°F29.6°C 58.9°F14.9°C 41% 2.9 mph NE4.7 kmh NE 4.0 mph6.4 kmh 30.04 in1017.3 mb 0.00 in0.0 mm 0.00 in0.0 mm 0.00 in0.0 mm
03:28 PM 85.6°F29.8°C 59.9°F15.5°C 42% 2.8 mph NE4.5 kmh NE 4.0 mph6.4 kmh 30.04 in1017.3 mb 0.00 in0.0 mm 0.00 in0.0 mm 0.00 in0.0 mm
03:29 PM 85.6°F29.8°C 59.9°F15.5°C 42% 3.1 mph NE5.0 kmh NE 6.9 mph11.1 kmh 30.04 in1017.3 mb 0.00 in0.0 mm 0.00 in0.0 mm 0.00 in0.0 mm
03:30 PM 85.8°F29.9°C 60.1°F15.6°C 42% 3.4 mph E5.5 kmh E 6.9 mph11.1 kmh 30.04 in1017.3 mb 0.00 in0.0 mm 0.00 in0.0 mm 0.00 in0.0 mm
03:31 PM 85.5°F29.7°C 59.8°F15.4°C 42% 3.6 mph E5.8 kmh E 6.9 mph11.1 kmh 30.04 in1017.3 mb 0.00 in0.0 mm 0.00 in0.0 mm 0.00 in0.0 mm
03:32 PM 85.5°F29.7°C 59.8°F15.4°C 42% 3.7 mph E6.0 kmh E 6.9 mph11.1 kmh 30.04 in1017.3 mb 0.00 in0.0 mm 0.00 in0.0 mm 0.00 in0.0 mm
03:33 PM 84.9°F29.4°C 59.3°F15.2°C 42% 4.1 mph E6.6 kmh E 6.9 mph11.1 kmh 30.04 in1017.3 mb 0.00 in0.0 mm 0.00 in0.0 mm 0.00 in0.0 mm
03:34 PM 84.9°F29.4°C 59.3°F15.2°C 42% 4.1 mph E6.6 kmh E 6.9 mph11.1 kmh 30.04 in1017.3 mb 0.00 in0.0 mm 0.00 in0.0 mm 0.00 in0.0 mm
03:35 PM 85.3°F29.6°C 60.3°F15.7°C 43% 4.1 mph E6.6 kmh E 6.9 mph11.1 kmh 30.04 in1017.3 mb 0.00 in0.0 mm 0.00 in0.0 mm 0.00 in0.0 mm
03:36 PM 85.3°F29.6°C 60.3°F15.7°C 43% 4.3 mph E6.9 kmh E 6.9 mph11.1 kmh 30.04 in1017.3 mb 0.00 in0.0 mm 0.00 in0.0 mm 0.00 in0.0 mm
03:37 PM 85.1°F29.5°C 60.1°F15.6°C 43% 4.4 mph E7.1 kmh E 6.9 mph11.1 kmh 30.04 in1017.3 mb 0.00 in0.0 mm 0.00 in0.0 mm 0.00 in0.0 mm
03:38 PM 85.1°F29.5°C 60.1°F15.6°C 43% 4.6 mph ENE7.4 kmh ENE 6.9 mph11.1 kmh 30.04 in1017.3 mb 0.00 in0.0 mm 0.00 in0.0 mm 0.00 in0.0 mm
03:39 PM 84.7°F29.3°C 60.4°F15.8°C 44% 4.3 mph E6.9 kmh E 6.9 mph11.1 kmh 30.04 in1017.3 mb 0.00 in0.0 mm 0.00 in0.0 mm 0.00 in0.0 mm
03:40 PM 85.6°F29.8°C 60.6°F15.9°C 43% 3.9 mph ENE6.3 kmh ENE 6.3 mph10.1 kmh 30.04 in1017.3 mb 0.00 in0.0 mm 0.00 in0.0 mm 0.00 in0.0 mm
03:41 PM 85.6°F29.8°C 60.6°F15.9°C 43% 4.1 mph E6.6 kmh E 7.4 mph11.9 kmh 30.04 in1017.3 mb 0.00 in0.0 mm 0.00 in0.0 mm 0.00 in0.0 mm
03:42 PM 85.5°F29.7°C 60.4°F15.8°C 43% 4.5 mph E7.2 kmh E 7.6 mph12.2 kmh 30.04 in1017.3 mb 0.00 in0.0 mm 0.00 in0.0 mm 0.00 in0.0 mm
03:43 PM 85.5°F29.7°C 60.4°F15.8°C 43% 4.2 mph E6.8 kmh E 7.6 mph12.2 kmh 30.04 in1017.3 mb 0.00 in0.0 mm 0.00 in0.0 mm 0.00 in0.0 mm
03:44 PM 85.5°F29.7°C 60.4°F15.8°C 43% 3.8 mph E6.1 kmh E 7.6 mph12.2 kmh 30.04 in1017.3 mb 0.00 in0.0 mm 0.00 in0.0 mm 0.00 in0.0 mm
03:45 PM 85.5°F29.7°C 60.4°F15.8°C 43% 3.8 mph E6.1 kmh E 7.6 mph12.2 kmh 30.04 in1017.3 mb 0.00 in0.0 mm 0.00 in0.0 mm 0.00 in0.0 mm
03:46 PM 84.6°F29.2°C 59.6°F15.3°C 43% 3.9 mph E6.3 kmh E 7.6 mph12.2 kmh 30.04 in1017.3 mb 0.00 in0.0 mm 0.00 in0.0 mm 0.00 in0.0 mm
03:47 PM 84.6°F29.2°C 59.6°F15.3°C 43% 3.9 mph E6.3 kmh E 7.6 mph12.2 kmh 30.04 in1017.3 mb 0.00 in0.0 mm 0.00 in0.0 mm 0.00 in0.0 mm
03:48 PM 85.5°F29.7°C 60.4°F15.8°C 43% 3.9 mph E6.3 kmh E 7.6 mph12.2 kmh 30.04 in1017.3 mb 0.00 in0.0 mm 0.00 in0.0 mm 0.00 in0.0 mm
03:49 PM 85.5°F29.7°C 60.4°F15.8°C 43% 3.9 mph E6.3 kmh E 7.6 mph12.2 kmh 30.04 in1017.3 mb 0.00 in0.0 mm 0.00 in0.0 mm 0.00 in0.0 mm
03:50 PM 85.6°F29.8°C 61.2°F16.2°C 44% 3.8 mph E6.1 kmh E 7.6 mph12.2 kmh 30.04 in1017.3 mb 0.00 in0.0 mm 0.00 in0.0 mm 0.00 in0.0 mm
03:51 PM 85.6°F29.8°C 61.2°F16.2°C 44% 3.4 mph E5.5 kmh E 7.6 mph12.2 kmh 30.04 in1017.3 mb 0.00 in0.0 mm 0.00 in0.0 mm 0.00 in0.0 mm
03:52 PM 86.4°F30.2°C 61.2°F16.2°C 43% 2.6 mph ENE4.2 kmh ENE 4.9 mph7.9 kmh 30.04 in1017.3 mb 0.00 in0.0 mm 0.00 in0.0 mm 0.00 in0.0 mm
03:53 PM 86.4°F30.2°C 61.2°F16.2°C 43% 2.5 mph ENE4.0 kmh ENE 4.9 mph7.9 kmh 30.04 in1017.3 mb 0.00 in0.0 mm 0.00 in0.0 mm 0.00 in0.0 mm
03:54 PM 87.1°F30.6°C 61.9°F16.6°C 43% 2.5 mph ENE4.0 kmh ENE 4.9 mph7.9 kmh 30.04 in1017.3 mb 0.00 in0.0 mm 0.00 in0.0 mm 0.00 in0.0 mm
03:55 PM 86.7°F30.4°C 61.5°F16.4°C 43% 2.9 mph ENE4.7 kmh ENE 6.0 mph9.7 kmh 30.04 in1017.3 mb 0.00 in0.0 mm 0.00 in0.0 mm 0.00 in0.0 mm
03:56 PM 86.7°F30.4°C 61.5°F16.4°C 43% 3.1 mph E5.0 kmh E 7.2 mph11.6 kmh 30.04 in1017.3 mb 0.00 in0.0 mm 0.00 in0.0 mm 0.00 in0.0 mm
03:57 PM 85.5°F29.7°C 60.4°F15.8°C 43% 2.7 mph E4.3 kmh E 7.2 mph11.6 kmh 30.04 in1017.3 mb 0.00 in0.0 mm 0.00 in0.0 mm 0.00 in0.0 mm
03:58 PM 85.5°F29.7°C 60.4°F15.8°C 43% 2.6 mph E4.2 kmh E 7.2 mph11.6 kmh 30.04 in1017.3 mb 0.00 in0.0 mm 0.00 in0.0 mm 0.00 in0.0 mm
03:59 PM 85.5°F29.7°C 60.4°F15.8°C 43% 2.5 mph E4.0 kmh E 7.2 mph11.6 kmh 30.04 in1017.3 mb 0.00 in0.0 mm 0.00 in0.0 mm 0.00 in0.0 mm
04:00 PM 85.5°F29.7°C 60.4°F15.8°C 43% 2.5 mph E4.0 kmh E 7.2 mph11.6 kmh 30.04 in1017.3 mb 0.00 in0.0 mm 0.00 in0.0 mm 0.00 in0.0 mm
04:01 PM 86.0°F30.0°C 60.2°F15.7°C 42% 2.4 mph E3.9 kmh E 7.2 mph11.6 kmh 30.04 in1017.3 mb 0.00 in0.0 mm 0.00 in0.0 mm 0.00 in0.0 mm
04:02 PM 85.1°F29.5°C 60.1°F15.6°C 43% 2.8 mph E4.5 kmh E 7.2 mph11.6 kmh 30.04 in1017.3 mb 0.00 in0.0 mm 0.00 in0.0 mm 0.00 in0.0 mm
04:03 PM 85.1°F29.5°C 60.1°F15.6°C 43% 2.8 mph E4.5 kmh E 7.2 mph11.6 kmh 30.04 in1017.3 mb 0.00 in0.0 mm 0.00 in0.0 mm 0.00 in0.0 mm
04:04 PM 85.3°F29.6°C 60.9°F16.1°C 44% 3.3 mph E5.3 kmh E 7.2 mph11.6 kmh 30.04 in1017.3 mb 0.00 in0.0 mm 0.00 in0.0 mm 0.00 in0.0 mm
04:05 PM 85.3°F29.6°C 60.9°F16.1°C 44% 3.3 mph E5.3 kmh E 7.2 mph11.6 kmh 30.04 in1017.3 mb 0.00 in0.0 mm 0.00 in0.0 mm 0.00 in0.0 mm
04:06 PM 86.0°F30.0°C 60.9°F16.1°C 43% 2.9 mph ESE4.7 kmh ESE 7.2 mph11.6 kmh 30.04 in1017.3 mb 0.00 in0.0 mm 0.00 in0.0 mm 0.00 in0.0 mm
04:07 PM 86.0°F30.0°C 60.9°F16.1°C 43% 2.5 mph E4.0 kmh E 4.3 mph6.9 kmh 30.04 in1017.3 mb 0.00 in0.0 mm 0.00 in0.0 mm 0.00 in0.0 mm
04:08 PM 86.4°F30.2°C 61.2°F16.2°C 43% 2.7 mph E4.3 kmh E 4.3 mph6.9 kmh 30.04 in1017.3 mb 0.00 in0.0 mm 0.00 in0.0 mm 0.00 in0.0 mm
04:09 PM 85.8°F29.9°C 60.1°F15.6°C 42% 2.9 mph E4.7 kmh E 4.3 mph6.9 kmh 30.04 in1017.3 mb 0.00 in0.0 mm 0.00 in0.0 mm 0.00 in0.0 mm
04:10 PM 85.8°F29.9°C 60.1°F15.6°C 42% 3.1 mph E5.0 kmh E 5.6 mph9.0 kmh 30.04 in1017.3 mb 0.00 in0.0 mm 0.00 in0.0 mm 0.00 in0.0 mm
04:11 PM 85.3°F29.6°C 60.3°F15.7°C 43% 3.1 mph E5.0 kmh E 5.6 mph9.0 kmh 30.04 in1017.3 mb 0.00 in0.0 mm 0.00 in0.0 mm 0.00 in0.0 mm
04:12 PM 85.3°F29.6°C 60.3°F15.7°C 43% 3.0 mph E4.8 kmh E 5.6 mph9.0 kmh 30.04 in1017.3 mb 0.00 in0.0 mm 0.00 in0.0 mm 0.00 in0.0 mm
04:13 PM 85.5°F29.7°C 60.4°F15.8°C 43% 3.0 mph E4.8 kmh E 5.6 mph9.0 kmh 30.04 in1017.3 mb 0.00 in0.0 mm 0.00 in0.0 mm 0.00 in0.0 mm
04:14 PM 85.5°F29.7°C 60.4°F15.8°C 43% 2.9 mph E4.7 kmh E 5.6 mph9.0 kmh 30.04 in1017.3 mb 0.00 in0.0 mm 0.00 in0.0 mm 0.00 in0.0 mm
04:15 PM 85.3°F29.6°C 60.3°F15.7°C 43% 2.8 mph E4.5 kmh E 5.6 mph9.0 kmh 30.04 in1017.3 mb 0.00 in0.0 mm 0.00 in0.0 mm 0.00 in0.0 mm
04:16 PM 85.3°F29.6°C 60.3°F15.7°C 43% 2.7 mph E4.3 kmh E 5.6 mph9.0 kmh 30.04 in1017.3 mb 0.00 in0.0 mm 0.00 in0.0 mm 0.00 in0.0 mm
04:17 PM 86.2°F30.1°C 61.1°F16.2°C 43% 2.7 mph E4.3 kmh E 5.6 mph9.0 kmh 30.04 in1017.3 mb 0.00 in0.0 mm 0.00 in0.0 mm 0.00 in0.0 mm
04:18 PM 84.6°F29.2°C 60.2°F15.7°C 44% 2.8 mph E4.5 kmh E 5.6 mph9.0 kmh 30.04 in1017.3 mb 0.00 in0.0 mm 0.00 in0.0 mm 0.00 in0.0 mm
04:19 PM 84.6°F29.2°C 60.2°F15.7°C 44% 2.8 mph ENE4.5 kmh ENE 5.6 mph9.0 kmh 30.04 in1017.3 mb 0.00 in0.0 mm 0.00 in0.0 mm 0.00 in0.0 mm
04:20 PM 84.4°F29.1°C 60.1°F15.6°C 44% 2.5 mph ENE4.0 kmh ENE 4.7 mph7.6 kmh 30.04 in1017.3 mb 0.00 in0.0 mm 0.00 in0.0 mm 0.00 in0.0 mm
04:21 PM 83.5°F28.6°C 58.6°F14.8°C 43% 2.6 mph ENE4.2 kmh ENE 4.7 mph7.6 kmh 30.04 in1017.3 mb 0.00 in0.0 mm 0.00 in0.0 mm 0.00 in0.0 mm
04:22 PM 83.5°F28.6°C 58.6°F14.8°C 43% 2.7 mph NE4.3 kmh NE 4.7 mph7.6 kmh 30.04 in1017.3 mb 0.00 in0.0 mm 0.00 in0.0 mm 0.00 in0.0 mm
04:23 PM 82.2°F27.9°C 58.8°F14.9°C 45% 2.7 mph NE4.3 kmh NE 4.7 mph7.6 kmh 30.04 in1017.3 mb 0.00 in0.0 mm 0.00 in0.0 mm 0.00 in0.0 mm
04:24 PM 83.1°F28.4°C 60.2°F15.7°C 46% 2.7 mph NE4.3 kmh NE 4.7 mph7.6 kmh 30.04 in1017.3 mb 0.00 in0.0 mm 0.00 in0.0 mm 0.00 in0.0 mm
04:25 PM 83.1°F28.4°C 60.2°F15.7°C 46% 3.0 mph NE4.8 kmh NE 8.5 mph13.7 kmh 30.04 in1017.3 mb 0.00 in0.0 mm 0.00 in0.0 mm 0.00 in0.0 mm
04:26 PM 82.9°F28.3°C 59.4°F15.2°C 45% 3.2 mph NE5.1 kmh NE 8.5 mph13.7 kmh 30.04 in1017.3 mb 0.00 in0.0 mm 0.00 in0.0 mm 0.00 in0.0 mm
04:27 PM 82.9°F28.3°C 59.4°F15.2°C 45% 3.2 mph NE5.1 kmh NE 8.5 mph13.7 kmh 30.04 in1017.3 mb 0.00 in0.0 mm 0.00 in0.0 mm 0.00 in0.0 mm
04:28 PM 84.2°F29.0°C 60.6°F15.9°C 45% 3.1 mph NE5.0 kmh NE 8.5 mph13.7 kmh 30.04 in1017.3 mb 0.00 in0.0 mm 0.00 in0.0 mm 0.00 in0.0 mm
04:29 PM 84.2°F29.0°C 60.6°F15.9°C 45% 3.0 mph NE4.8 kmh NE 8.5 mph13.7 kmh 30.04 in1017.3 mb 0.00 in0.0 mm 0.00 in0.0 mm 0.00 in0.0 mm
04:30 PM 84.4°F29.1°C 60.7°F15.9°C 45% 3.3 mph NE5.3 kmh NE 8.5 mph13.7 kmh 30.04 in1017.3 mb 0.00 in0.0 mm 0.00 in0.0 mm 0.00 in0.0 mm
04:31 PM 84.4°F29.1°C 60.7°F15.9°C 45% 3.7 mph ENE6.0 kmh ENE 8.5 mph13.7 kmh 30.04 in1017.3 mb 0.00 in0.0 mm 0.00 in0.0 mm 0.00 in0.0 mm
04:32 PM 84.0°F28.9°C 60.4°F15.8°C 45% 4.0 mph ENE6.4 kmh ENE 8.5 mph13.7 kmh 30.04 in1017.3 mb 0.00 in0.0 mm 0.00 in0.0 mm 0.00 in0.0 mm
04:33 PM 85.1°F29.5°C 60.7°F15.9°C 44% 4.0 mph E6.4 kmh E 8.5 mph13.7 kmh 30.04 in1017.3 mb 0.00 in0.0 mm 0.00 in0.0 mm 0.00 in0.0 mm
04:34 PM 85.1°F29.5°C 60.7°F15.9°C 44% 4.0 mph E6.4 kmh E 8.5 mph13.7 kmh 30.04 in1017.3 mb 0.00 in0.0 mm 0.00 in0.0 mm 0.00 in0.0 mm
04:35 PM 84.7°F29.3°C 60.4°F15.8°C 44% 3.8 mph E6.1 kmh E 8.5 mph13.7 kmh 30.04 in1017.3 mb 0.00 in0.0 mm 0.00 in0.0 mm 0.00 in0.0 mm
04:36 PM 84.7°F29.3°C 60.4°F15.8°C 44% 3.8 mph E6.1 kmh E 8.5 mph13.7 kmh 30.04 in1017.3 mb 0.00 in0.0 mm 0.00 in0.0 mm 0.00 in0.0 mm
04:37 PM 85.3°F29.6°C 61.5°F16.4°C 45% 3.7 mph E6.0 kmh E 8.5 mph13.7 kmh 30.04 in1017.3 mb 0.00 in0.0 mm 0.00 in0.0 mm 0.00 in0.0 mm
04:38 PM 85.3°F29.6°C 61.5°F16.4°C 45% 3.7 mph E6.0 kmh E 8.5 mph13.7 kmh 30.04 in1017.3 mb 0.00 in0.0 mm 0.00 in0.0 mm 0.00 in0.0 mm
04:39 PM 85.3°F29.6°C 60.9°F16.1°C 44% 3.6 mph E5.8 kmh E 8.5 mph13.7 kmh 30.04 in1017.3 mb 0.00 in0.0 mm 0.00 in0.0 mm 0.00 in0.0 mm
04:40 PM 85.3°F29.6°C 60.9°F16.1°C 44% 3.4 mph E5.5 kmh E 8.5 mph13.7 kmh 30.04 in1017.3 mb 0.00 in0.0 mm 0.00 in0.0 mm 0.00 in0.0 mm
04:41 PM 85.3°F29.6°C 60.9°F16.1°C 44% 3.0 mph E4.8 kmh E 8.5 mph13.7 kmh 30.04 in1017.3 mb 0.00 in0.0 mm 0.00 in0.0 mm 0.00 in0.0 mm
04:42 PM 84.9°F29.4°C 60.6°F15.9°C 44% 2.7 mph E4.3 kmh E 3.8 mph6.1 kmh 30.04 in1017.3 mb 0.00 in0.0 mm 0.00 in0.0 mm 0.00 in0.0 mm
04:43 PM 84.9°F29.4°C 60.6°F15.9°C 44% 2.6 mph E4.2 kmh E 3.8 mph6.1 kmh 30.04 in1017.3 mb 0.00 in0.0 mm 0.00 in0.0 mm 0.00 in0.0 mm
04:44 PM 84.0°F28.9°C 59.1°F15.1°C 43% 2.6 mph E4.2 kmh E 3.8 mph6.1 kmh 30.04 in1017.3 mb 0.00 in0.0 mm 0.00 in0.0 mm 0.00 in0.0 mm
04:45 PM 84.0°F28.9°C 59.1°F15.1°C 43% 2.5 mph E4.0 kmh E 3.8 mph6.1 kmh 30.04 in1017.3 mb 0.00 in0.0 mm 0.00 in0.0 mm 0.00 in0.0 mm
04:46 PM 83.7°F28.7°C 58.8°F14.9°C 43% 2.3 mph E3.7 kmh E 3.6 mph5.8 kmh 30.04 in1017.3 mb 0.00 in0.0 mm 0.00 in0.0 mm 0.00 in0.0 mm
04:47 PM 83.5°F28.6°C 59.3°F15.2°C 44% 2.6 mph E4.2 kmh E 4.9 mph7.9 kmh 30.04 in1017.3 mb 0.00 in0.0 mm 0.00 in0.0 mm 0.00 in0.0 mm
04:48 PM 83.5°F28.6°C 59.3°F15.2°C 44% 2.8 mph E4.5 kmh E 4.9 mph7.9 kmh 30.04 in1017.3 mb 0.00 in0.0 mm 0.00 in0.0 mm 0.00 in0.0 mm
04:49 PM 84.2°F29.0°C 59.9°F15.5°C 44% 3.1 mph E5.0 kmh E 4.9 mph7.9 kmh 30.04 in1017.3 mb 0.00 in0.0 mm 0.00 in0.0 mm 0.00 in0.0 mm
04:50 PM 84.2°F29.0°C 59.9°F15.5°C 44% 3.1 mph E5.0 kmh E 4.9 mph7.9 kmh 30.04 in1017.3 mb 0.00 in0.0 mm 0.00 in0.0 mm 0.00 in0.0 mm
04:51 PM 84.4°F29.1°C 60.1°F15.6°C 44% 3.2 mph E5.1 kmh E 4.9 mph7.9 kmh 30.04 in1017.3 mb 0.00 in0.0 mm 0.00 in0.0 mm 0.00 in0.0 mm
04:52 PM 84.4°F29.1°C 60.1°F15.6°C 44% 3.1 mph E5.0 kmh E 4.9 mph7.9 kmh 30.04 in1017.3 mb 0.00 in0.0 mm 0.00 in0.0 mm 0.00 in0.0 mm
04:53 PM 84.7°F29.3°C 59.8°F15.4°C 43% 3.1 mph E5.0 kmh E 4.9 mph7.9 kmh 30.04 in1017.3 mb 0.00 in0.0 mm 0.00 in0.0 mm 0.00 in0.0 mm
04:54 PM 84.7°F29.3°C 59.8°F15.4°C 43% 3.1 mph E5.0 kmh E 4.9 mph7.9 kmh 30.04 in1017.3 mb 0.00 in0.0 mm 0.00 in0.0 mm 0.00 in0.0 mm
04:55 PM 85.6°F29.8°C 60.6°F15.9°C 43% 3.0 mph E4.8 kmh E 4.9 mph7.9 kmh 30.04 in1017.3 mb 0.00 in0.0 mm 0.00 in0.0 mm 0.00 in0.0 mm
04:56 PM 85.6°F29.8°C 60.6°F15.9°C 43% 3.0 mph ESE4.8 kmh ESE 4.9 mph7.9 kmh 30.04 in1017.3 mb 0.00 in0.0 mm 0.00 in0.0 mm 0.00 in0.0 mm
04:57 PM 84.9°F29.4°C 59.9°F15.5°C 43% 2.9 mph ESE4.7 kmh ESE 4.9 mph7.9 kmh 30.04 in1017.3 mb 0.00 in0.0 mm 0.00 in0.0 mm 0.00 in0.0 mm
04:58 PM 84.9°F29.4°C 59.9°F15.5°C 43% 2.7 mph ESE4.3 kmh ESE 4.3 mph6.9 kmh 30.04 in1017.3 mb 0.00 in0.0 mm 0.00 in0.0 mm 0.00 in0.0 mm
04:59 PM 84.4°F29.1°C 60.1°F15.6°C 44% 2.6 mph ESE4.2 kmh ESE 4.3 mph6.9 kmh 30.04 in1017.3 mb 0.00 in0.0 mm 0.00 in0.0 mm 0.00 in0.0 mm
05:00 PM 84.4°F29.1°C 60.1°F15.6°C 44% 2.6 mph ESE4.2 kmh ESE 3.6 mph5.8 kmh 30.04 in1017.3 mb 0.00 in0.0 mm 0.00 in0.0 mm 0.00 in0.0 mm
05:01 PM 83.5°F28.6°C 59.9°F15.5°C 45% 2.7 mph SE4.3 kmh SE 4.5 mph7.2 kmh 30.04 in1017.3 mb 0.00 in0.0 mm 0.00 in0.0 mm 0.00 in0.0 mm
05:02 PM 81.9°F27.7°C 59.1°F15.1°C 46% 2.7 mph SE4.3 kmh SE 4.5 mph7.2 kmh 30.04 in1017.3 mb 0.00 in0.0 mm 0.00 in0.0 mm 0.00 in0.0 mm
05:03 PM 81.9°F27.7°C 59.1°F15.1°C 46% 2.8 mph SE4.5 kmh SE 4.5 mph7.2 kmh 30.04 in1017.3 mb 0.00 in0.0 mm 0.00 in0.0 mm 0.00 in0.0 mm
05:04 PM 81.5°F27.5°C 59.3°F15.2°C 47% 2.6 mph SE4.2 kmh SE 4.5 mph7.2 kmh 30.04 in1017.3 mb 0.00 in0.0 mm 0.00 in0.0 mm 0.00 in0.0 mm
05:05 PM 81.5°F27.5°C 59.3°F15.2°C 47% 2.8 mph ESE4.5 kmh ESE 4.9 mph7.9 kmh 30.04 in1017.3 mb 0.00 in0.0 mm 0.00 in0.0 mm 0.00 in0.0 mm
05:06 PM 82.6°F28.1°C 59.7°F15.4°C 46% 3.1 mph ESE5.0 kmh ESE 4.9 mph7.9 kmh 30.04 in1017.3 mb 0.00 in0.0 mm 0.00 in0.0 mm 0.00 in0.0 mm
05:07 PM 82.6°F28.1°C 59.7°F15.4°C 46% 3.0 mph ESE4.8 kmh ESE 4.9 mph7.9 kmh 30.04 in1017.3 mb 0.00 in0.0 mm 0.00 in0.0 mm 0.00 in0.0 mm
05:08 PM 82.9°F28.3°C 60.0°F15.6°C 46% 3.0 mph ESE4.8 kmh ESE 4.9 mph7.9 kmh 30.04 in1017.3 mb 0.00 in0.0 mm 0.00 in0.0 mm 0.00 in0.0 mm
05:09 PM 82.9°F28.3°C 60.0°F15.6°C 46% 2.9 mph ESE4.7 kmh ESE 4.9 mph7.9 kmh 30.04 in1017.3 mb 0.00 in0.0 mm 0.00 in0.0 mm 0.00 in0.0 mm
05:10 PM 83.8°F28.8°C 60.8°F16.0°C 46% 2.8 mph ESE4.5 kmh ESE 4.9 mph7.9 kmh 30.04 in1017.3 mb 0.00 in0.0 mm 0.00 in0.0 mm 0.00 in0.0 mm
05:11 PM 84.4°F29.1°C 61.3°F16.3°C 46% 3.1 mph E5.0 kmh E 6.5 mph10.5 kmh 30.04 in1017.3 mb 0.00 in0.0 mm 0.00 in0.0 mm 0.00 in0.0 mm
05:12 PM 84.4°F29.1°C 61.3°F16.3°C 46% 2.9 mph ENE4.7 kmh ENE 6.5 mph10.5 kmh 30.04 in1017.3 mb 0.00 in0.0 mm 0.00 in0.0 mm 0.00 in0.0 mm
05:13 PM 84.7°F29.3°C 61.7°F16.5°C 46% 3.3 mph NNE5.3 kmh NNE 6.5 mph10.5 kmh 30.04 in1017.3 mb 0.00 in0.0 mm 0.00 in0.0 mm 0.00 in0.0 mm
05:14 PM 84.7°F29.3°C 61.7°F16.5°C 46% 3.5 mph NE5.6 kmh NE 6.5 mph10.5 kmh 30.04 in1017.3 mb 0.00 in0.0 mm 0.00 in0.0 mm 0.00 in0.0 mm
05:15 PM 84.6°F29.2°C 61.5°F16.4°C 46% 3.6 mph NE5.8 kmh NE 6.5 mph10.5 kmh 30.04 in1017.3 mb 0.00 in0.0 mm 0.00 in0.0 mm 0.00 in0.0 mm
05:16 PM 84.6°F29.2°C 61.5°F16.4°C 46% 3.5 mph NE5.6 kmh NE 6.5 mph10.5 kmh 30.04 in1017.3 mb 0.00 in0.0 mm 0.00 in0.0 mm 0.00 in0.0 mm
05:17 PM 83.8°F28.8°C 60.2°F15.7°C 45% 3.4 mph NE5.5 kmh NE 6.5 mph10.5 kmh 30.04 in1017.3 mb 0.00 in0.0 mm 0.00 in0.0 mm 0.00 in0.0 mm
05:18 PM 83.8°F28.8°C 60.8°F16.0°C 46% 3.6 mph NE5.8 kmh NE 6.5 mph10.5 kmh 30.04 in1017.3 mb 0.00 in0.0 mm 0.00 in0.0 mm 0.00 in0.0 mm
05:19 PM 83.8°F28.8°C 60.8°F16.0°C 46% 3.7 mph NE6.0 kmh NE 6.5 mph10.5 kmh 30.04 in1017.3 mb 0.00 in0.0 mm 0.00 in0.0 mm 0.00 in0.0 mm
05:20 PM 83.7°F28.7°C 61.3°F16.3°C 47% 3.6 mph NE5.8 kmh NE 6.5 mph10.5 kmh 30.04 in1017.3 mb 0.00 in0.0 mm 0.00 in0.0 mm 0.00 in0.0 mm
05:21 PM 83.7°F28.7°C 61.3°F16.3°C 47% 3.3 mph NNE5.3 kmh NNE 6.5 mph10.5 kmh 30.04 in1017.3 mb 0.00 in0.0 mm 0.00 in0.0 mm 0.00 in0.0 mm
05:22 PM 83.7°F28.7°C 60.7°F15.9°C 46% 3.5 mph NNE5.6 kmh NNE 6.0 mph9.7 kmh 30.04 in1017.3 mb 0.00 in0.0 mm 0.00 in0.0 mm 0.00 in0.0 mm
05:23 PM 83.7°F28.7°C 60.7°F15.9°C 46% 3.3 mph NNE5.3 kmh NNE 6.0 mph9.7 kmh 30.04 in1017.3 mb 0.00 in0.0 mm 0.00 in0.0 mm 0.00 in0.0 mm
05:24 PM 83.8°F28.8°C 61.5°F16.4°C 47% 2.9 mph NE4.7 kmh NE 5.4 mph8.7 kmh 30.04 in1017.3 mb 0.00 in0.0 mm 0.00 in0.0 mm 0.00 in0.0 mm
05:25 PM 83.8°F28.8°C 61.5°F16.4°C 47% 2.7 mph NNE4.3 kmh NNE 5.4 mph8.7 kmh 30.04 in1017.3 mb 0.00 in0.0 mm 0.00 in0.0 mm 0.00 in0.0 mm
05:26 PM 83.8°F28.8°C 61.5°F16.4°C 47% 2.7 mph NNE4.3 kmh NNE 5.4 mph8.7 kmh 30.04 in1017.3 mb 0.00 in0.0 mm 0.00 in0.0 mm 0.00 in0.0 mm
05:27 PM 83.7°F28.7°C 61.3°F16.3°C 47% 2.4 mph NNE3.9 kmh NNE 5.4 mph8.7 kmh 30.04 in1017.3 mb 0.00 in0.0 mm 0.00 in0.0 mm 0.00 in0.0 mm
05:28 PM 83.7°F28.7°C 61.3°F16.3°C 47% 2.2 mph NE3.5 kmh NE 5.4 mph8.7 kmh 30.04 in1017.3 mb 0.00 in0.0 mm 0.00 in0.0 mm 0.00 in0.0 mm
05:29 PM 83.3°F28.5°C 61.0°F16.1°C 47% 2.2 mph NE3.5 kmh NE 5.4 mph8.7 kmh 30.04 in1017.3 mb 0.00 in0.0 mm 0.00 in0.0 mm 0.00 in0.0 mm
05:30 PM 82.6°F28.1°C 60.3°F15.7°C 47% 2.4 mph NE3.9 kmh NE 5.4 mph8.7 kmh 30.04 in1017.3 mb 0.00 in0.0 mm 0.00 in0.0 mm 0.00 in0.0 mm
05:31 PM 82.6°F28.1°C 60.3°F15.7°C 47% 2.6 mph NE4.2 kmh NE 5.4 mph8.7 kmh 30.04 in1017.3 mb 0.00 in0.0 mm 0.00 in0.0 mm 0.00 in0.0 mm
05:32 PM 82.8°F28.2°C 60.5°F15.8°C 47% 2.6 mph NE4.2 kmh NE 6.0 mph9.7 kmh 30.04 in1017.3 mb 0.00 in0.0 mm 0.00 in0.0 mm 0.00 in0.0 mm
05:33 PM 82.9°F28.3°C 61.2°F16.2°C 48% 2.6 mph NE4.2 kmh NE 6.0 mph9.7 kmh 30.04 in1017.3 mb 0.00 in0.0 mm 0.00 in0.0 mm 0.00 in0.0 mm
05:34 PM 82.9°F28.3°C 61.2°F16.2°C 48% 2.6 mph NE4.2 kmh NE 6.0 mph9.7 kmh 30.04 in1017.3 mb 0.00 in0.0 mm 0.00 in0.0 mm 0.00 in0.0 mm
05:35 PM 83.1°F28.4°C 61.4°F16.3°C 48% 3.1 mph NE5.0 kmh NE 6.0 mph9.7 kmh 30.04 in1017.3 mb 0.00 in0.0 mm 0.00 in0.0 mm 0.00 in0.0 mm
05:36 PM 83.1°F28.4°C 61.4°F16.3°C 48% 3.1 mph NE5.0 kmh NE 6.0 mph9.7 kmh 30.01 in1016.3 mb 0.00 in0.0 mm 0.00 in0.0 mm 0.00 in0.0 mm
05:37 PM 83.1°F28.4°C 62.0°F16.7°C 49% 3.1 mph NE5.0 kmh NE 6.0 mph9.7 kmh 30.01 in1016.3 mb 0.00 in0.0 mm 0.00 in0.0 mm 0.00 in0.0 mm
05:38 PM 83.1°F28.4°C 62.0°F16.7°C 49% 3.1 mph NE5.0 kmh NE 6.0 mph9.7 kmh 30.01 in1016.3 mb 0.00 in0.0 mm 0.00 in0.0 mm 0.00 in0.0 mm
05:39 PM 83.1°F28.4°C 62.0°F16.7°C 49% 3.1 mph NE5.0 kmh NE 6.0 mph9.7 kmh 30.01 in1016.3 mb 0.00 in0.0 mm 0.00 in0.0 mm 0.00 in0.0 mm
05:40 PM 84.0°F28.9°C 62.8°F17.1°C 49% 3.0 mph NE4.8 kmh NE 6.0 mph9.7 kmh 30.01 in1016.3 mb 0.00 in0.0 mm 0.00 in0.0 mm 0.00 in0.0 mm
05:41 PM 84.0°F28.9°C 62.8°F17.1°C 49% 3.0 mph NE4.8 kmh NE 6.0 mph9.7 kmh 30.01 in1016.3 mb 0.00 in0.0 mm 0.00 in0.0 mm 0.00 in0.0 mm
05:42 PM 83.5°F28.6°C 61.7°F16.5°C 48% 2.8 mph NE4.5 kmh NE 4.9 mph7.9 kmh 30.01 in1016.3 mb 0.00 in0.0 mm 0.00 in0.0 mm 0.00 in0.0 mm
05:43 PM 83.5°F28.6°C 61.7°F16.5°C 48% 2.8 mph NE4.5 kmh NE 4.9 mph7.9 kmh 30.01 in1016.3 mb 0.00 in0.0 mm 0.00 in0.0 mm 0.00 in0.0 mm
05:44 PM 82.6°F28.1°C 61.5°F16.4°C 49% 2.7 mph NE4.3 kmh NE 4.9 mph7.9 kmh 30.01 in1016.3 mb 0.00 in0.0 mm 0.00 in0.0 mm 0.00 in0.0 mm
05:45 PM 82.6°F28.1°C 61.5°F16.4°C 49% 2.3 mph NE3.7 kmh NE 3.8 mph6.1 kmh 30.01 in1016.3 mb 0.00 in0.0 mm 0.00 in0.0 mm 0.00 in0.0 mm
05:46 PM 82.4°F28.0°C 61.3°F16.3°C 49% 2.4 mph NE3.9 kmh NE 3.8 mph6.1 kmh 30.01 in1016.3 mb 0.00 in0.0 mm 0.00 in0.0 mm 0.00 in0.0 mm
05:47 PM 82.4°F28.0°C 61.3°F16.3°C 49% 2.8 mph ENE4.5 kmh ENE 6.3 mph10.1 kmh 30.01 in1016.3 mb 0.00 in0.0 mm 0.00 in0.0 mm 0.00 in0.0 mm
05:48 PM 82.6°F28.1°C 61.5°F16.4°C 49% 3.0 mph E4.8 kmh E 6.3 mph10.1 kmh 30.01 in1016.3 mb 0.00 in0.0 mm 0.00 in0.0 mm 0.00 in0.0 mm
05:49 PM 82.8°F28.2°C 61.6°F16.4°C 49% 3.4 mph E5.5 kmh E 6.3 mph10.1 kmh 30.01 in1016.3 mb 0.00 in0.0 mm 0.00 in0.0 mm 0.00 in0.0 mm
05:50 PM 82.8°F28.2°C 61.6°F16.4°C 49% 3.3 mph E5.3 kmh E 6.3 mph10.1 kmh 30.01 in1016.3 mb 0.00 in0.0 mm 0.00 in0.0 mm 0.00 in0.0 mm
05:51 PM 83.3°F28.5°C 62.1°F16.7°C 49% 3.1 mph E5.0 kmh E 6.3 mph10.1 kmh 30.01 in1016.3 mb 0.00 in0.0 mm 0.00 in0.0 mm 0.00 in0.0 mm
05:52 PM 83.3°F28.5°C 62.1°F16.7°C 49% 3.0 mph E4.8 kmh E 6.3 mph10.1 kmh 30.01 in1016.3 mb 0.00 in0.0 mm 0.00 in0.0 mm 0.00 in0.0 mm
05:53 PM 83.1°F28.4°C 61.4°F16.3°C 48% 3.2 mph E5.1 kmh E 6.3 mph10.1 kmh 30.01 in1016.3 mb 0.00 in0.0 mm 0.00 in0.0 mm 0.00 in0.0 mm
05:54 PM 83.1°F28.4°C 61.4°F16.3°C 48% 3.5 mph E5.6 kmh E 8.7 mph14.0 kmh 30.01 in1016.3 mb 0.00 in0.0 mm 0.00 in0.0 mm 0.00 in0.0 mm
05:55 PM 82.2°F27.9°C 60.6°F15.9°C 48% 4.1 mph ESE6.6 kmh ESE 8.7 mph14.0 kmh 30.01 in1016.3 mb 0.00 in0.0 mm 0.00 in0.0 mm 0.00 in0.0 mm
05:56 PM 83.3°F28.5°C 62.1°F16.7°C 49% 3.7 mph ESE6.0 kmh ESE 8.7 mph14.0 kmh 30.01 in1016.3 mb 0.00 in0.0 mm 0.00 in0.0 mm 0.00 in0.0 mm
05:57 PM 83.3°F28.5°C 62.1°F16.7°C 49% 3.6 mph ESE5.8 kmh ESE 8.7 mph14.0 kmh 30.01 in1016.3 mb 0.00 in0.0 mm 0.00 in0.0 mm 0.00 in0.0 mm
05:58 PM 82.9°F28.3°C 61.2°F16.2°C 48% 3.7 mph ESE6.0 kmh ESE 8.7 mph14.0 kmh 30.01 in1016.3 mb 0.00 in0.0 mm 0.00 in0.0 mm 0.00 in0.0 mm
05:59 PM 82.9°F28.3°C 61.2°F16.2°C 48% 3.7 mph E6.0 kmh E 8.7 mph14.0 kmh 30.01 in1016.3 mb 0.00 in0.0 mm 0.00 in0.0 mm 0.00 in0.0 mm
06:00 PM 82.6°F28.1°C 61.5°F16.4°C 49% 3.7 mph E6.0 kmh E 8.7 mph14.0 kmh 30.01 in1016.3 mb 0.00 in0.0 mm 0.00 in0.0 mm 0.00 in0.0 mm
06:01 PM 82.6°F28.1°C 61.5°F16.4°C 49% 3.8 mph E6.1 kmh E 8.7 mph14.0 kmh 30.01 in1016.3 mb 0.00 in0.0 mm 0.00 in0.0 mm 0.00 in0.0 mm
06:02 PM 82.0°F27.8°C 60.4°F15.8°C 48% 4.2 mph E6.8 kmh E 8.7 mph14.0 kmh 30.01 in1016.3 mb 0.00 in0.0 mm 0.00 in0.0 mm 0.00 in0.0 mm
06:03 PM 82.2°F27.9°C 60.6°F15.9°C 48% 3.9 mph E6.3 kmh E 8.7 mph14.0 kmh 30.01 in1016.3 mb 0.00 in0.0 mm 0.00 in0.0 mm 0.00 in0.0 mm
06:04 PM 81.5°F27.5°C 60.5°F15.8°C 49% 3.5 mph E5.6 kmh E 6.7 mph10.8 kmh 30.01 in1016.3 mb 0.00 in0.0 mm 0.00 in0.0 mm 0.00 in0.0 mm
06:05 PM 81.5°F27.5°C 60.5°F15.8°C 49% 2.9 mph ENE4.7 kmh ENE 5.6 mph9.0 kmh 30.01 in1016.3 mb 0.00 in0.0 mm 0.00 in0.0 mm 0.00 in0.0 mm
06:06 PM 81.5°F27.5°C 60.5°F15.8°C 49% 2.9 mph ENE4.7 kmh ENE 5.6 mph9.0 kmh 30.01 in1016.3 mb 0.00 in0.0 mm 0.00 in0.0 mm 0.00 in0.0 mm
06:07 PM 81.5°F27.5°C 60.5°F15.8°C 49% 3.0 mph ENE4.8 kmh ENE 5.6 mph9.0 kmh 30.01 in1016.3 mb 0.00 in0.0 mm 0.00 in0.0 mm 0.00 in0.0 mm
06:08 PM 82.4°F28.0°C 61.3°F16.3°C 49% 2.8 mph ENE4.5 kmh ENE 5.6 mph9.0 kmh 30.01 in1016.3 mb 0.00 in0.0 mm 0.00 in0.0 mm 0.00 in0.0 mm
06:09 PM 82.4°F28.0°C 61.3°F16.3°C 49% 2.4 mph NE3.9 kmh NE 5.6 mph9.0 kmh 30.01 in1016.3 mb 0.00 in0.0 mm 0.00 in0.0 mm 0.00 in0.0 mm
06:10 PM 82.2°F27.9°C 61.2°F16.2°C 49% 2.4 mph NE3.9 kmh NE 5.6 mph9.0 kmh 30.01 in1016.3 mb 0.00 in0.0 mm 0.00 in0.0 mm 0.00 in0.0 mm
06:11 PM 81.7°F27.6°C 60.1°F15.6°C 48% 2.3 mph ENE3.7 kmh ENE 5.6 mph9.0 kmh 30.01 in1016.3 mb 0.00 in0.0 mm 0.00 in0.0 mm 0.00 in0.0 mm
06:12 PM 81.7°F27.6°C 60.1°F15.6°C 48% 2.1 mph E3.4 kmh E 5.6 mph9.0 kmh 30.01 in1016.3 mb 0.00 in0.0 mm 0.00 in0.0 mm 0.00 in0.0 mm
06:13 PM 81.9°F27.7°C 60.2°F15.7°C 48% 2.2 mph ENE3.5 kmh ENE 5.6 mph9.0 kmh 30.01 in1016.3 mb 0.00 in0.0 mm 0.00 in0.0 mm 0.00 in0.0 mm
06:14 PM 81.9°F27.7°C 60.2°F15.7°C 48% 2.2 mph ENE3.5 kmh ENE 5.6 mph9.0 kmh 30.01 in1016.3 mb 0.00 in0.0 mm 0.00 in0.0 mm 0.00 in0.0 mm
06:15 PM 81.7°F27.6°C 60.1°F15.6°C 48% 2.3 mph ENE3.7 kmh ENE 5.6 mph9.0 kmh 30.01 in1016.3 mb 0.00 in0.0 mm 0.00 in0.0 mm 0.00 in0.0 mm
06:16 PM 81.7°F27.6°C 60.1°F15.6°C 48% 2.4 mph ENE3.9 kmh ENE 5.6 mph9.0 kmh 30.01 in1016.3 mb 0.00 in0.0 mm 0.00 in0.0 mm 0.00 in0.0 mm
06:17 PM 82.0°F27.8°C 61.0°F16.1°C 49% 3.1 mph E5.0 kmh E 6.5 mph10.5 kmh 30.01 in1016.3 mb 0.00 in0.0 mm 0.00 in0.0 mm 0.00 in0.0 mm
06:18 PM 81.9°F27.7°C 60.2°F15.7°C 48% 3.0 mph E4.8 kmh E 6.5 mph10.5 kmh 30.01 in1016.3 mb 0.00 in0.0 mm 0.00 in0.0 mm 0.00 in0.0 mm
06:19 PM 81.9°F27.7°C 60.2°F15.7°C 48% 3.2 mph ENE5.1 kmh ENE 6.5 mph10.5 kmh 30.01 in1016.3 mb 0.00 in0.0 mm 0.00 in0.0 mm 0.00 in0.0 mm
06:20 PM 81.3°F27.4°C 59.2°F15.1°C 47% 3.3 mph E5.3 kmh E 6.5 mph10.5 kmh 30.01 in1016.3 mb 0.00 in0.0 mm 0.00 in0.0 mm 0.00 in0.0 mm
06:21 PM 81.3°F27.4°C 59.2°F15.1°C 47% 3.4 mph E5.5 kmh E 6.5 mph10.5 kmh 30.04 in1017.3 mb 0.00 in0.0 mm 0.00 in0.0 mm 0.00 in0.0 mm
06:22 PM 81.0°F27.2°C 59.4°F15.2°C 48% 3.6 mph E5.8 kmh E 6.5 mph10.5 kmh 30.04 in1017.3 mb 0.00 in0.0 mm 0.00 in0.0 mm 0.00 in0.0 mm
06:23 PM 81.0°F27.2°C 59.4°F15.2°C 48% 3.8 mph E6.1 kmh E 7.6 mph12.2 kmh 30.04 in1017.3 mb 0.00 in0.0 mm 0.00 in0.0 mm 0.00 in0.0 mm
06:24 PM 79.9°F26.6°C 59.6°F15.3°C 50% 4.0 mph E6.4 kmh E 7.6 mph12.2 kmh 30.04 in1017.3 mb 0.00 in0.0 mm 0.00 in0.0 mm 0.00 in0.0 mm
06:25 PM 79.9°F26.6°C 59.6°F15.3°C 50% 3.9 mph E6.3 kmh E 7.6 mph12.2 kmh 30.04 in1017.3 mb 0.00 in0.0 mm 0.00 in0.0 mm 0.00 in0.0 mm
06:26 PM 80.2°F26.8°C 58.8°F14.9°C 48% 3.9 mph ESE6.3 kmh ESE 7.6 mph12.2 kmh 30.04 in1017.3 mb 0.00 in0.0 mm 0.00 in0.0 mm 0.00 in0.0 mm
06:27 PM 80.4°F26.9°C 58.9°F14.9°C 48% 3.0 mph ESE4.8 kmh ESE 7.6 mph12.2 kmh 30.04 in1017.3 mb 0.00 in0.0 mm 0.00 in0.0 mm 0.00 in0.0 mm
06:28 PM 80.4°F26.9°C 58.9°F14.9°C 48% 2.9 mph ESE4.7 kmh ESE 7.6 mph12.2 kmh 30.04 in1017.3 mb 0.00 in0.0 mm 0.00 in0.0 mm 0.00 in0.0 mm
06:29 PM 81.1°F27.3°C 60.2°F15.7°C 49% 2.6 mph ESE4.2 kmh ESE 7.6 mph12.2 kmh 30.04 in1017.3 mb 0.00 in0.0 mm 0.00 in0.0 mm 0.00 in0.0 mm
06:30 PM 81.1°F27.3°C 60.2°F15.7°C 49% 2.7 mph ESE4.3 kmh ESE 7.6 mph12.2 kmh 30.04 in1017.3 mb 0.00 in0.0 mm 0.00 in0.0 mm 0.00 in0.0 mm
06:31 PM 81.0°F27.2°C 60.0°F15.6°C 49% 2.8 mph ESE4.5 kmh ESE 7.6 mph12.2 kmh 30.04 in1017.3 mb 0.00 in0.0 mm 0.00 in0.0 mm 0.00 in0.0 mm
06:32 PM 81.0°F27.2°C 60.0°F15.6°C 49% 2.8 mph SE4.5 kmh SE 7.6 mph12.2 kmh 30.04 in1017.3 mb 0.00 in0.0 mm 0.00 in0.0 mm 0.00 in0.0 mm
06:33 PM 81.0°F27.2°C 60.0°F15.6°C 49% 2.5 mph SE4.0 kmh SE 4.7 mph7.6 kmh 30.04 in1017.3 mb 0.00 in0.0 mm 0.00 in0.0 mm 0.00 in0.0 mm
06:34 PM 81.5°F27.5°C 60.5°F15.8°C 49% 2.4 mph ESE3.9 kmh ESE 4.7 mph7.6 kmh 30.04 in1017.3 mb 0.00 in0.0 mm 0.00 in0.0 mm 0.00 in0.0 mm
06:35 PM 81.5°F27.5°C 60.5°F15.8°C 49% 2.3 mph ESE3.7 kmh ESE 4.7 mph7.6 kmh 30.04 in1017.3 mb 0.00 in0.0 mm 0.00 in0.0 mm 0.00 in0.0 mm
06:36 PM 81.0°F27.2°C 59.4°F15.2°C 48% 2.1 mph E3.4 kmh E 4.7 mph7.6 kmh 30.04 in1017.3 mb 0.00 in0.0 mm 0.00 in0.0 mm 0.00 in0.0 mm
06:37 PM 81.0°F27.2°C 59.4°F15.2°C 48% 2.6 mph ESE4.2 kmh ESE 4.7 mph7.6 kmh 30.04 in1017.3 mb 0.00 in0.0 mm 0.00 in0.0 mm 0.00 in0.0 mm
06:38 PM 80.8°F27.1°C 59.3°F15.2°C 48% 2.6 mph ESE4.2 kmh ESE 4.7 mph7.6 kmh 30.04 in1017.3 mb 0.00 in0.0 mm 0.00 in0.0 mm 0.00 in0.0 mm
06:39 PM 81.0°F27.2°C 60.0°F15.6°C 49% 2.7 mph ESE4.3 kmh ESE 4.7 mph7.6 kmh 30.04 in1017.3 mb 0.00 in0.0 mm 0.00 in0.0 mm 0.00 in0.0 mm
06:40 PM 81.0°F27.2°C 60.0°F15.6°C 49% 2.6 mph ESE4.2 kmh ESE 4.7 mph7.6 kmh 30.04 in1017.3 mb 0.00 in0.0 mm 0.00 in0.0 mm 0.00 in0.0 mm
06:41 PM 81.0°F27.2°C 60.0°F15.6°C 49% 2.5 mph ESE4.0 kmh ESE 4.7 mph7.6 kmh 30.04 in1017.3 mb 0.00 in0.0 mm 0.00 in0.0 mm 0.00 in0.0 mm
06:42 PM 80.4°F26.9°C 60.6°F15.9°C 51% 2.8 mph ESE4.5 kmh ESE 6.3 mph10.1 kmh 30.04 in1017.3 mb 0.00 in0.0 mm 0.00 in0.0 mm 0.00 in0.0 mm
06:43 PM 80.4°F26.9°C 60.6°F15.9°C 51% 3.0 mph ESE4.8 kmh ESE 6.3 mph10.1 kmh 30.04 in1017.3 mb 0.00 in0.0 mm 0.00 in0.0 mm 0.00 in0.0 mm
06:44 PM 79.9°F26.6°C 60.1°F15.6°C 51% 3.1 mph ESE5.0 kmh ESE 6.3 mph10.1 kmh 30.04 in1017.3 mb 0.00 in0.0 mm 0.00 in0.0 mm 0.00 in0.0 mm
06:45 PM 79.9°F26.6°C 60.1°F15.6°C 51% 3.0 mph ESE4.8 kmh ESE 6.3 mph10.1 kmh 30.04 in1017.3 mb 0.00 in0.0 mm 0.00 in0.0 mm 0.00 in0.0 mm
06:46 PM 79.7°F26.5°C 60.0°F15.6°C 51% 3.3 mph ESE5.3 kmh ESE 6.3 mph10.1 kmh 30.04 in1017.3 mb 0.00 in0.0 mm 0.00 in0.0 mm 0.00 in0.0 mm
06:47 PM 79.7°F26.5°C 60.0°F15.6°C 51% 3.6 mph ESE5.8 kmh ESE 6.3 mph10.1 kmh 30.04 in1017.3 mb 0.00 in0.0 mm 0.00 in0.0 mm 0.00 in0.0 mm
06:48 PM 79.0°F26.1°C 59.9°F15.5°C 52% 3.9 mph SE6.3 kmh SE 6.3 mph10.1 kmh 30.04 in1017.3 mb 0.00 in0.0 mm 0.00 in0.0 mm 0.00 in0.0 mm
06:49 PM 78.6°F25.9°C 59.5°F15.3°C 52% 4.0 mph SE6.4 kmh SE 6.3 mph10.1 kmh 30.04 in1017.3 mb 0.00 in0.0 mm 0.00 in0.0 mm 0.00 in0.0 mm
06:50 PM 78.6°F25.9°C 59.5°F15.3°C 52% 4.0 mph ESE6.4 kmh ESE 6.3 mph10.1 kmh 30.04 in1017.3 mb 0.00 in0.0 mm 0.00 in0.0 mm 0.00 in0.0 mm
06:51 PM 78.1°F25.6°C 60.1°F15.6°C 54% 4.0 mph ESE6.4 kmh ESE 6.3 mph10.1 kmh 30.04 in1017.3 mb 0.00 in0.0 mm 0.00 in0.0 mm 0.00 in0.0 mm
06:52 PM 78.1°F25.6°C 60.1°F15.6°C 54% 3.8 mph ESE6.1 kmh ESE 6.3 mph10.1 kmh 30.04 in1017.3 mb 0.00 in0.0 mm 0.00 in0.0 mm 0.00 in0.0 mm
06:53 PM 77.7°F25.4°C 59.7°F15.4°C 54% 3.5 mph ESE5.6 kmh ESE 6.0 mph9.7 kmh 30.04 in1017.3 mb 0.00 in0.0 mm 0.00 in0.0 mm 0.00 in0.0 mm
06:54 PM 77.7°F25.4°C 59.7°F15.4°C 54% 3.5 mph ESE5.6 kmh ESE 6.0 mph9.7 kmh 30.04 in1017.3 mb 0.00 in0.0 mm 0.00 in0.0 mm 0.00 in0.0 mm
06:55 PM 77.5°F25.3°C 59.6°F15.3°C 54% 3.6 mph ESE5.8 kmh ESE 6.0 mph9.7 kmh 30.04 in1017.3 mb 0.00 in0.0 mm 0.00 in0.0 mm 0.00 in0.0 mm
06:56 PM 77.5°F25.3°C 59.6°F15.3°C 54% 3.0 mph ESE4.8 kmh ESE 6.0 mph9.7 kmh 30.04 in1017.3 mb 0.00 in0.0 mm 0.00 in0.0 mm 0.00 in0.0 mm
06:57 PM 77.5°F25.3°C 59.6°F15.3°C 54% 2.6 mph ESE4.2 kmh ESE 4.3 mph6.9 kmh 30.04 in1017.3 mb 0.00 in0.0 mm 0.00 in0.0 mm 0.00 in0.0 mm
06:58 PM 77.4°F25.2°C 59.4°F15.2°C 54% 2.4 mph ESE3.9 kmh ESE 4.3 mph6.9 kmh 30.04 in1017.3 mb 0.00 in0.0 mm 0.00 in0.0 mm 0.00 in0.0 mm
06:59 PM 77.4°F25.2°C 59.4°F15.2°C 54% 2.2 mph ESE3.5 kmh ESE 3.6 mph5.8 kmh 30.04 in1017.3 mb 0.00 in0.0 mm 0.00 in0.0 mm 0.00 in0.0 mm
07:00 PM 77.2°F25.1°C 59.8°F15.4°C 55% 2.2 mph ESE3.5 kmh ESE 3.6 mph5.8 kmh 30.04 in1017.3 mb 0.00 in0.0 mm 0.00 in0.0 mm 0.00 in0.0 mm
07:01 PM 77.2°F25.1°C 59.8°F15.4°C 55% 2.3 mph ESE3.7 kmh ESE 5.6 mph9.0 kmh 30.04 in1017.3 mb 0.00 in0.0 mm 0.00 in0.0 mm 0.00 in0.0 mm
07:02 PM 77.2°F25.1°C 59.2°F15.1°C 54% 2.4 mph ESE3.9 kmh ESE 5.6 mph9.0 kmh 30.04 in1017.3 mb 0.00 in0.0 mm 0.00 in0.0 mm 0.00 in0.0 mm
07:03 PM 77.2°F25.1°C 59.2°F15.1°C 54% 2.3 mph ESE3.7 kmh ESE 5.6 mph9.0 kmh 30.04 in1017.3 mb 0.00 in0.0 mm 0.00 in0.0 mm 0.00 in0.0 mm
07:04 PM 77.4°F25.2°C 58.9°F14.9°C 53% 2.3 mph ESE3.7 kmh ESE 5.6 mph9.0 kmh 30.04 in1017.3 mb 0.00 in0.0 mm 0.00 in0.0 mm 0.00 in0.0 mm
07:05 PM 77.2°F25.1°C 58.7°F14.8°C 53% 2.0 mph ESE3.2 kmh ESE 5.6 mph9.0 kmh 30.04 in1017.3 mb 0.00 in0.0 mm 0.00 in0.0 mm 0.00 in0.0 mm
07:06 PM 77.2°F25.1°C 58.7°F14.8°C 53% 2.1 mph ESE3.4 kmh ESE 5.6 mph9.0 kmh 30.04 in1017.3 mb 0.00 in0.0 mm 0.00 in0.0 mm 0.00 in0.0 mm
07:07 PM 77.5°F25.3°C 60.1°F15.6°C 55% 2.1 mph ESE3.4 kmh ESE 5.6 mph9.0 kmh 30.04 in1017.3 mb 0.00 in0.0 mm 0.00 in0.0 mm 0.00 in0.0 mm
07:08 PM 77.5°F25.3°C 60.1°F15.6°C 55% 2.2 mph ESE3.5 kmh ESE 5.6 mph9.0 kmh 30.04 in1017.3 mb 0.00 in0.0 mm 0.00 in0.0 mm 0.00 in0.0 mm
07:09 PM 77.4°F25.2°C 59.4°F15.2°C 54% 2.3 mph ESE3.7 kmh ESE 5.6 mph9.0 kmh 30.04 in1017.3 mb 0.00 in0.0 mm 0.00 in0.0 mm 0.00 in0.0 mm
07:10 PM 77.4°F25.2°C 59.4°F15.2°C 54% 2.3 mph ESE3.7 kmh ESE 5.6 mph9.0 kmh 30.04 in1017.3 mb 0.00 in0.0 mm 0.00 in0.0 mm 0.00 in0.0 mm
07:11 PM 77.4°F25.2°C 59.9°F15.5°C 55% 2.1 mph ESE3.4 kmh ESE 5.6 mph9.0 kmh 30.04 in1017.3 mb 0.00 in0.0 mm 0.00 in0.0 mm 0.00 in0.0 mm
07:12 PM 77.7°F25.4°C 60.8°F16.0°C 56% 1.7 mph ESE2.7 kmh ESE 3.1 mph5.0 kmh 30.04 in1017.3 mb 0.00 in0.0 mm 0.00 in0.0 mm 0.00 in0.0 mm
07:13 PM 77.7°F25.4°C 60.8°F16.0°C 56% 1.6 mph ESE2.6 kmh ESE 3.1 mph5.0 kmh 30.04 in1017.3 mb 0.00 in0.0 mm 0.00 in0.0 mm 0.00 in0.0 mm
07:14 PM 77.9°F25.5°C 60.9°F16.1°C 56% 1.6 mph ESE2.6 kmh ESE 4.0 mph6.4 kmh 30.04 in1017.3 mb 0.00 in0.0 mm 0.00 in0.0 mm 0.00 in0.0 mm
07:15 PM 77.9°F25.5°C 60.9°F16.1°C 56% 1.9 mph ESE3.1 kmh ESE 4.5 mph7.2 kmh 30.04 in1017.3 mb 0.00 in0.0 mm 0.00 in0.0 mm 0.00 in0.0 mm
07:16 PM 77.5°F25.3°C 60.6°F15.9°C 56% 2.3 mph ESE3.7 kmh ESE 4.5 mph7.2 kmh 30.04 in1017.3 mb 0.00 in0.0 mm 0.00 in0.0 mm 0.00 in0.0 mm
07:17 PM 77.5°F25.3°C 60.6°F15.9°C 56% 2.6 mph SE4.2 kmh SE 4.7 mph7.6 kmh 30.04 in1017.3 mb 0.00 in0.0 mm 0.00 in0.0 mm 0.00 in0.0 mm
07:18 PM 77.4°F25.2°C 60.9°F16.1°C 57% 2.9 mph SE4.7 kmh SE 4.7 mph7.6 kmh 30.04 in1017.3 mb 0.00 in0.0 mm 0.00 in0.0 mm 0.00 in0.0 mm
07:19 PM 77.4°F25.2°C 61.9°F16.6°C 59% 3.0 mph SE4.8 kmh SE 4.7 mph7.6 kmh 30.04 in1017.3 mb 0.00 in0.0 mm 0.00 in0.0 mm 0.00 in0.0 mm
07:20 PM 77.4°F25.2°C 61.9°F16.6°C 59% 2.9 mph SE4.7 kmh SE 4.7 mph7.6 kmh 30.04 in1017.3 mb 0.00 in0.0 mm 0.00 in0.0 mm 0.00 in0.0 mm
07:21 PM 77.5°F25.3°C 61.6°F16.4°C 58% 3.1 mph SE5.0 kmh SE 4.7 mph7.6 kmh 30.04 in1017.3 mb 0.00 in0.0 mm 0.00 in0.0 mm 0.00 in0.0 mm
07:22 PM 77.5°F25.3°C 61.6°F16.4°C 58% 3.1 mph SE5.0 kmh SE 4.7 mph7.6 kmh 30.04 in1017.3 mb 0.00 in0.0 mm 0.00 in0.0 mm 0.00 in0.0 mm
07:23 PM 77.5°F25.3°C 61.6°F16.4°C 58% 3.6 mph SE5.8 kmh SE 4.7 mph7.6 kmh 30.04 in1017.3 mb 0.00 in0.0 mm 0.00 in0.0 mm 0.00 in0.0 mm
07:24 PM 77.5°F25.3°C 61.6°F16.4°C 58% 3.7 mph SE6.0 kmh SE 6.3 mph10.1 kmh 30.04 in1017.3 mb 0.00 in0.0 mm 0.00 in0.0 mm 0.00 in0.0 mm
07:25 PM 77.0°F25.0°C 61.6°F16.4°C 59% 3.9 mph SE6.3 kmh SE 6.3 mph10.1 kmh 30.04 in1017.3 mb 0.00 in0.0 mm 0.00 in0.0 mm 0.00 in0.0 mm
07:26 PM 77.0°F25.0°C 61.6°F16.4°C 59% 3.9 mph SE6.3 kmh SE 6.3 mph10.1 kmh 30.04 in1017.3 mb 0.00 in0.0 mm 0.00 in0.0 mm 0.00 in0.0 mm
07:27 PM 76.8°F24.9°C 61.9°F16.6°C 60% 3.9 mph SE6.3 kmh SE 6.3 mph10.1 kmh 30.04 in1017.3 mb 0.00 in0.0 mm 0.00 in0.0 mm 0.00 in0.0 mm
07:28 PM 76.8°F24.9°C 61.9°F16.6°C 60% 3.6 mph SE5.8 kmh SE 6.3 mph10.1 kmh 30.04 in1017.3 mb 0.00 in0.0 mm 0.00 in0.0 mm 0.00 in0.0 mm
07:29 PM 76.8°F24.9°C 61.9°F16.6°C 60% 3.7 mph SE6.0 kmh SE 6.3 mph10.1 kmh 30.04 in1017.3 mb 0.00 in0.0 mm 0.00 in0.0 mm 0.00 in0.0 mm
07:30 PM 76.6°F24.8°C 61.7°F16.5°C 60% 3.8 mph SE6.1 kmh SE 6.3 mph10.1 kmh 30.04 in1017.3 mb 0.00 in0.0 mm 0.00 in0.0 mm 0.00 in0.0 mm
07:31 PM 76.6°F24.8°C 61.7°F16.5°C 60% 3.6 mph SE5.8 kmh SE 6.3 mph10.1 kmh 30.04 in1017.3 mb 0.00 in0.0 mm 0.00 in0.0 mm 0.00 in0.0 mm
07:32 PM 76.8°F24.9°C 62.3°F16.8°C 61% 3.5 mph SE5.6 kmh SE 6.3 mph10.1 kmh 30.04 in1017.3 mb 0.00 in0.0 mm 0.00 in0.0 mm 0.00 in0.0 mm
07:33 PM 76.8°F24.9°C 62.3°F16.8°C 61% 3.4 mph SE5.5 kmh SE 6.3 mph10.1 kmh 30.04 in1017.3 mb 0.00 in0.0 mm 0.00 in0.0 mm 0.00 in0.0 mm
07:34 PM 76.6°F24.8°C 62.2°F16.8°C 61% 3.2 mph SE5.1 kmh SE 6.3 mph10.1 kmh 30.04 in1017.3 mb 0.00 in0.0 mm 0.00 in0.0 mm 0.00 in0.0 mm
07:35 PM 76.5°F24.7°C 62.0°F16.7°C 61% 3.1 mph SE5.0 kmh SE 5.8 mph9.3 kmh 30.04 in1017.3 mb 0.00 in0.0 mm 0.00 in0.0 mm 0.00 in0.0 mm
07:36 PM 76.5°F24.7°C 62.0°F16.7°C 61% 3.1 mph SE5.0 kmh SE 5.8 mph9.3 kmh 30.04 in1017.3 mb 0.00 in0.0 mm 0.00 in0.0 mm 0.00 in0.0 mm
07:37 PM 76.1°F24.5°C 62.6°F17.0°C 63% 3.3 mph SE5.3 kmh SE 5.8 mph9.3 kmh 30.04 in1017.3 mb 0.00 in0.0 mm 0.00 in0.0 mm 0.00 in0.0 mm
07:38 PM 76.1°F24.5°C 62.6°F17.0°C 63% 3.6 mph SE5.8 kmh SE 6.0 mph9.7 kmh 30.04 in1017.3 mb 0.00 in0.0 mm 0.00 in0.0 mm 0.00 in0.0 mm
07:39 PM 75.9°F24.4°C 62.0°F16.7°C 62% 3.5 mph SE5.6 kmh SE 6.0 mph9.7 kmh 30.04 in1017.3 mb 0.00 in0.0 mm 0.00 in0.0 mm 0.00 in0.0 mm
07:40 PM 75.9°F24.4°C 62.0°F16.7°C 62% 3.5 mph SE5.6 kmh SE 6.0 mph9.7 kmh 30.04 in1017.3 mb 0.00 in0.0 mm 0.00 in0.0 mm 0.00 in0.0 mm
07:41 PM 75.7°F24.3°C 61.8°F16.6°C 62% 3.4 mph SE5.5 kmh SE 6.0 mph9.7 kmh 30.04 in1017.3 mb 0.00 in0.0 mm 0.00 in0.0 mm 0.00 in0.0 mm
07:42 PM 75.6°F24.2°C 62.1°F16.7°C 63% 3.7 mph SE6.0 kmh SE 6.0 mph9.7 kmh 30.04 in1017.3 mb 0.00 in0.0 mm 0.00 in0.0 mm 0.00 in0.0 mm
07:43 PM 75.6°F24.2°C 62.1°F16.7°C 63% 3.7 mph SE6.0 kmh SE 6.0 mph9.7 kmh 30.04 in1017.3 mb 0.00 in0.0 mm 0.00 in